Provisional Data: West Creek near Weber City, PA


Please select a monitoring station.
Please select start date.
Please select start date.

Toggle Unit: C/F Toggle Unit: C/F
Sample Time Temperature (C) Temperature (F) Specific Conductivity (mS/cm) pH   Turbidity (NTU+) DO (mg/L)
8/1/2022 12:00:00 AM 17.2 62.96 0 7.19 5.81 9.38
8/1/2022 12:15:00 AM 16.95 62.51 0 7.18 5.85 9.44
8/1/2022 12:30:00 AM 16.81 62.258 0 7.22 5.85 9.46
8/1/2022 12:45:00 AM 16.8 62.24 0 7.36 5.85 9.46
8/1/2022 1:00:00 AM 16.78 62.204 0 7.3 5.83 9.45
8/1/2022 1:15:00 AM 16.81 62.258 0 7.31 5.82 9.45
8/1/2022 1:30:00 AM 16.84 62.312 0 7.35 5.83 9.45
8/1/2022 1:45:00 AM 16.82 62.276 0 7.3 5.83 9.45
8/1/2022 2:00:00 AM 16.86 62.348 0 7.35 5.81 9.44
8/1/2022 2:15:00 AM 16.85 62.33 0 7.33 5.79 9.44
8/1/2022 2:30:00 AM 16.89 62.402 0 7.35 5.8 9.43
8/1/2022 2:45:00 AM 16.91 62.438 0 7.35 5.74 9.43
8/1/2022 3:00:00 AM 16.89 62.402 0 7.34 5.74 9.43
8/1/2022 3:15:00 AM 16.85 62.33 0 7.33 5.72 9.45
8/1/2022 3:30:00 AM 16.87 62.366 0 7.34 5.72 9.44
8/1/2022 3:45:00 AM 16.95 62.51 0 7.42 4.79 9.42
8/1/2022 4:00:00 AM 16.93 62.474 0 7.35 5.04 9.43
8/1/2022 4:15:00 AM 16.94 62.492 0 7.35 4.81 9.43
8/1/2022 4:30:00 AM 16.92 62.456 0 7.31 5.18 9.43
8/1/2022 4:45:00 AM 16.91 62.438 0 7.31 5.05 9.44
8/1/2022 5:00:00 AM 16.87 62.366 0 7.27 5.37 9.45
8/1/2022 5:15:00 AM 16.86 62.348 0 7.28 5.34 9.45
8/1/2022 5:30:00 AM 16.82 62.276 0 7.24 5.45 9.46
8/1/2022 5:45:00 AM 16.8 62.24 0 7.24 5.4 9.47
8/1/2022 6:00:00 AM 16.8 62.24 0 7.26 5.28 9.46
8/1/2022 6:15:00 AM 16.78 62.204 0 7.24 5.47 9.47
8/1/2022 6:30:00 AM 16.76 62.168 0 7.23 5.5 9.47
8/1/2022 6:45:00 AM 16.75 62.15 0 7.23 5.52 9.48
8/1/2022 7:00:00 AM 16.79 62.222 0 7.3 5.23 9.47
8/1/2022 7:15:00 AM 16.78 62.204 0 7.25 5.53 9.46
8/1/2022 7:30:00 AM 16.85 62.33 0 7.31 5.12 9.46
8/1/2022 7:45:00 AM 16.93 62.474 0 7.28 5.24 9.44
8/1/2022 8:00:00 AM 17.09 62.762 0 7.31 5.01 9.41
8/1/2022 8:15:00 AM 17.19 62.942 0 7.27 5.33 9.4
8/1/2022 8:30:00 AM 17.34 63.212 0 7.27 5.11 9.38
8/1/2022 8:45:00 AM 17.57 63.626 0 7.31 4.83 9.33
8/1/2022 9:00:00 AM 17.87 64.166 0 7.23 5.88 9.26
8/1/2022 9:15:00 AM 18.27 64.886 0 7.19 5.61 9.21
8/1/2022 9:30:00 AM 18.77 65.786 0 7.06 5.72 9.13
8/1/2022 9:45:00 AM 19.15 66.47 0 7.07 5.69 9.06
8/1/2022 10:00:00 AM 19.64 67.352 0 7.04 5.66 8.97
8/1/2022 10:15:00 AM 20.26 68.468 0 6.91 5.8 8.86
8/1/2022 10:30:00 AM 20.82 69.476 0 6.94 5.66 8.76
8/1/2022 10:45:00 AM 21.3 70.34 0 6.89 5.74 8.69
8/1/2022 11:00:00 AM 21.67 71.006 0 6.91 5.64 8.63
8/1/2022 11:15:00 AM 21.94 71.492 0 6.9 5.69 8.59
8/1/2022 11:30:00 AM 22.07 71.726 0 6.84 5.67 8.56
8/1/2022 11:45:00 AM 22.15 71.87 0 6.97 5.59 8.54
8/1/2022 12:00:00 PM 22.56 72.608 0 6.86 5.63 8.49
8/1/2022 12:15:00 PM 23.11 73.598 0 6.7 5.85 8.41
8/1/2022 12:30:00 PM 23.22 73.796 0 6.89 5.59 8.37
8/1/2022 12:45:00 PM 23.42 74.156 0 6.71 5.68 8.36
8/1/2022 1:00:00 PM 23.71 74.67799 0 6.64 5.68 8.32
8/1/2022 1:15:00 PM 24.1 75.38 0 6.64 5.66 8.25
8/1/2022 1:30:00 PM 24.42 75.956 0 6.66 5.66 8.2
8/1/2022 1:45:00 PM 24.46 76.028 0 6.66 5.6 8.18
8/1/2022 2:00:00 PM 24.35 75.83 0 6.65 5.57 8.21
8/1/2022 2:15:00 PM 24.62 76.316 0 6.7 5.54 8.17
8/1/2022 2:30:00 PM 24.61 76.298 0 6.64 5.57 8.15
8/1/2022 2:45:00 PM 24.51 76.118 0 6.64 5.58 8.17
8/1/2022 3:00:00 PM 24.43 75.974 0 6.66 5.55 8.18
8/1/2022 3:15:00 PM 24.35 75.83 0 6.63 5.55 8.19
8/1/2022 3:30:00 PM 24.28 75.704 0 6.59 5.59 8.2
8/1/2022 3:45:00 PM 24.18 75.524 0 6.65 5.57 8.2
8/1/2022 4:00:00 PM 24.14 75.452 0 6.62 5.57 8.21
8/1/2022 4:15:00 PM 24.21 75.578 0 6.64 5.6 8.19
8/1/2022 4:30:00 PM 24.16 75.488 0 6.64 5.58 8.19
8/1/2022 4:45:00 PM 24.03 75.254 0 6.63 5.61 8.21
8/1/2022 5:00:00 PM 23.82 74.876 0 6.66 5.6 8.24
8/1/2022 5:15:00 PM 23.9 75.02 0 6.65 5.6 8.22
8/1/2022 5:30:00 PM 23.76 74.768 0 6.68 5.59 8.24
8/1/2022 5:45:00 PM 23.7 74.66 0 6.68 5.62 8.25
8/1/2022 6:00:00 PM 23.61 74.498 0 6.65 5.6 8.25
8/1/2022 6:15:00 PM 23.3 73.94 0 6.72 5.62 8.29
8/1/2022 6:30:00 PM 23.11 73.598 0 6.85 5.64 8.31
8/1/2022 6:45:00 PM 23.07 73.526 0 6.86 5.59 8.32
8/1/2022 7:00:00 PM 22.84 73.112 0 6.84 5.61 8.35
8/1/2022 7:15:00 PM 22.53 72.554 0 6.89 5.66 8.4
8/1/2022 7:30:00 PM 22.26 72.068 0 6.92 5.65 8.44
8/1/2022 7:45:00 PM 22.07 71.726 0 6.93 5.68 8.46
8/1/2022 8:00:00 PM 21.85 71.33 0 6.95 5.66 8.5
8/1/2022 8:15:00 PM 21.66 70.988 0 6.98 5.63 8.52
8/1/2022 8:30:00 PM 21.43 70.574 0 6.98 5.66 8.56
8/1/2022 8:45:00 PM 21.2 70.16 0 6.99 5.65 8.59
8/1/2022 9:00:00 PM 20.92 69.656 0 6.99 5.65 8.64
8/1/2022 9:15:00 PM 20.73 69.314 0 7.04 5.68 8.68
8/1/2022 9:30:00 PM 20.56 69.008 0 7.05 5.65 8.71
8/1/2022 9:45:00 PM 20.41 68.738 0 7.06 5.65 8.73
8/1/2022 10:00:00 PM 20.21 68.378 0 7.05 5.69 8.77
8/1/2022 10:15:00 PM 20.16 68.288 0 7.14 5.63 8.77
8/1/2022 10:30:00 PM 19.99 67.982 0 7.06 5.69 8.8
8/1/2022 10:45:00 PM 19.76 67.568 0 7.05 5.68 8.85
8/1/2022 11:00:00 PM 19.59 67.262 0 7.08 5.7 8.87
8/1/2022 11:15:00 PM 19.44 66.992 0 7.09 5.72 8.9
8/1/2022 11:30:00 PM 19.32 66.776 0 7.1 5.71 8.92
8/1/2022 11:45:00 PM 19.26 66.668 0 7.2 5.64 8.93
8/2/2022 12:00:00 AM 19.25 66.65 0 7.19 5.64 8.93
8/2/2022 12:15:00 AM 19.22 66.596 0 7.16 5.69 8.93
8/2/2022 12:30:00 AM 19.08 66.344 0 7.11 5.7 8.96
8/2/2022 12:45:00 AM 18.94 66.092 0 7.11 5.72 8.99
8/2/2022 1:00:00 AM 18.82 65.876 0 7.12 5.71 9.01
8/2/2022 1:15:00 AM 18.79 65.82201 0 7.23 5.57 9
8/2/2022 1:30:00 AM 18.81 65.858 0 7.23 5.44 9
8/2/2022 1:45:00 AM 18.77 65.786 0 7.18 5.49 9.01
8/2/2022 2:00:00 AM 18.81 65.858 0 7.24 4.91 9
8/2/2022 2:15:00 AM 18.83 65.894 0 7.23 4.7 9
8/2/2022 2:30:00 AM 18.91 66.038 0 7.25 4.11 8.99
8/2/2022 2:45:00 AM 18.96 66.128 0 7.23 4.08 8.98
8/2/2022 3:00:00 AM 18.97 66.146 0 7.22 3.97 8.98
8/2/2022 3:15:00 AM 18.97 66.146 0 7.19 4.19 8.98
8/2/2022 3:30:00 AM 18.98 66.164 0 7.24 3.27 8.98
8/2/2022 3:45:00 AM 18.95 66.11 0 7.19 4.4 8.99
8/2/2022 4:00:00 AM 18.99 66.182 0 7.22 3.92 8.98
8/2/2022 4:15:00 AM 19.02 66.236 0 7.25 2.59 8.97
8/2/2022 4:30:00 AM 19.06 66.308 0 7.26 1.89 8.97
8/2/2022 4:45:00 AM 18.93 66.074 0 7.16 4.53 9
8/2/2022 5:00:00 AM 18.9 66.02 0 7.2 3.09 9
8/2/2022 5:15:00 AM 18.74 65.732 0 7.12 5.32 9.04
8/2/2022 5:30:00 AM 18.62 65.516 0 7.1 4.87 9.07
8/2/2022 5:45:00 AM 18.56 65.408 0 7.13 4.51 9.08
8/2/2022 6:00:00 AM 18.47 65.246 0 7.12 4.72 9.1
8/2/2022 6:15:00 AM 18.38 65.084 0 7.13 4.67 9.12
8/2/2022 6:30:00 AM 18.37 65.066 0 7.25 2.96 9.11
8/2/2022 6:45:00 AM 18.47 65.246 0 7.29 1.63 9.1
8/2/2022 7:00:00 AM 18.52 65.336 0 7.26 1.86 9.09
8/2/2022 7:15:00 AM 18.72 65.696 0 7.32 1.85 9.06
8/2/2022 7:30:00 AM 18.92 66.056 0 7.33 2.24 9.02
8/2/2022 7:45:00 AM 19.13 66.434 0 7.3 2.23 8.99
8/2/2022 8:00:00 AM 19.48 67.064 0 7.35 3.79 8.93
8/2/2022 8:15:00 AM 19.86 67.748 0 7.35 4 8.86
8/2/2022 8:30:00 AM 20.21 68.378 0 7.33 3.3 8.81
8/2/2022 8:45:00 AM 20.91 69.638 0 7.33 3.07 8.7
8/2/2022 9:00:00 AM 21.32 70.376 0 7.27 2.74 8.63
8/2/2022 9:15:00 AM 21.49 70.682 0 7.17 6.13 8.6
8/2/2022 9:30:00 AM 21.77 71.186 0 7.16 5.95 8.56
8/2/2022 9:45:00 AM 21.95 71.51 0 6.99 7.35 8.55
8/2/2022 10:00:00 AM 22.13 71.834 0 7.02 6.62 8.53
8/2/2022 10:15:00 AM 22.86 73.148 0 6.85 7.07 8.44
8/2/2022 10:30:00 AM 23.55 74.39 0 6.81 6.38 8.33
8/2/2022 10:45:00 AM 23.86 74.948 0 6.76 6.09 8.29
8/2/2022 11:00:00 AM 23.87 74.966 0 6.76 5.93 8.28
8/2/2022 11:15:00 AM 24.09 75.362 0 6.58 5.94 8.26
8/2/2022 11:30:00 AM 24.72 76.496 0 6.61 5.84 8.16
8/2/2022 11:45:00 AM 25.08 77.144 0 6.5 5.77 8.12
8/2/2022 12:00:00 PM 25.38 77.684 0 6.47 5.67 8.07
8/2/2022 12:15:00 PM 25.62 78.116 0 6.48 5.65 8.03
8/2/2022 12:30:00 PM 25.71 78.278 0 6.48 5.61 8.01
8/2/2022 12:45:00 PM 25.63 78.134 0 6.46 5.63 8.02
8/2/2022 1:00:00 PM 25.48 77.864 0 6.49 5.62 8.04
8/2/2022 1:15:00 PM 25.54 77.972 0 6.41 5.62 8.04
8/2/2022 1:30:00 PM 25.64 78.152 0 6.4 5.58 8.03
8/2/2022 1:45:00 PM 25.73 78.314 0 6.42 5.63 8
8/2/2022 2:00:00 PM 25.92 78.656 0 6.41 5.61 7.98
8/2/2022 2:15:00 PM 25.91 78.638 0 6.4 5.61 7.99
8/2/2022 2:30:00 PM 25.61 78.098 0 6.43 5.61 8
8/2/2022 2:45:00 PM 25.46 77.828 0 6.42 5.59 8.02
8/2/2022 3:00:00 PM 25.34 77.612 0 6.42 5.64 8.03
8/2/2022 3:15:00 PM 25.46 77.828 0 6.43 5.64 8.01
8/2/2022 3:30:00 PM 25.57 78.026 0 6.4 5.61 8
8/2/2022 3:45:00 PM 25.59 78.062 0 6.4 5.62 7.99
8/2/2022 4:00:00 PM 25.33 77.594 0 6.41 5.62 8.03
8/2/2022 4:15:00 PM 25.28 77.504 0 6.41 5.62 8.04
8/2/2022 4:30:00 PM 25.2 77.36 0 6.4 5.6 8.04
8/2/2022 4:45:00 PM 25.45 77.81 0 6.4 5.61 8
8/2/2022 5:00:00 PM 25.45 77.81 0 6.39 5.6 8.01
8/2/2022 5:15:00 PM 25.28 77.504 0 6.4 5.46 8.01
8/2/2022 5:30:00 PM 25.24 77.432 0 6.4 5.51 8.01
8/2/2022 5:45:00 PM 25.07 77.126 0 6.39 5.49 8.04
8/2/2022 6:00:00 PM 24.95 76.91 0 6.4 5.5 8.06
8/2/2022 6:15:00 PM 24.67 76.406 0 6.4 5.46 8.09
8/2/2022 6:30:00 PM 24.4 75.92 0 6.41 5.52 8.13
8/2/2022 6:45:00 PM 24.16 75.488 0 6.43 5.52 8.14
8/2/2022 7:00:00 PM 23.84 74.912 0 6.42 5.55 8.19
8/2/2022 7:15:00 PM 23.53 74.354 0 6.45 5.54 8.23
8/2/2022 7:30:00 PM 23.01 73.418 0 6.45 5.53 8.31
8/2/2022 7:45:00 PM 22.54 72.57201 0 6.46 5.56 8.37
8/2/2022 8:00:00 PM 22.08 71.744 0 6.46 5.54 8.45
8/2/2022 8:15:00 PM 21.44 70.592 0 6.47 5.6 8.57
8/2/2022 8:30:00 PM 21.1 69.98 0 6.52 5.63 8.61
8/2/2022 8:45:00 PM 20.74 69.332 0 6.54 5.62 8.66
8/2/2022 9:00:00 PM 20.31 68.558 0 6.55 5.64 8.73
8/2/2022 9:15:00 PM 19.96 67.92799 0 6.55 5.65 8.79
8/2/2022 9:30:00 PM 19.54 67.172 0 6.57 5.67 8.85
8/2/2022 9:45:00 PM 19.15 66.47 0 6.64 5.71 8.94
8/2/2022 10:00:00 PM 18.76 65.768 0 6.61 5.67 9
8/2/2022 10:15:00 PM 18.29 64.922 0 6.77 5.65 9.07
8/2/2022 10:30:00 PM 17.93 64.274 0 6.72 5.7 9.15
8/2/2022 10:45:00 PM 17.57 63.626 0 6.75 5.67 9.22
8/2/2022 11:00:00 PM 17.22 62.996 0 6.8 5.7 9.28
8/2/2022 11:15:00 PM 16.99 62.582 0 6.91 5.68 9.3
8/2/2022 11:30:00 PM 16.75 62.15 0 6.92 5.7 9.36
8/2/2022 11:45:00 PM 16.5 61.7 0 6.96 5.67 9.38
8/3/2022 12:00:00 AM 16.24 61.232 0 6.87 5.7 9.46
8/3/2022 12:15:00 AM 16 60.8 0 6.89 5.72 9.48
8/3/2022 12:30:00 AM 15.74 60.332 0 6.91 5.7 9.53
8/3/2022 12:45:00 AM 15.49 59.882 0 6.93 5.73 9.59
8/3/2022 1:00:00 AM 15.38 59.684 0 7.02 5.72 9.59
8/3/2022 1:15:00 AM 15.29 59.522 0 7.04 5.72 9.6
8/3/2022 1:30:00 AM 15.08 59.144 0 7.03 5.74 9.66
8/3/2022 1:45:00 AM 14.92 58.856 0 7.05 5.74 9.71
8/3/2022 2:00:00 AM 14.72 58.496 0 7.02 5.74 9.75
8/3/2022 2:15:00 AM 14.39 57.902 0 6.99 5.74 9.83
8/3/2022 2:30:00 AM 14.31 57.758 0 7.06 5.74 9.85
8/3/2022 2:45:00 AM 13.98 57.164 0 6.98 5.76 9.94
8/3/2022 3:00:00 AM 13.94 57.092 0 7.1 5.72 9.96
8/3/2022 3:15:00 AM 13.85 56.93 0 7.04 5.76 9.97
8/3/2022 3:30:00 AM 13.7 56.66 0 6.97 5.75 9.99
8/3/2022 3:45:00 AM 13.43 56.174 0 6.97 5.78 10.08
8/3/2022 4:00:00 AM 13.3 55.94 0 7.01 5.78 10.1
8/3/2022 4:15:00 AM 13.16 55.688 0 7.01 5.75 10.13
8/3/2022 4:30:00 AM 12.99 55.382 0 7.01 5.77 10.18
8/3/2022 4:45:00 AM 12.9 55.22 0 7.03 5.8 10.19
8/3/2022 5:00:00 AM 12.73 54.914 0 7.02 5.8 10.22
8/3/2022 5:15:00 AM 12.65 54.77 0 7.03 5.79 10.25
8/3/2022 5:30:00 AM 12.73 54.914 0 7.08 5.79 10.23
8/3/2022 5:45:00 AM 12.8 55.04 0 7.07 5.77 10.21
8/3/2022 6:00:00 AM 12.88 55.184 0 7.16 5.72 10.2
8/3/2022 6:15:00 AM 13.02 55.436 0 7.12 5.77 10.16
8/3/2022 6:30:00 AM 13.15 55.67 0 7.1 5.76 10.13
8/3/2022 6:45:00 AM 13.19 55.742 0 7.16 5.75 10.11
8/3/2022 7:00:00 AM 13.21 55.778 0 7.26 5.56 10.13
8/3/2022 7:15:00 AM 13.24 55.832 0 7.13 5.74 10.11
8/3/2022 7:30:00 AM 13.36 56.048 0 7.32 5.34 10.09
8/3/2022 7:45:00 AM 13.41 56.138 0 7.14 5.71 10.08
8/3/2022 8:00:00 AM 13.51 56.318 0 7.14 5.68 10.07
8/3/2022 8:15:00 AM 13.83 56.894 0 7.13 5.73 9.97
8/3/2022 8:30:00 AM 14.03 57.254 0 7.19 5.51 9.95
8/3/2022 8:45:00 AM 14.28 57.704 0 7.23 5.29 9.91
8/3/2022 9:00:00 AM 14.57 58.226 0 7.15 5.56 9.86
8/3/2022 9:15:00 AM 15.03 59.054 0 7.12 5.59 9.76
8/3/2022 9:30:00 AM 15.73 60.314 0 7.17 5.4 9.63
8/3/2022 9:45:00 AM 16.62 61.916 0 7.03 5.61 9.45
8/3/2022 10:00:00 AM 17.92 64.256 0 6.97 5.61 9.21
8/3/2022 10:15:00 AM 19.5 67.1 0 6.87 5.61 8.96
8/3/2022 10:30:00 AM 20.53 68.954 0 6.8 5.58 8.78
8/3/2022 10:45:00 AM 21.33 70.394 0 6.8 5.53 8.65
8/3/2022 11:00:00 AM 22.42 72.356 0 6.58 5.6 8.46
8/3/2022 11:15:00 AM 22.9 73.22 0 6.53 5.54 8.39
8/3/2022 11:30:00 AM 23.35 74.03 0 6.51 5.52 8.33
8/3/2022 11:45:00 AM 23.96 75.128 0 6.53 5.5 8.23
8/3/2022 12:00:00 PM 24.25 75.65 0 6.51 5.5 8.19
8/3/2022 12:15:00 PM 24.53 76.154 0 6.44 5.48 8.15
8/3/2022 12:30:00 PM 24.79 76.622 0 6.39 5.46 8.13
8/3/2022 12:45:00 PM 25.05 77.09 0 6.44 5.44 8.07
8/3/2022 1:00:00 PM 25.29 77.522 0 6.45 5.44 8.03
8/3/2022 1:15:00 PM 25.52 77.936 0 6.41 5.43 8
8/3/2022 1:30:00 PM 25.59 78.062 0 6.4 5.44 7.99
8/3/2022 1:45:00 PM 25.84 78.512 0 6.41 5.42 7.94
8/3/2022 2:00:00 PM 26 78.8 0 6.44 5.42 7.9
8/3/2022 2:15:00 PM 26.2 79.16 0 6.37 5.4 7.88
8/3/2022 2:30:00 PM 26.38 79.484 0 6.34 5.39 7.87
8/3/2022 2:45:00 PM 26.52 79.736 0 6.36 5.37 7.84
8/3/2022 3:00:00 PM 26.73 80.114 0 6.34 5.39 7.81
8/3/2022 3:15:00 PM 26.72 80.096 0 6.34 5.36 7.81
8/3/2022 3:30:00 PM 26.76 80.168 0 6.33 5.39 7.8
8/3/2022 3:45:00 PM 26.78 80.204 0 6.34 5.4 7.8
8/3/2022 4:00:00 PM 26.7 80.06 0 6.34 5.38 7.8
8/3/2022 4:15:00 PM 26.84 80.312 0 6.33 5.37 7.79
8/3/2022 4:30:00 PM 26.96 80.528 0 6.35 5.35 7.76
8/3/2022 4:45:00 PM 27.38 81.284 0 6.34 5.38 7.69
8/3/2022 5:00:00 PM 27.82 82.076 0 6.31 5.33 7.64
8/3/2022 5:15:00 PM 27.72 81.896 0 6.31 5.36 7.67
8/3/2022 5:30:00 PM 27.32 81.176 0 6.35 5.39 7.69
8/3/2022 5:45:00 PM 27.4 81.32 0 6.32 5.33 7.7
8/3/2022 6:00:00 PM 27.12 80.816 0 6.34 5.38 7.72
8/3/2022 6:15:00 PM 26.89 80.402 0 6.37 5.37 7.74
8/3/2022 6:30:00 PM 26.56 79.808 0 6.4 5.41 7.77
8/3/2022 6:45:00 PM 26.17 79.106 0 6.49 5.4 7.82
8/3/2022 7:00:00 PM 25.85 78.53 0 6.57 5.43 7.85
8/3/2022 7:15:00 PM 25.48 77.864 0 6.57 5.4 7.91
8/3/2022 7:30:00 PM 25 77 0 6.59 5.41 7.98
8/3/2022 7:45:00 PM 24.56 76.208 0 6.67 5.42 8.04
8/3/2022 8:00:00 PM 24.14 75.452 0 6.73 5.46 8.1
8/3/2022 8:15:00 PM 23.7 74.66 0 6.74 5.46 8.17
8/3/2022 8:30:00 PM 23.3 73.94 0 6.77 5.48 8.23
8/3/2022 8:45:00 PM 22.88 73.184 0 6.79 5.5 8.29
8/3/2022 9:00:00 PM 22.58 72.644 0 6.82 5.51 8.33
8/3/2022 9:15:00 PM 22.21 71.978 0 6.84 5.52 8.4
8/3/2022 9:30:00 PM 21.95 71.51 0 6.87 5.51 8.43
8/3/2022 9:45:00 PM 21.66 70.988 0 6.89 5.53 8.48
8/3/2022 10:00:00 PM 21.32 70.376 0 6.89 5.55 8.54
8/3/2022 10:15:00 PM 21.13 70.034 0 6.92 5.53 8.56
8/3/2022 10:30:00 PM 20.91 69.638 0 6.93 5.53 8.61
8/3/2022 10:45:00 PM 20.72 69.296 0 6.95 5.59 8.64
8/3/2022 11:00:00 PM 20.55 68.99 0 6.95 5.6 8.67
8/3/2022 11:15:00 PM 20.43 68.774 0 7.1 5.59 8.69
8/3/2022 11:30:00 PM 20.31 68.558 0 7.04 5.58 8.71
8/3/2022 11:45:00 PM 20.14 68.252 0 7.03 5.59 8.74
8/4/2022 12:00:00 AM 19.93 67.874 0 6.98 5.58 8.79
8/4/2022 12:15:00 AM 19.81 67.658 0 7.02 5.58 8.81
8/4/2022 12:30:00 AM 19.66 67.388 0 7.01 5.56 8.84
8/4/2022 12:45:00 AM 19.61 67.298 0 7.11 5.56 8.83
8/4/2022 1:00:00 AM 19.51 67.118 0 7.03 5.58 8.86
8/4/2022 1:15:00 AM 19.4 66.92 0 7.09 5.59 8.87
8/4/2022 1:30:00 AM 19.31 66.758 0 7.09 5.54 8.89
8/4/2022 1:45:00 AM 19.19 66.542 0 7.04 5.57 8.92
8/4/2022 2:00:00 AM 19.1 66.38 0 7.03 5.59 8.94
8/4/2022 2:15:00 AM 19 66.2 0 7.05 5.59 8.96
8/4/2022 2:30:00 AM 18.89 66.002 0 7.06 5.57 8.98
8/4/2022 2:45:00 AM 18.87 65.966 0 7.13 5.5 8.97
8/4/2022 3:00:00 AM 18.87 65.966 0 7.12 5.49 8.98
8/4/2022 3:15:00 AM 18.82 65.876 0 7.09 5.52 8.99
8/4/2022 3:30:00 AM 18.84 65.912 0 7.21 4.73 8.98
8/4/2022 3:45:00 AM 18.7 65.66 0 7.09 5.28 9.02
8/4/2022 4:00:00 AM 18.63 65.534 0 7.07 5.26 9.03
8/4/2022 4:15:00 AM 18.54 65.372 0 7.06 5.26 9.05
8/4/2022 4:30:00 AM 18.51 65.318 0 7.15 4.89 9.05
8/4/2022 4:45:00 AM 18.37 65.066 0 7.07 5.32 9.09
8/4/2022 5:00:00 AM 18.32 64.976 0 7.07 5.18 9.1
8/4/2022 5:15:00 AM 18.23 64.814 0 7.07 5.14 9.12
8/4/2022 5:30:00 AM 18.22 64.796 0 7.12 5.05 9.11
8/4/2022 5:45:00 AM 18.16 64.688 0 7.1 4.91 9.13
8/4/2022 6:00:00 AM 18.19 64.742 0 7.15 4.36 9.13
8/4/2022 6:15:00 AM 18.23 64.814 0 7.17 3.58 9.11
8/4/2022 6:30:00 AM 18.24 64.832 0 7.17 3.26 9.12
8/4/2022 6:45:00 AM 18.32 64.976 0 7.21 1.97 9.1
8/4/2022 7:00:00 AM 18.47 65.246 0 7.36 1.22 9.08
8/4/2022 7:15:00 AM 18.54 65.372 0 7.27 1.38 9.07
8/4/2022 7:30:00 AM 18.64 65.552 0 7.23 1.97 9.06
8/4/2022 7:45:00 AM 18.81 65.858 0 7.21 2.28 9.03
8/4/2022 8:00:00 AM 18.98 66.164 0 7.24 2.36 9
8/4/2022 8:15:00 AM 19.28 66.704 0 7.2 2.78 8.95
8/4/2022 8:30:00 AM 19.72 67.496 0 7.19 3.23 8.88
8/4/2022 8:45:00 AM 20.26 68.468 0 7.16 3.61 8.8
8/4/2022 9:00:00 AM 20.8 69.44 0 7.07 4.38 8.71
8/4/2022 9:15:00 AM 21.34 70.412 0 7.02 4.55 8.62
8/4/2022 9:30:00 AM 21.85 71.33 0 7.05 4.42 8.53
8/4/2022 9:45:00 AM 22.43 72.374 0 6.96 4.98 8.45
8/4/2022 10:00:00 AM 22.87 73.166 0 7.04 4.59 8.37
8/4/2022 10:15:00 AM 23.17 73.706 0 7.05 4.66 8.33
8/4/2022 10:30:00 AM 23.85 74.93 0 7.01 4.85 8.25
8/4/2022 10:45:00 AM 24.83 76.694 0 6.96 5.23 8.11
8/4/2022 11:00:00 AM 25.86 78.548 0 6.8 5.3 7.97
8/4/2022 11:15:00 AM 26.54 79.772 0 6.72 5.33 7.9
8/4/2022 11:30:00 AM 27.22 80.996 0 6.73 5.29 7.81
8/4/2022 11:45:00 AM 27.56 81.608 0 6.73 5.29 7.77
8/4/2022 12:00:00 PM 27.92 82.256 0 6.71 5.28 7.74
8/4/2022 12:15:00 PM 25.25 77.45 0 6.81 5.24 8.02
8/4/2022 12:30:00 PM 23.48 74.264 0 7.45 1.63 8.25
8/4/2022 12:45:00 PM 22.41 72.338 0 7.48 1.72 8.38
8/4/2022 1:00:00 PM 22.03 71.654 0 7.38 1.77 8.47
8/4/2022 1:15:00 PM 21.78 71.204 0 7.47 1.71 8.5
8/4/2022 1:30:00 PM 21.68 71.024 0 7.41 1.76 8.51
8/4/2022 1:45:00 PM 21.74 71.132 0 7.39 1.77 8.51
8/4/2022 2:00:00 PM 21.95 71.51 0 7.37 1.71 8.49
8/4/2022 2:15:00 PM 22.03 71.654 0 7.32 1.73 8.47
8/4/2022 2:30:00 PM 22.36 72.248 0 7.35 1.76 8.44
8/4/2022 2:45:00 PM 22.71 72.878 0 7.31 1.77 8.39
8/4/2022 3:00:00 PM 22.72 72.896 0 7.22 1.83 8.36
8/4/2022 3:15:00 PM 22.87 73.166 0 7.29 1.89 8.38
8/4/2022 3:30:00 PM 23.2 73.76 0 7.3 1.91 8.33
8/4/2022 3:45:00 PM 23.4 74.12 0 7.27 1.9 8.29
8/4/2022 4:00:00 PM 23.05 73.49 0 7.24 1.82 8.35
8/4/2022 4:15:00 PM 22.35 72.23 0 7.12 1.87 8.45
8/4/2022 4:30:00 PM 22.18 71.924 0 7.19 1.81 8.48
8/4/2022 4:45:00 PM 22.15 71.87 0 7.1 1.79 8.47
8/4/2022 5:00:00 PM 22.24 72.032 0 7.14 1.76 8.48
8/4/2022 5:15:00 PM 22.24 72.032 0 7.17 1.84 8.49
8/4/2022 5:30:00 PM 22.34 72.212 0 7.14 1.73 8.46
8/4/2022 5:45:00 PM 22.3 72.14 0 7.15 1.81 8.48
8/4/2022 6:00:00 PM 22.27 72.086 0 7.13 1.84 8.48
8/4/2022 6:15:00 PM 22.29 72.122 0 7.12 1.75 8.49
8/4/2022 6:30:00 PM 22.34 72.212 0 7.12 1.94 8.47
8/4/2022 6:45:00 PM 22.4 72.32 0 7.12 1.84 8.46
8/4/2022 7:00:00 PM 22.35 72.23 0 7.09 1.85 8.46
8/4/2022 7:15:00 PM 22.32 72.176 0 7.08 1.73 8.47
8/4/2022 7:30:00 PM 22.22 71.996 0 7.09 1.85 8.49
8/4/2022 7:45:00 PM 22.17 71.906 0 7.09 1.76 8.5
8/4/2022 8:00:00 PM 22.06 71.708 0 7.08 1.74 8.52
8/4/2022 8:15:00 PM 21.92 71.456 0 7.07 1.83 8.55
8/4/2022 8:30:00 PM 21.66 70.988 0 7.08 1.76 8.59
8/4/2022 8:45:00 PM 21.48 70.664 0 7.07 1.71 8.62
8/4/2022 9:00:00 PM 21.31 70.358 0 7.07 1.72 8.65
8/4/2022 9:15:00 PM 21.28 70.304 0 7.04 1.75 8.65
8/4/2022 9:30:00 PM 21.25 70.25 0 7.04 1.75 8.66
8/4/2022 9:45:00 PM 21.21 70.17799 0 7.03 1.93 8.67
8/4/2022 10:00:00 PM 21.31 70.358 0 7.02 1.69 8.64
8/4/2022 10:15:00 PM 22.36 72.248 0 7.17 1.71 8.46
8/4/2022 10:30:00 PM 22.8 73.04 0 6.59 1.68 8.41
8/4/2022 10:45:00 PM 22.85 73.13 0 6.23 1.66 8.41
8/4/2022 11:00:00 PM 22.53 72.554 0 6.21 1.71 8.48
8/4/2022 11:15:00 PM 22.48 72.464 0 6.34 1.8 8.48
8/4/2022 11:30:00 PM 22.38 72.284 0 6.34 1.52 8.49
8/4/2022 11:45:00 PM 22.12 71.816 0 6.37 1.82 8.54
8/5/2022 12:00:00 AM 21.97 71.546 0 6.38 1.76 8.56
8/5/2022 12:15:00 AM 21.62 70.916 0 6.39 1.8 8.63
8/5/2022 12:30:00 AM 21.44 70.592 0 6.41 1.76 8.65
8/5/2022 12:45:00 AM 21.16 70.088 0 6.39 1.94 8.7
8/5/2022 1:00:00 AM 21.06 69.908 0 6.46 1.9 8.72
8/5/2022 1:15:00 AM 20.93 69.674 0 6.49 1.76 8.75
8/5/2022 1:30:00 AM 20.81 69.458 0 6.46 1.77 8.78
8/5/2022 1:45:00 AM 20.82 69.476 0 6.47 1.74 8.77
8/5/2022 2:00:00 AM 20.68 69.224 0 6.47 1.73 8.79
8/5/2022 2:15:00 AM 20.67 69.206 0 6.4 1.71 8.78
8/5/2022 2:30:00 AM 20.65 69.17 0 6.47 1.75 8.8
8/5/2022 2:45:00 AM 20.57 69.026 0 6.61 1.64 8.81
8/5/2022 3:00:00 AM 20.52 68.936 0 6.66 1.6 8.82
8/5/2022 3:15:00 AM 20.39 68.702 0 6.63 1.66 8.85
8/5/2022 3:30:00 AM 20.33 68.594 0 6.64 1.78 8.85
8/5/2022 3:45:00 AM 20.44 68.792 0 6.58 1.84 8.84
8/5/2022 4:00:00 AM 20.46 68.828 0 6.51 1.79 8.83
8/5/2022 4:15:00 AM 20.41 68.738 0 6.49 1.9 8.84
8/5/2022 4:30:00 AM 20.4 68.72 0 6.75 1.64 8.85
8/5/2022 4:45:00 AM 20.45 68.81 0 6.71 1.85 8.83
8/5/2022 5:00:00 AM 20.4 68.72 0 6.74 1.73 8.85
8/5/2022 5:15:00 AM 20.38 68.684 0 6.56 1.61 8.86
8/5/2022 5:30:00 AM 20.37 68.666 0 6.57 1.67 8.86
8/5/2022 5:45:00 AM 20.2 68.36 0 6.64 1.78 8.89
8/5/2022 6:00:00 AM 20.06 68.108 0 6.5 1.65 8.92
8/5/2022 6:15:00 AM 20.05 68.09 0 6.62 1.73 8.92
8/5/2022 6:30:00 AM 19.98 67.964 0 6.54 1.93 8.94
8/5/2022 6:45:00 AM 20.01 68.018 0 6.53 1.59 8.93
8/5/2022 7:00:00 AM 19.94 67.892 0 6.53 1.69 8.94
8/5/2022 7:15:00 AM 19.88 67.784 0 6.61 1.72 8.96
8/5/2022 7:30:00 AM 19.9 67.82 0 6.63 1.89 8.95
8/5/2022 7:45:00 AM 19.92 67.856 0 6.55 1.78 8.95
8/5/2022 8:00:00 AM 19.96 67.92799 0 6.76 1.56 8.95
8/5/2022 8:15:00 AM 20.06 68.108 0 6.82 1.72 8.93
8/5/2022 8:30:00 AM 20.38 68.684 0 6.77 1.83 8.89
8/5/2022 8:45:00 AM 20.47 68.846 0 6.69 1.81 8.87
8/5/2022 9:00:00 AM 20.62 69.116 0 6.82 1.58 8.85
8/5/2022 9:15:00 AM 20.69 69.242 0 6.7 1.76 8.84
8/5/2022 9:30:00 AM 20.89 69.602 0 6.81 1.81 8.81
8/5/2022 9:45:00 AM 21.06 69.908 0 6.57 1.76 8.78
8/5/2022 10:00:00 AM 21.1 69.98 0 6.62 1.77 8.79
8/5/2022 10:15:00 AM 21.29 70.32201 0 6.9 1.9 8.75
8/5/2022 10:30:00 AM 21.55 70.79 0 6.84 1.82 8.71
8/5/2022 10:45:00 AM 21.71 71.078 0 6.72 1.78 8.68
8/5/2022 11:00:00 AM 21.93 71.474 0 6.77 1.8 8.64
8/5/2022 11:15:00 AM 22.19 71.942 0 6.9 1.9 8.61
8/5/2022 11:30:00 AM 22.57 72.626 0 6.44 1.74 8.54
8/5/2022 11:45:00 AM 22.92 73.256 0 6.7 2.05 8.5
8/5/2022 12:00:00 PM 23.22 73.796 0 6.67 1.83 8.45
8/5/2022 12:15:00 PM 23.39 74.102 0 6.88 1.86 8.42
8/5/2022 12:30:00 PM 23.67 74.606 0 6.58 1.85 8.39
8/5/2022 12:45:00 PM 23.9 75.02 0 6.54 1.97 8.38
8/5/2022 1:00:00 PM 24.05 75.29 0 6.51 2.04 8.36
8/5/2022 1:15:00 PM 24.23 75.614 0 6.46 1.87 8.31
8/5/2022 1:30:00 PM 24.37 75.866 0 6.5 1.74 8.32
8/5/2022 1:45:00 PM 24.48 76.064 0 6.53 2.04 8.28
8/5/2022 2:00:00 PM 24.71 76.478 0 6.61 2 8.28
8/5/2022 2:15:00 PM 24.69 76.442 0 6.61 1.94 8.27
8/5/2022 2:30:00 PM 24.92 76.856 0 6.56 2.06 8.25
8/5/2022 2:45:00 PM 25.09 77.162 0 6.64 2.17 8.21
8/5/2022 3:00:00 PM 25.24 77.432 0 6.45 1.96 8.14
8/5/2022 3:15:00 PM 25.25 77.45 0 6.66 2.05 8.18
8/5/2022 3:30:00 PM 25.35 77.63 0 6.56 2.13 8.16
8/5/2022 3:45:00 PM 25.44 77.792 0 6.67 2.01 8.15
8/5/2022 4:00:00 PM 25.48 77.864 0 6.67 2 8.13
8/5/2022 4:15:00 PM 25.33 77.594 0 6.49 2.08 8.14
8/5/2022 4:30:00 PM 25.55 77.99 0 6.65 2.11 8.13
8/5/2022 4:45:00 PM 25.57 78.026 0 6.69 2.41 8.13
8/5/2022 5:00:00 PM 25.58 78.044 0 6.74 2.26 8.12
8/5/2022 5:15:00 PM 25.75 78.35 0 6.77 1.78 8.09
8/5/2022 5:30:00 PM 25.75 78.35 0 6.76 1.75 8.08
8/5/2022 5:45:00 PM 25.74 78.332 0 6.74 2.42 8.1
8/5/2022 6:00:00 PM 25.12 77.216 0 5.97 5.44 8.26
8/5/2022 6:15:00 PM 25.05 77.09 0 6.52 5.51 8.22
8/5/2022 6:30:00 PM 24.47 76.046 0 6 5.51 8.32
8/5/2022 6:45:00 PM 23.58 74.444 0 6.72 2.1 8.39
8/5/2022 7:00:00 PM 22.94 73.292 0 6.78 1.87 8.48
8/5/2022 7:15:00 PM 22.69 72.842 0 6.77 1.86 8.51
8/5/2022 7:30:00 PM 22.55 72.59 0 6.68 1.65 8.54
8/5/2022 7:45:00 PM 22.35 72.23 0 6.81 1.8 8.57
8/5/2022 8:00:00 PM 22.25 72.05 0 6.87 1.62 8.59
8/5/2022 8:15:00 PM 21.95 71.51 0 6.34 1.65 8.62
8/5/2022 8:30:00 PM 22.19 71.942 0 6.12 1.69 8.6
8/5/2022 8:45:00 PM 21.85 71.33 0 6.07 1.7 8.67
8/5/2022 9:00:00 PM 21.87 71.366 0 6.09 1.63 8.66
8/5/2022 9:15:00 PM 21.79 71.222 0 6.1 1.69 8.67
8/5/2022 9:30:00 PM 21.62 70.916 0 6.13 1.75 8.7
8/5/2022 9:45:00 PM 21.53 70.754 0 6.15 1.69 8.71
8/5/2022 10:00:00 PM 21.69 71.042 0 6.19 1.66 8.69
8/5/2022 10:15:00 PM 21.59 70.862 0 6.25 1.67 8.7
8/5/2022 10:30:00 PM 21.52 70.736 0 6.19 1.77 8.72
8/5/2022 10:45:00 PM 21.48 70.664 0 6.17 1.57 8.73
8/5/2022 11:00:00 PM 21.55 70.79 0 6.2 1.65 8.71
8/5/2022 11:15:00 PM 21.73 71.114 0 6.22 1.71 8.69
8/5/2022 11:30:00 PM 21.87 71.366 0 6.21 1.65 8.65
8/5/2022 11:45:00 PM 21.89 71.402 0 6.29 1.65 8.66
8/6/2022 12:00:00 AM 21.93 71.474 0 6.3 1.62 8.64
8/6/2022 12:15:00 AM 24 75.2 0.119 7.17 26.51 7.61
8/6/2022 12:30:00 AM 23.42 74.156 0.135 6.8 19.62 7.25
8/6/2022 12:45:00 AM 23.42 74.156 0.124 6.85 18.9 7.47
8/6/2022 1:00:00 AM 23.5 74.3 0.116 6.93 18.83 7.62
8/6/2022 1:15:00 AM 23.51 74.318 0.114 7 16.76 7.72
8/6/2022 1:30:00 AM 23.46 74.228 0.115 7.02 15.15 7.75
8/6/2022 1:45:00 AM 23.42 74.156 0.116 7.02 13.56 7.78
8/6/2022 2:00:00 AM 23.38 74.084 0.117 7.04 12.37 7.8
8/6/2022 2:15:00 AM 23.34 74.012 0.118 7.03 11.47 7.82
8/6/2022 2:30:00 AM 23.29 73.922 0.119 7.03 10.7 7.84
8/6/2022 2:45:00 AM 23.24 73.832 0.119 7.02 10.17 7.86
8/6/2022 3:00:00 AM 23.19 73.742 0.119 7.02 9.04 7.86
8/6/2022 3:15:00 AM 23.14 73.652 0.119 7.01 8.93 7.88
8/6/2022 3:30:00 AM 23.09 73.562 0.119 7 17.18 7.87
8/6/2022 3:45:00 AM 22.89 73.202 0.133 6.76 25.99 7.58
8/6/2022 4:00:00 AM 22.97 73.346 0.115 6.92 32.2 7.87
8/6/2022 4:15:00 AM 22.87 73.166 0.111 6.91 34.91 7.9
8/6/2022 4:30:00 AM 22.74 72.932 0.109 6.9 36.52 7.94
8/6/2022 4:45:00 AM 22.59 72.662 0.107 6.88 35.66 7.97
8/6/2022 5:00:00 AM 22.42 72.356 0.106 6.86 36.36 8.01
8/6/2022 5:15:00 AM 22.24 72.032 0.106 6.85 35.7 8.04
8/6/2022 5:30:00 AM 22.08 71.744 0.107 6.85 31.49 8.08
8/6/2022 5:45:00 AM 21.94 71.492 0.108 6.85 30.05 8.12
8/6/2022 6:00:00 AM 21.84 71.312 0.108 6.86 28.63 8.14
8/6/2022 6:15:00 AM 21.76 71.168 0.108 6.86 25.63 8.15
8/6/2022 6:30:00 AM 21.72 71.096 0.108 6.86 23.61 8.17
8/6/2022 6:45:00 AM 21.7 71.06 0.108 6.87 21.47 8.18
8/6/2022 7:00:00 AM 21.7 71.06 0.108 6.88 20.22 8.21
8/6/2022 7:15:00 AM 21.72 71.096 0.108 6.89 18.23 8.22
8/6/2022 7:30:00 AM 21.73 71.114 0.108 6.9 17.08 8.22
8/6/2022 7:45:00 AM 21.75 71.15 0.108 6.91 15.93 8.23
8/6/2022 8:00:00 AM 21.77 71.186 0.107 6.92 15.52 8.24
8/6/2022 8:15:00 AM 21.8 71.24 0.106 6.94 14.81 8.26
8/6/2022 8:30:00 AM 21.85 71.33 0.105 6.96 15.23 8.29
8/6/2022 8:45:00 AM 21.87 71.366 0.105 6.97 15.45 8.32
8/6/2022 9:00:00 AM 21.92 71.456 0.104 6.98 14.66 8.37
8/6/2022 9:15:00 AM 21.98 71.564 0.104 7 14.14 8.42
8/6/2022 9:30:00 AM 22.02 71.636 0.103 7.02 14.12 8.44
8/6/2022 9:45:00 AM 22.04 71.672 0.102 7.02 14.57 8.45
8/6/2022 10:00:00 AM 22.09 71.762 0.101 7.04 14.31 8.51
8/6/2022 10:15:00 AM 22.16 71.888 0.1 7.06 14.77 8.55
8/6/2022 10:30:00 AM 22.21 71.978 0.099 7.07 14.48 8.58
8/6/2022 10:45:00 AM 22.25 72.05 0.097 7.07 14.73 8.59
8/6/2022 11:00:00 AM 22.31 72.158 0.096 7.07 15.26 8.61
8/6/2022 11:15:00 AM 22.42 72.356 0.095 7.09 15.12 8.66
8/6/2022 11:30:00 AM 22.5 72.5 0.093 7.09 16.07 8.7
8/6/2022 11:45:00 AM 22.64 72.752 0.092 7.11 13.12 8.73
8/6/2022 12:00:00 PM 22.66 72.788 0.091 7.13 16.05 8.75
8/6/2022 12:15:00 PM 22.73 72.914 0.089 7.14 15.61 8.76
8/6/2022 12:30:00 PM 22.85 73.13 0.089 7.16 15.75 8.8
8/6/2022 12:45:00 PM 23.05 73.49 0.088 7.19 15.5 8.81
8/6/2022 1:00:00 PM 23.16 73.688 0.086 7.22 15.61 8.82
8/6/2022 1:15:00 PM 23.37 74.066 0.086 7.25 15.89 8.83
8/6/2022 1:30:00 PM 23.43 74.174 0.085 7.27 15.13 8.8
8/6/2022 1:45:00 PM 23.56 74.408 0.084 7.29 15.46 8.84
8/6/2022 2:00:00 PM 23.79 74.82201 0.084 7.4 15.56 8.89
8/6/2022 2:15:00 PM 23.94 75.092 0.083 7.47 14.79 8.9
8/6/2022 2:30:00 PM 24.04 75.272 0.083 7.47 14.9 8.85
8/6/2022 2:45:00 PM 24.23 75.614 0.082 7.52 14.72 8.86
8/6/2022 3:00:00 PM 24.49 76.082 0.082 7.55 14.38 8.88
8/6/2022 3:15:00 PM 24.72 76.496 0.081 7.59 14.1 8.86
8/6/2022 3:30:00 PM 24.85 76.73 0.081 7.62 14.18 8.84
8/6/2022 3:45:00 PM 24.99 76.982 0.081 7.62 13.58 8.78
8/6/2022 4:00:00 PM 25.05 77.09 0.081 7.61 13.54 8.71
8/6/2022 4:15:00 PM 25.1 77.18 0.081 7.57 13.49 8.64
8/6/2022 4:30:00 PM 25.27 77.486 0.08 7.58 13.67 8.66
8/6/2022 4:45:00 PM 25.31 77.558 0.081 7.55 13.34 8.57
8/6/2022 5:00:00 PM 25.25 77.45 0.081 7.49 13.13 8.46
8/6/2022 5:15:00 PM 25.29 77.522 0.081 7.45 13.19 8.42
8/6/2022 5:30:00 PM 25.37 77.666 0.081 7.44 12.52 8.41
8/6/2022 5:45:00 PM 25.4 77.72 0.081 7.41 12.35 8.35
8/6/2022 6:00:00 PM 25.36 77.648 0.081 7.38 12.09 8.26
8/6/2022 6:15:00 PM 25.32 77.576 0.081 7.32 11.96 8.16
8/6/2022 6:30:00 PM 25.29 77.522 0.082 7.29 11.83 8.11
8/6/2022 6:45:00 PM 25.25 77.45 0.082 7.25 11.27 8.01
8/6/2022 7:00:00 PM 25.21 77.378 0.082 7.21 11.05 7.93
8/6/2022 7:15:00 PM 25.17 77.306 0.083 7.18 11.08 7.91
8/6/2022 7:30:00 PM 25.11 77.198 0.083 7.16 10.9 7.85
8/6/2022 7:45:00 PM 25.03 77.054 0.084 7.13 10.61 7.78
8/6/2022 8:00:00 PM 24.95 76.91 0.085 7.11 10.51 7.75
8/6/2022 8:15:00 PM 24.86 76.748 0.085 7.09 10.25 7.73
8/6/2022 8:30:00 PM 24.78 76.604 0.086 7.08 10.2 7.71
8/6/2022 8:45:00 PM 24.69 76.442 0.087 7.06 10.01 7.69
8/6/2022 9:00:00 PM 24.61 76.298 0.088 7.04 9.94 7.67
8/6/2022 9:15:00 PM 24.54 76.172 0.088 7.03 10.01 7.66
8/6/2022 9:30:00 PM 24.46 76.028 0.089 7.02 9.7 7.66
8/6/2022 9:45:00 PM 24.38 75.884 0.09 7 9.5 7.66
8/6/2022 10:00:00 PM 24.3 75.74 0.091 6.97 8.84 7.66
8/6/2022 10:15:00 PM 24.23 75.614 0.091 6.95 8.65 7.66
8/6/2022 10:30:00 PM 24.16 75.488 0.092 6.94 8.74 7.67
8/6/2022 10:45:00 PM 24.11 75.398 0.093 6.94 9.12 7.68
8/6/2022 11:00:00 PM 24.05 75.29 0.094 6.94 9.39 7.68
8/6/2022 11:15:00 PM 24 75.2 0.095 6.94 8.93 7.69
8/6/2022 11:30:00 PM 23.95 75.11 0.096 6.94 8.1 7.7
8/6/2022 11:45:00 PM 23.89 75.002 0.097 6.93 7.59 7.71
8/7/2022 12:00:00 AM 23.84 74.912 0.098 6.93 7.6 7.72
8/7/2022 12:15:00 AM 23.79 74.82201 0.099 6.92 7.48 7.74
8/7/2022 12:30:00 AM 23.73 74.714 0.1 6.92 7.68 7.73
8/7/2022 12:45:00 AM 23.68 74.624 0.101 6.92 8.05 7.74
8/7/2022 1:00:00 AM 23.64 74.552 0.102 6.92 16.69 7.75
8/7/2022 1:15:00 AM 23.6 74.48 0.103 6.9 22.35 7.75
8/7/2022 1:30:00 AM 23.57 74.426 0.103 6.9 6.71 7.75
8/7/2022 1:45:00 AM 23.53 74.354 0.104 6.9 3.19 7.76
8/7/2022 2:00:00 AM 23.49 74.282 0.105 6.9 2.18 7.76
8/7/2022 2:15:00 AM 23.45 74.21 0.106 6.9 2.35 7.78
8/7/2022 2:30:00 AM 23.41 74.138 0.107 6.9 2.98 7.78
8/7/2022 2:45:00 AM 23.36 74.048 0.107 6.9 1.93 7.79
8/7/2022 3:00:00 AM 23.31 73.958 0.106 6.9 1.79 7.79
8/7/2022 3:15:00 AM 23.26 73.868 0.103 6.9 1.82 7.79
8/7/2022 3:30:00 AM 23.21 73.778 0.096 6.9 1.82 7.8
8/7/2022 3:45:00 AM 23.16 73.688 0.087 6.9 1.79 7.8
8/7/2022 4:00:00 AM 23.12 73.616 0.064 6.87 1.81 7.81
8/7/2022 4:15:00 AM 23.07 73.526 0.036 6.75 1.75 7.82
8/7/2022 4:30:00 AM 23.02 73.436 0.019 6.77 1.82 7.83
8/7/2022 4:45:00 AM 22.97 73.346 0.004 6.93 1.75 7.84
8/7/2022 5:00:00 AM 22.93 73.274 0.002 7.07 1.67 7.85
8/7/2022 5:15:00 AM 22.87 73.166 0.001 7.09 1.81 7.86
8/7/2022 5:30:00 AM 22.83 73.094 0.001 7 1.68 7.88
8/7/2022 5:45:00 AM 22.77 72.986 0 6.53 1.81 7.91
8/7/2022 6:00:00 AM 22.73 72.914 0 6.49 1.81 7.92
8/7/2022 6:15:00 AM 22.71 72.878 0 6.44 1.77 7.9
8/7/2022 6:30:00 AM 22.67 72.806 0 6.41 2 7.92
8/7/2022 6:45:00 AM 22.65 72.77 0 6.42 1.6 7.96
8/7/2022 7:00:00 AM 22.62 72.716 0 6.44 1.79 7.99
8/7/2022 7:15:00 AM 22.6 72.68 0 6.46 1.63 8.05
8/7/2022 7:30:00 AM 22.58 72.644 0 6.47 1.93 8.11
8/7/2022 7:45:00 AM 22.56 72.608 0 6.48 1.62 8.18
8/7/2022 8:00:00 AM 22.57 72.626 0 6.49 1.67 8.27
8/7/2022 8:15:00 AM 22.56 72.608 0 6.49 1.71 8.36
8/7/2022 8:30:00 AM 22.57 72.626 0 6.51 1.84 8.41
8/7/2022 8:45:00 AM 22.51 72.518 0 6.52 1.96 8.48
8/7/2022 9:00:00 AM 22.64 72.752 0 6.52 1.77 8.5
8/7/2022 9:15:00 AM 22.66 72.788 0 6.53 1.77 8.53
8/7/2022 9:30:00 AM 22.77 72.986 0 6.55 1.72 8.55
8/7/2022 9:45:00 AM 22.86 73.148 0 6.57 1.59 8.55
8/7/2022 10:00:00 AM 23.03 73.454 0 6.58 1.79 8.54
8/7/2022 10:15:00 AM 23.06 73.508 0 6.59 1.66 8.53
8/7/2022 10:30:00 AM 23.15 73.67 0 6.57 1.92 8.51
8/7/2022 10:45:00 AM 23.39 74.102 0 6.59 1.77 8.48
8/7/2022 11:00:00 AM 23.5 74.3 0 6.61 1.67 8.45
8/7/2022 11:15:00 AM 23.53 74.354 0 6.65 1.59 8.45
8/7/2022 11:30:00 AM 23.91 75.038 0 6.64 1.71 8.38
8/7/2022 11:45:00 AM 24.01 75.218 0 6.64 1.67 8.36
8/7/2022 12:00:00 PM 24.17 75.506 0 6.67 1.75 8.35
8/7/2022 12:15:00 PM 24.15 75.47 0 6.68 1.73 8.34
8/7/2022 12:30:00 PM 24.37 75.866 0 6.7 1.79 8.33
8/7/2022 12:45:00 PM 24.65 76.37 0 6.52 1.66 8.27
8/7/2022 1:00:00 PM 24.69 76.442 0 6.72 1.82 8.27
8/7/2022 1:15:00 PM 24.77 76.586 0 6.73 1.59 8.27
8/7/2022 1:30:00 PM 24.79 76.622 0 6.74 2 8.26
8/7/2022 1:45:00 PM 25.14 77.252 0 6.75 1.74 8.21
8/7/2022 2:00:00 PM 25.27 77.486 0 6.76 1.78 8.19
8/7/2022 2:15:00 PM 25.52 77.936 0 6.76 1.78 8.15
8/7/2022 2:30:00 PM 25.66 78.188 0 6.73 2.38 8.13
8/7/2022 2:45:00 PM 25.83 78.494 0 6.74 1.6 8.09
8/7/2022 3:00:00 PM 25.99 78.782 0 6.76 2.17 8.08
8/7/2022 3:15:00 PM 26.19 79.142 0 6.72 1.74 8.04
8/7/2022 3:30:00 PM 26.37 79.466 0 6.77 1.85 8.02
8/7/2022 3:45:00 PM 26.42 79.556 0 6.77 1.8 8.02
8/7/2022 4:00:00 PM 26.51 79.718 0 6.79 1.78 8
8/7/2022 4:15:00 PM 26.45 79.61 0 6.75 1.67 8.01
8/7/2022 4:30:00 PM 26.54 79.772 0 6.74 1.78 8
8/7/2022 4:45:00 PM 26.63 79.934 0 6.74 1.84 7.99
8/7/2022 5:00:00 PM 26.8 80.24 0 6.78 2.08 7.96
8/7/2022 5:15:00 PM 26.88 80.384 0 6.79 1.88 7.95
8/7/2022 5:30:00 PM 26.95 80.51 0 6.74 1.74 7.94
8/7/2022 5:45:00 PM 26.94 80.492 0 6.77 1.79 7.94
8/7/2022 6:00:00 PM 26.91 80.438 0 6.78 1.33 7.94
8/7/2022 6:15:00 PM 26.82 80.276 0 6.78 1.34 7.96
8/7/2022 6:30:00 PM 26.83 80.294 0 6.77 1.71 7.95
8/7/2022 6:45:00 PM 26.79 80.222 0 6.76 1.81 7.95
8/7/2022 7:00:00 PM 26.69 80.042 0 6.74 1.48 7.97
8/7/2022 7:15:00 PM 26.59 79.862 0 6.73 1.83 7.99
8/7/2022 7:30:00 PM 26.45 79.61 0 6.74 1.8 8
8/7/2022 7:45:00 PM 26.32 79.376 0 6.73 1.69 8.03
8/7/2022 8:00:00 PM 26.18 79.124 0 6.74 1.67 8.05
8/7/2022 8:15:00 PM 25.96 78.728 0 6.74 1.71 8.08
8/7/2022 8:30:00 PM 25.72 78.296 0 6.73 1.6 8.12
8/7/2022 8:45:00 PM 25.51 77.918 0 6.72 1.75 8.15
8/7/2022 9:00:00 PM 25.32 77.576 0 6.85 1.79 8.18
8/7/2022 9:15:00 PM 25.14 77.252 0 6.91 1.77 8.22
8/7/2022 9:30:00 PM 25.01 77.018 0 7.1 1.82 8.23
8/7/2022 9:45:00 PM 24.85 76.73 0 6.92 1.63 8.25
8/7/2022 10:00:00 PM 24.64 76.352 0 6.89 1.74 8.29
8/7/2022 10:15:00 PM 24.5 76.1 0 6.93 1.82 8.31
8/7/2022 10:30:00 PM 24.43 75.974 0 6.93 1.75 8.33
8/7/2022 10:45:00 PM 24.3 75.74 0 6.92 1.66 8.35
8/7/2022 11:00:00 PM 24.15 75.47 0 6.95 1.7 8.37
8/7/2022 11:15:00 PM 24.11 75.398 0 6.96 1.69 8.38
8/7/2022 11:30:00 PM 23.91 75.038 0 6.95 1.82 8.4
8/7/2022 11:45:00 PM 23.68 74.624 0 6.92 1.63 8.44
8/8/2022 12:00:00 AM 23.68 74.624 0 6.98 1.73 8.44
8/8/2022 12:15:00 AM 23.51 74.318 0 6.98 1.8 8.47
8/8/2022 12:30:00 AM 23.46 74.228 0 7 1.69 8.48
8/8/2022 12:45:00 AM 23.34 74.012 0 7 1.79 8.51
8/8/2022 1:00:00 AM 23.26 73.868 0 6.99 1.75 8.52
8/8/2022 1:15:00 AM 23.23 73.814 0 7 1.73 8.51
8/8/2022 1:30:00 AM 23.07 73.526 0 7.01 1.74 8.54
8/8/2022 1:45:00 AM 23 73.4 0 7.01 1.72 8.56
8/8/2022 2:00:00 AM 22.91 73.238 0 7 1.8 8.56
8/8/2022 2:15:00 AM 22.97 73.346 0 6.98 1.75 8.55
8/8/2022 2:30:00 AM 22.96 73.328 0 6.99 1.78 8.56
8/8/2022 2:45:00 AM 23.01 73.418 0 6.99 1.74 8.54
8/8/2022 3:00:00 AM 23 73.4 0 7.01 1.75 8.54
8/8/2022 3:15:00 AM 22.86 73.148 0 6.99 1.87 8.57
8/8/2022 3:30:00 AM 22.84 73.112 0 7.04 1.73 8.57
8/8/2022 3:45:00 AM 22.74 72.932 0 7.04 1.75 8.58
8/8/2022 4:00:00 AM 22.65 72.77 0 7.02 1.65 8.6
8/8/2022 4:15:00 AM 22.64 72.752 0 7.02 1.81 8.6
8/8/2022 4:30:00 AM 22.59 72.662 0 7.02 1.77 8.61
8/8/2022 4:45:00 AM 22.63 72.734 0 7.01 1.73 8.6
8/8/2022 5:00:00 AM 22.53 72.554 0 7.03 1.82 8.62
8/8/2022 5:15:00 AM 22.51 72.518 0 7.01 1.79 8.62
8/8/2022 5:30:00 AM 22.48 72.464 0 7.03 1.77 8.62
8/8/2022 5:45:00 AM 22.36 72.248 0 7.01 1.92 8.64
8/8/2022 6:00:00 AM 22.25 72.05 0 7.03 1.77 8.66
8/8/2022 6:15:00 AM 22.22 71.996 0 7.01 1.72 8.67
8/8/2022 6:30:00 AM 22.25 72.05 0 7.01 1.88 8.66
8/8/2022 6:45:00 AM 22.26 72.068 0 7 1.73 8.66
8/8/2022 7:00:00 AM 22.27 72.086 0 6.99 1.83 8.65
8/8/2022 7:15:00 AM 22.25 72.05 0 7.02 1.81 8.66
8/8/2022 7:30:00 AM 22.3 72.14 0 7.01 1.83 8.65
8/8/2022 7:45:00 AM 22.44 72.392 0 7 2.02 8.62
8/8/2022 8:00:00 AM 22.51 72.518 0 7 1.85 8.61
8/8/2022 8:15:00 AM 22.49 72.482 0 7.02 2.03 8.61
8/8/2022 8:30:00 AM 22.68 72.824 0 7.01 1.8 8.58
8/8/2022 8:45:00 AM 22.79 73.022 0 7.02 1.89 8.57
8/8/2022 9:00:00 AM 22.95 73.31 0 6.99 1.85 8.54
8/8/2022 9:15:00 AM 23.1 73.58 0 7.01 1.97 8.51
8/8/2022 9:30:00 AM 23.23 73.814 0 7 1.68 8.48
8/8/2022 9:45:00 AM 23.3 73.94 0 6.98 1.86 8.48
8/8/2022 10:00:00 AM 23.41 74.138 0 7.02 1.95 8.46
8/8/2022 10:15:00 AM 23.52 74.336 0 6.98 1.81 8.44
8/8/2022 10:30:00 AM 23.5 74.3 0 7.01 1.92 8.45
8/8/2022 10:45:00 AM 23.61 74.498 0 7.03 1.91 8.44
8/8/2022 11:00:00 AM 23.64 74.552 0 7.02 1.87 8.42
8/8/2022 11:15:00 AM 24.07 75.326 0 7.05 1.79 8.36
8/8/2022 11:30:00 AM 24.48 76.064 0 7.01 1.98 8.3
8/8/2022 11:45:00 AM 24.77 76.586 0 7.02 1.9 8.26
8/8/2022 12:00:00 PM 24.88 76.784 0 7 1.88 8.24
8/8/2022 12:15:00 PM 24.96 76.92799 0 7.06 1.86 8.22
8/8/2022 12:30:00 PM 24.86 76.748 0 7.01 1.89 8.24
8/8/2022 12:45:00 PM 24.99 76.982 0 7 1.88 8.22
8/8/2022 1:00:00 PM 25.12 77.216 0 6.88 1.94 8.2
8/8/2022 1:15:00 PM 25.13 77.234 0 7.01 2.28 8.2
8/8/2022 1:30:00 PM 25.18 77.324 0 6.94 2.35 8.19
8/8/2022 1:45:00 PM 25.01 77.018 0 6.96 2.2 8.21
8/8/2022 2:00:00 PM 25.03 77.054 0 7.06 2.26 8.21
8/8/2022 2:15:00 PM 25.03 77.054 0 7.09 2.14 8.21
8/8/2022 2:30:00 PM 25 77 0 7.11 2.49 8.21
8/8/2022 2:45:00 PM 24.94 76.892 0 7.13 2.61 8.23
8/8/2022 3:00:00 PM 24.94 76.892 0 7.2 2.51 8.23
8/8/2022 3:15:00 PM 24.79 76.622 0 7.23 2.13 8.25
8/8/2022 3:30:00 PM 24.88 76.784 0 7.21 2.19 8.24
8/8/2022 3:45:00 PM 24.97 76.946 0 7.19 1.93 8.21
8/8/2022 4:00:00 PM 25.15 77.27 0 7.28 1.81 8.19
8/8/2022 4:15:00 PM 25.36 77.648 0 7.2 2.08 8.16
8/8/2022 4:30:00 PM 25.55 77.99 0 7.27 2.1 8.13
8/8/2022 4:45:00 PM 25.46 77.828 0 7.19 2.18 8.13
8/8/2022 5:00:00 PM 25.06 77.108 0 7.05 2.8 8.2
8/8/2022 5:15:00 PM 24.9 76.82 0 6.77 5.53 8.22
8/8/2022 5:30:00 PM 25.03 77.054 0 7.15 3.27 8.21
8/8/2022 5:45:00 PM 24.96 76.92799 0 6.96 3.48 8.22
8/8/2022 6:00:00 PM 25.04 77.07201 0 7.03 4.34 8.21
8/8/2022 6:15:00 PM 25.05 77.09 0 7.19 4.05 8.21
8/8/2022 6:30:00 PM 25.13 77.234 0 7.16 3.96 8.2
8/8/2022 6:45:00 PM 25.13 77.234 0 7.24 4.61 8.2
8/8/2022 7:00:00 PM 25.15 77.27 0 7.23 4.55 8.19
8/8/2022 7:15:00 PM 25.08 77.144 0 7.25 4.74 8.2
8/8/2022 7:30:00 PM 24.99 76.982 0 7.25 4.88 8.21
8/8/2022 7:45:00 PM 24.8 76.64 0 7.28 4.86 8.24
8/8/2022 8:00:00 PM 24.58 76.244 0 7.31 5.26 8.27
8/8/2022 8:15:00 PM 24.36 75.848 0 7.25 5.54 8.3
8/8/2022 8:30:00 PM 24.08 75.344 0 7.27 5.55 8.35
8/8/2022 8:45:00 PM 23.81 74.858 0 7.31 5.84 8.38
8/8/2022 9:00:00 PM 23.56 74.408 0 7.3 5.88 8.43
8/8/2022 9:15:00 PM 23.38 74.084 0 7.32 6.09 8.46
8/8/2022 9:30:00 PM 23.21 73.778 0 7.3 6.43 8.48
8/8/2022 9:45:00 PM 23.04 73.472 0 7.32 6.26 8.52
8/8/2022 10:00:00 PM 22.87 73.166 0 7.3 6.16 8.54
8/8/2022 10:15:00 PM 22.76 72.968 0 7.33 6.5 8.56
8/8/2022 10:30:00 PM 22.58 72.644 0 7.35 6.54 8.59
8/8/2022 10:45:00 PM 22.45 72.41 0 7.39 6.86 8.61
8/8/2022 11:00:00 PM 22.52 72.536 0 7.39 7.29 8.6
8/8/2022 11:15:00 PM 22.47 72.446 0 7.32 6.81 8.6
8/8/2022 11:30:00 PM 22.4 72.32 0 7.36 7.42 8.62
8/8/2022 11:45:00 PM 22.32 72.176 0 7.37 6.23 8.62
8/9/2022 12:00:00 AM 22.4 72.32 0 7.41 7.23 8.61
8/9/2022 12:15:00 AM 22.47 72.446 0 7.38 7.35 8.6
8/9/2022 12:30:00 AM 22.43 72.374 0 7.35 7.14 8.61
8/9/2022 12:45:00 AM 22.38 72.284 0 7.34 7.2 8.61
8/9/2022 1:00:00 AM 22.39 72.302 0 7.34 6.7 8.63
8/9/2022 1:15:00 AM 22.41 72.338 0 7.42 7.33 8.61
8/9/2022 1:30:00 AM 22.45 72.41 0 7.35 6.77 8.6
8/9/2022 1:45:00 AM 22.43 72.374 0 7.3 7.01 8.6
8/9/2022 2:00:00 AM 22.38 72.284 0 7.33 7.03 8.62
8/9/2022 2:15:00 AM 22.3 72.14 0 7.33 6.89 8.62
8/9/2022 2:30:00 AM 22.32 72.176 0 7.34 7.69 8.63
8/9/2022 2:45:00 AM 22.22 71.996 0 7.24 7.19 8.63
8/9/2022 3:00:00 AM 22.07 71.726 0 7.32 6.89 8.66
8/9/2022 3:15:00 AM 21.97 71.546 0 7.34 7.52 8.68
8/9/2022 3:30:00 AM 21.93 71.474 0 7.36 7.46 8.69
8/9/2022 3:45:00 AM 22.05 71.69 0 7.35 7.32 8.67
8/9/2022 4:00:00 AM 21.97 71.546 0 7.31 8.23 8.67
8/9/2022 4:15:00 AM 21.86 71.348 0 7.32 8.18 8.69
8/9/2022 4:30:00 AM 21.86 71.348 0 7.3 7.75 8.69
8/9/2022 4:45:00 AM 21.79 71.222 0 7.3 8.19 8.7
8/9/2022 5:00:00 AM 21.82 71.276 0 7.29 8.45 8.69
8/9/2022 5:15:00 AM 21.86 71.348 0 7.27 8.15 8.69
8/9/2022 5:30:00 AM 21.91 71.438 0 7.25 7.88 8.68
8/9/2022 5:45:00 AM 21.82 71.276 0 7.26 7.98 8.69
8/9/2022 6:00:00 AM 21.76 71.168 0 7.27 8.36 8.72
8/9/2022 6:15:00 AM 21.84 71.312 0 7.3 8.45 8.7
8/9/2022 6:30:00 AM 21.91 71.438 0 7.27 8.42 8.68
8/9/2022 6:45:00 AM 21.87 71.366 0 7.24 8.28 8.69
8/9/2022 7:00:00 AM 21.89 71.402 0 7.26 8.12 8.68
8/9/2022 7:15:00 AM 21.91 71.438 0 7.27 8.44 8.7
8/9/2022 7:30:00 AM 21.95 71.51 0 7.28 8.33 8.69
8/9/2022 7:45:00 AM 22.06 71.708 0 7.28 8.1 8.67
8/9/2022 8:00:00 AM 22.18 71.924 0 7.31 7.96 8.66
8/9/2022 8:15:00 AM 22.43 72.374 0 7.28 8.24 8.62
8/9/2022 8:30:00 AM 22.53 72.554 0 7.27 7.72 8.6
8/9/2022 8:45:00 AM 22.53 72.554 0 7.25 7.43 8.61
8/9/2022 9:00:00 AM 22.59 72.662 0 7.27 7.68 8.59
8/9/2022 9:15:00 AM 22.46 72.42799 0 7.23 7.44 8.62
8/9/2022 9:30:00 AM 22.21 71.978 0 7.29 7.29 8.66
8/9/2022 9:45:00 AM 21.98 71.564 0 7.33 7.95 8.7
8/9/2022 10:00:00 AM 21.82 71.276 0 7.32 7.19 8.73
8/9/2022 10:15:00 AM 21.74 71.132 0 7.36 7.13 8.75
8/9/2022 10:30:00 AM 23.35 74.03 0.132 7.42 1.76 8.91
8/9/2022 10:45:00 AM 23.4 74.12 0.131 7.33 1.74 9.05
8/9/2022 11:00:00 AM 23.46 74.228 0.131 7.39 1.69 9.15
8/9/2022 11:15:00 AM 23.48 74.264 0.131 7.44 1.67 9.19
8/9/2022 11:30:00 AM 23.48 74.264 0.131 7.46 1.63 9.09
8/9/2022 11:45:00 AM 23.5 74.3 0.131 7.49 1.59 9.11
8/9/2022 12:00:00 PM 23.52 74.336 0.131 7.5 1.56 9.13
8/9/2022 12:15:00 PM 23.57 74.426 0.131 7.53 1.54 9.18
8/9/2022 12:30:00 PM 23.61 74.498 0.131 7.56 1.54 9.21
8/9/2022 12:45:00 PM 23.67 74.606 0.13 7.62 1.54 9.26
8/9/2022 1:00:00 PM 23.77 74.786 0.13 7.71 1.58 9.39
8/9/2022 1:15:00 PM 23.85 74.93 0.13 7.81 1.57 9.47
8/9/2022 1:30:00 PM 24.03 75.254 0.129 7.91 1.56 9.56
8/9/2022 1:45:00 PM 24.22 75.596 0.129 8.01 1.52 9.63
8/9/2022 2:00:00 PM 24.37 75.866 0.129 8.1 1.5 9.66
8/9/2022 2:15:00 PM 24.46 76.028 0.128 8.14 1.52 9.61
8/9/2022 2:30:00 PM 24.47 76.046 0.128 8.15 1.49 9.55
8/9/2022 2:45:00 PM 24.52 76.136 0.128 8.15 1.48 9.53
8/9/2022 3:00:00 PM 24.6 76.28 0.128 8.19 1.52 9.54
8/9/2022 3:15:00 PM 24.68 76.424 0.128 8.24 1.59 9.56
8/9/2022 3:30:00 PM 24.75 76.55 0.128 8.24 1.5 9.46
8/9/2022 3:45:00 PM 24.78 76.604 0.127 8.23 1.51 9.39
8/9/2022 4:00:00 PM 24.77 76.586 0.127 8.19 1.48 9.29
8/9/2022 4:15:00 PM 24.79 76.622 0.127 8.19 1.49 9.29
8/9/2022 4:30:00 PM 24.82 76.676 0.127 8.2 1.53 9.3
8/9/2022 4:45:00 PM 24.84 76.712 0.127 8.17 1.48 9.22
8/9/2022 5:00:00 PM 24.83 76.694 0.127 8.13 1.43 9.08
8/9/2022 5:15:00 PM 24.8 76.64 0.127 8.07 1.47 9
8/9/2022 5:30:00 PM 24.81 76.658 0.127 8.05 1.48 8.99
8/9/2022 5:45:00 PM 24.86 76.748 0.127 8.05 1.51 9.03
8/9/2022 6:00:00 PM 24.91 76.838 0.127 8.04 1.51 8.97
8/9/2022 6:15:00 PM 24.94 76.892 0.126 8 1.52 8.89
8/9/2022 6:30:00 PM 24.89 76.802 0.127 7.91 1.5 8.71
8/9/2022 6:45:00 PM 24.84 76.712 0.127 7.77 1.48 8.58
8/9/2022 7:00:00 PM 24.78 76.604 0.127 7.65 1.45 8.43
8/9/2022 7:15:00 PM 24.7 76.46 0.127 7.51 1.54 8.28
8/9/2022 7:30:00 PM 24.6 76.28 0.128 7.41 1.55 8.15
8/9/2022 7:45:00 PM 24.5 76.1 0.128 7.34 1.55 8.04
8/9/2022 8:00:00 PM 24.39 75.902 0.128 7.26 1.51 7.95
8/9/2022 8:15:00 PM 24.29 75.722 0.129 7.22 1.59 7.87
8/9/2022 8:30:00 PM 24.21 75.578 0.129 7.16 1.67 7.8
8/9/2022 8:45:00 PM 24.13 75.434 0.129 7.13 1.68 7.74
8/9/2022 9:00:00 PM 24.07 75.326 0.129 7.1 1.74 7.69
8/9/2022 9:15:00 PM 24.01 75.218 0.129 7.09 1.84 7.66
8/9/2022 9:30:00 PM 23.95 75.11 0.13 7.04 1.84 7.65
8/9/2022 9:45:00 PM 23.89 75.002 0.13 7.04 1.77 7.64
8/9/2022 10:00:00 PM 23.82 74.876 0.13 7.02 1.79 7.64
8/9/2022 10:15:00 PM 23.75 74.75 0.13 7.01 1.85 7.64
8/9/2022 10:30:00 PM 23.67 74.606 0.13 7.01 1.78 7.64
8/9/2022 10:45:00 PM 23.6 74.48 0.131 7 1.72 7.65
8/9/2022 11:00:00 PM 23.53 74.354 0.131 6.99 1.84 7.66
8/9/2022 11:15:00 PM 23.46 74.228 0.131 6.98 1.83 7.67
8/9/2022 11:30:00 PM 23.39 74.102 0.131 6.97 1.74 7.68
8/9/2022 11:45:00 PM 23.31 73.958 0.131 6.96 1.79 7.69
8/10/2022 12:00:00 AM 23.23 73.814 0.132 6.95 1.7 7.7
8/10/2022 12:15:00 AM 23.13 73.634 0.132 6.94 1.81 7.71
8/10/2022 12:30:00 AM 23.03 73.454 0.132 6.93 1.9 7.73
8/10/2022 12:45:00 AM 22.93 73.274 0.132 6.93 1.76 7.75
8/10/2022 1:00:00 AM 22.83 73.094 0.132 6.92 1.81 7.77
8/10/2022 1:15:00 AM 22.73 72.914 0.132 6.92 1.76 7.79
8/10/2022 1:30:00 AM 22.65 72.77 0.132 6.91 1.77 7.8
8/10/2022 1:45:00 AM 22.57 72.626 0.132 6.92 1.84 7.82
8/10/2022 2:00:00 AM 22.49 72.482 0.132 6.91 1.8 7.83
8/10/2022 2:15:00 AM 22.4 72.32 0.132 6.91 1.8 7.84
8/10/2022 2:30:00 AM 22.3 72.14 0.132 6.91 1.85 7.86
8/10/2022 2:45:00 AM 22.2 71.96 0.132 6.91 1.84 7.88
8/10/2022 3:00:00 AM 22.09 71.762 0.132 6.91 1.74 7.9
8/10/2022 3:15:00 AM 21.99 71.582 0.132 6.91 1.8 7.92
8/10/2022 3:30:00 AM 21.88 71.384 0.132 6.9 1.78 7.94
8/10/2022 3:45:00 AM 21.78 71.204 0.132 6.9 1.8 7.96
8/10/2022 4:00:00 AM 21.67 71.006 0.132 6.9 1.8 7.98
8/10/2022 4:15:00 AM 21.57 70.826 0.132 6.9 1.78 8
8/10/2022 4:30:00 AM 21.48 70.664 0.132 6.9 1.77 8.02
8/10/2022 4:45:00 AM 21.38 70.484 0.132 6.9 1.92 8.04
8/10/2022 5:00:00 AM 21.29 70.32201 0.132 6.89 1.79 8.06
8/10/2022 5:15:00 AM 21.19 70.142 0.132 6.9 1.75 8.07
8/10/2022 5:30:00 AM 21.11 69.998 0.133 6.9 1.83 8.09
8/10/2022 5:45:00 AM 21.03 69.854 0.133 6.9 1.78 8.11
8/10/2022 6:00:00 AM 20.96 69.728 0.133 6.9 1.86 8.13
8/10/2022 6:15:00 AM 20.9 69.62 0.133 6.9 1.79 8.15
8/10/2022 6:30:00 AM 20.84 69.512 0.133 6.9 1.7 8.18
8/10/2022 6:45:00 AM 20.78 69.404 0.133 6.91 1.67 8.22
8/10/2022 7:00:00 AM 20.74 69.332 0.133 6.92 1.68 8.28
8/10/2022 7:15:00 AM 20.69 69.242 0.133 6.94 1.65 8.37
8/10/2022 7:30:00 AM 20.66 69.188 0.133 6.96 1.6 8.45
8/10/2022 7:45:00 AM 20.62 69.116 0.133 6.98 1.61 8.56
8/10/2022 8:00:00 AM 20.61 69.098 0.132 7.01 1.61 8.72
8/10/2022 8:15:00 AM 20.6 69.08 0.132 7.05 1.54 8.87
8/10/2022 8:30:00 AM 20.58 69.044 0.132 7.09 1.58 9.01
8/10/2022 8:45:00 AM 20.61 69.098 0.132 7.12 1.58 9.12
8/10/2022 9:00:00 AM 20.71 69.278 0.132 7.16 1.62 9.21
8/10/2022 9:15:00 AM 20.78 69.404 0.132 7.2 1.55 9.24
8/10/2022 9:30:00 AM 20.85 69.53 0.132 7.23 1.55 9.27
8/10/2022 9:45:00 AM 20.94 69.692 0.132 7.26 1.54 9.29
8/10/2022 10:00:00 AM 21.02 69.836 0.132 7.3 1.52 9.32
8/10/2022 10:15:00 AM 21.12 70.016 0.132 7.32 1.53 9.37
8/10/2022 10:30:00 AM 21.26 70.268 0.132 7.36 1.51 9.43
8/10/2022 10:45:00 AM 21.36 70.448 0.132 7.41 1.55 9.48
8/10/2022 11:00:00 AM 21.38 70.484 0.132 7.44 1.5 9.52
8/10/2022 11:15:00 AM 21.38 70.484 0.132 7.49 1.5 9.58
8/10/2022 11:30:00 AM 21.64 70.952 0.131 7.57 1.44 9.71
8/10/2022 11:45:00 AM 21.79 71.222 0.131 7.66 1.47 9.81
8/10/2022 12:00:00 PM 21.99 71.582 0.131 7.77 1.54 9.89
8/10/2022 12:15:00 PM 22.16 71.888 0.13 7.86 1.46 9.92
8/10/2022 12:30:00 PM 22.31 72.158 0.13 7.95 1.56 9.96
8/10/2022 12:45:00 PM 22.45 72.41 0.13 8.02 1.5 9.98
8/10/2022 1:00:00 PM 22.61 72.698 0.13 8.08 1.45 9.99
8/10/2022 1:15:00 PM 22.94 73.292 0.13 8.15 1.46 9.99
8/10/2022 1:30:00 PM 23.33 73.994 0.129 8.2 1.47 9.96
8/10/2022 1:45:00 PM 23.53 74.354 0.129 8.23 1.46 9.86
8/10/2022 2:00:00 PM 23.86 74.948 0.129 8.24 1.38 9.78
8/10/2022 2:15:00 PM 24.16 75.488 0.129 8.25 1.45 9.71
8/10/2022 2:30:00 PM 24.39 75.902 0.129 8.27 1.45 9.62
8/10/2022 2:45:00 PM 24.63 76.334 0.129 8.28 1.4 9.55
8/10/2022 3:00:00 PM 24.89 76.802 0.129 8.29 1.37 9.5
8/10/2022 3:15:00 PM 25.22 77.396 0.129 8.32 1.4 9.47
8/10/2022 3:30:00 PM 25.49 77.882 0.128 8.33 1.42 9.45
8/10/2022 3:45:00 PM 25.69 78.242 0.128 8.34 1.42 9.39
8/10/2022 4:00:00 PM 25.89 78.602 0.128 8.36 1.42 9.32
8/10/2022 4:15:00 PM 26.07 78.926 0.128 8.34 1.46 9.24
8/10/2022 4:30:00 PM 26.17 79.106 0.128 8.33 1.39 9.16
8/10/2022 4:45:00 PM 26.23 79.214 0.128 8.33 1.43 9.08
8/10/2022 5:00:00 PM 26.11 78.998 0.128 8.24 1.43 8.93
8/10/2022 5:15:00 PM 26.01 78.818 0.128 8.18 1.4 8.85
8/10/2022 5:30:00 PM 25.87 78.566 0.128 8.13 1.44 8.8
8/10/2022 5:45:00 PM 25.75 78.35 0.128 8.04 1.38 8.69
8/10/2022 6:00:00 PM 25.69 78.242 0.128 7.99 1.4 8.66
8/10/2022 6:15:00 PM 25.6 78.08 0.128 7.91 1.37 8.55
8/10/2022 6:30:00 PM 25.52 77.936 0.128 7.79 1.38 8.44
8/10/2022 6:45:00 PM 25.41 77.738 0.128 7.69 1.49 8.32
8/10/2022 7:00:00 PM 25.26 77.468 0.129 7.56 1.45 8.18
8/10/2022 7:15:00 PM 25.09 77.162 0.129 7.46 1.39 8.05
8/10/2022 7:30:00 PM 24.93 76.874 0.129 7.37 1.49 7.95
8/10/2022 7:45:00 PM 24.77 76.586 0.13 7.3 1.5 7.85
8/10/2022 8:00:00 PM 24.62 76.316 0.13 7.24 1.57 7.78
8/10/2022 8:15:00 PM 24.49 76.082 0.13 7.19 1.52 7.71
8/10/2022 8:30:00 PM 24.38 75.884 0.13 7.16 1.57 7.66
8/10/2022 8:45:00 PM 24.27 75.686 0.13 7.12 1.6 7.61
8/10/2022 9:00:00 PM 24.17 75.506 0.13 7.09 1.64 7.57
8/10/2022 9:15:00 PM 24.06 75.308 0.131 7.06 1.67 7.55
8/10/2022 9:30:00 PM 23.95 75.11 0.131 7.04 1.72 7.54
8/10/2022 9:45:00 PM 23.83 74.894 0.131 7.02 1.7 7.54
8/10/2022 10:00:00 PM 23.71 74.67799 0.131 7.01 1.68 7.55
8/10/2022 10:15:00 PM 23.59 74.462 0.131 7 1.65 7.56
8/10/2022 10:30:00 PM 23.48 74.264 0.131 6.98 1.74 7.57
8/10/2022 10:45:00 PM 23.36 74.048 0.132 6.97 1.64 7.58
8/10/2022 11:00:00 PM 23.25 73.85 0.132 6.95 1.67 7.6
8/10/2022 11:15:00 PM 23.12 73.616 0.132 6.93 1.75 7.62
8/10/2022 11:30:00 PM 22.99 73.382 0.132 6.92 1.64 7.64
8/10/2022 11:45:00 PM 22.87 73.166 0.132 6.92 1.69 7.66
8/11/2022 12:00:00 AM 22.75 72.95 0.133 6.91 1.64 7.68
8/11/2022 12:15:00 AM 22.62 72.716 0.133 6.91 1.67 7.71
8/11/2022 12:30:00 AM 22.49 72.482 0.133 6.91 1.68 7.73
8/11/2022 12:45:00 AM 22.37 72.266 0.133 6.91 1.74 7.75
8/11/2022 1:00:00 AM 22.24 72.032 0.133 6.9 1.75 7.77
8/11/2022 1:15:00 AM 22.11 71.798 0.134 6.9 1.75 7.79
8/11/2022 1:30:00 AM 21.98 71.564 0.134 6.9 1.76 7.82
8/11/2022 1:45:00 AM 21.86 71.348 0.134 6.9 1.71 7.84
8/11/2022 2:00:00 AM 21.72 71.096 0.134 6.9 1.73 7.87
8/11/2022 2:15:00 AM 21.6 70.88 0.134 6.89 1.77 7.89
8/11/2022 2:30:00 AM 21.49 70.682 0.134 6.9 1.75 7.92
8/11/2022 2:45:00 AM 21.38 70.484 0.134 6.9 1.74 7.94
8/11/2022 3:00:00 AM 21.29 70.32201 0.134 6.89 1.75 7.96
8/11/2022 3:15:00 AM 21.2 70.16 0.134 6.9 1.68 7.98
8/11/2022 3:30:00 AM 21.12 70.016 0.134 6.9 1.66 8
8/11/2022 3:45:00 AM 21.05 69.89 0.134 6.9 1.72 8.02
8/11/2022 4:00:00 AM 20.98 69.764 0.134 6.9 1.71 8.03
8/11/2022 4:15:00 AM 20.89 69.602 0.134 6.9 1.69 8.05
8/11/2022 4:30:00 AM 20.81 69.458 0.134 6.9 1.73 8.07
8/11/2022 4:45:00 AM 20.73 69.314 0.134 6.9 1.7 8.09
8/11/2022 5:00:00 AM 20.66 69.188 0.134 6.9 1.71 8.11
8/11/2022 5:15:00 AM 20.58 69.044 0.134 6.91 1.66 8.12
8/11/2022 5:30:00 AM 20.49 68.882 0.134 6.9 1.64 8.14
8/11/2022 5:45:00 AM 20.4 68.72 0.134 6.9 1.69 8.16
8/11/2022 6:00:00 AM 20.31 68.558 0.133 6.9 1.65 8.18
8/11/2022 6:15:00 AM 20.23 68.414 0.133 6.9 1.76 8.2
8/11/2022 6:30:00 AM 20.14 68.252 0.133 6.9 1.66 8.23
8/11/2022 6:45:00 AM 20.06 68.108 0.133 6.9 1.61 8.27
8/11/2022 7:00:00 AM 19.99 67.982 0.133 6.91 1.77 8.33
8/11/2022 7:15:00 AM 19.92 67.856 0.133 6.93 1.61 8.41
8/11/2022 7:30:00 AM 19.87 67.766 0.133 6.94 1.53 8.52
8/11/2022 7:45:00 AM 19.82 67.676 0.133 6.96 1.51 8.63
8/11/2022 8:00:00 AM 19.77 67.586 0.133 6.99 1.51 8.77
8/11/2022 8:15:00 AM 19.73 67.514 0.133 7.01 1.57 8.89
8/11/2022 8:30:00 AM 19.73 67.514 0.132 7.04 1.5 9.02
8/11/2022 8:45:00 AM 19.78 67.604 0.132 7.09 1.5 9.18
8/11/2022 9:00:00 AM 19.82 67.676 0.132 7.13 1.5 9.28
8/11/2022 9:15:00 AM 19.86 67.748 0.132 7.16 1.54 9.36
8/11/2022 9:30:00 AM 19.93 67.874 0.132 7.21 1.51 9.47
8/11/2022 9:45:00 AM 19.99 67.982 0.132 7.25 1.5 9.54
8/11/2022 10:00:00 AM 20 68 0.132 7.28 1.51 9.6
8/11/2022 10:15:00 AM 20.19 68.342 0.132 7.35 1.48 9.72
8/11/2022 10:30:00 AM 20.41 68.738 0.132 7.42 1.47 9.82
8/11/2022 10:45:00 AM 20.61 69.098 0.131 7.5 1.45 9.87
8/11/2022 11:00:00 AM 20.84 69.512 0.131 7.63 1.47 9.93
8/11/2022 11:15:00 AM 20.92 69.656 0.131 7.68 1.47 9.93
8/11/2022 11:30:00 AM 21.13 70.034 0.131 7.74 1.49 9.96
8/11/2022 11:45:00 AM 21.26 70.268 0.131 7.76 1.51 9.94
8/11/2022 12:00:00 PM 21.49 70.682 0.131 7.83 1.44 9.95
8/11/2022 12:15:00 PM 21.72 71.096 0.131 7.86 1.43 9.9
8/11/2022 12:30:00 PM 22.04 71.672 0.131 7.91 1.46 9.85
8/11/2022 12:45:00 PM 22.33 72.194 0.131 7.93 1.43 9.8
8/11/2022 1:00:00 PM 22.62 72.716 0.131 7.96 1.42 9.78
8/11/2022 1:15:00 PM 22.69 72.842 0.131 7.96 1.33 9.7
8/11/2022 1:30:00 PM 22.93 73.274 0.131 7.97 1.44 9.69
8/11/2022 1:45:00 PM 23.03 73.454 0.131 8 1.38 9.7
8/11/2022 2:00:00 PM 23.23 73.814 0.13 8.04 1.37 9.7
8/11/2022 2:15:00 PM 23.47 74.246 0.13 8.1 1.36 9.7
8/11/2022 2:30:00 PM 23.66 74.588 0.129 8.13 1.36 9.65
8/11/2022 2:45:00 PM 23.88 74.984 0.129 8.15 1.35 9.58
8/11/2022 3:00:00 PM 24.12 75.416 0.129 8.16 1.38 9.52
8/11/2022 3:15:00 PM 24.29 75.722 0.129 8.17 1.42 9.45
8/11/2022 3:30:00 PM 24.52 76.136 0.129 8.17 1.35 9.39
8/11/2022 3:45:00 PM 24.75 76.55 0.129 8.17 1.33 9.32
8/11/2022 4:00:00 PM 25.02 77.036 0.129 8.18 1.34 9.24
8/11/2022 4:15:00 PM 25.25 77.45 0.129 8.18 1.36 9.19
8/11/2022 4:30:00 PM 25.36 77.648 0.129 8.17 1.35 9.13
8/11/2022 4:45:00 PM 25.42 77.756 0.129 8.18 1.35 9.12
8/11/2022 5:00:00 PM 25.44 77.792 0.129 8.16 1.32 9.05
8/11/2022 5:15:00 PM 25.38 77.684 0.129 8.1 1.37 8.97
8/11/2022 5:30:00 PM 25.29 77.522 0.129 8.06 1.37 8.88
8/11/2022 5:45:00 PM 25.14 77.252 0.129 7.99 1.36 8.78
8/11/2022 6:00:00 PM 24.95 76.91 0.129 7.91 1.39 8.69
8/11/2022 6:15:00 PM 24.79 76.622 0.13 7.81 1.4 8.61
8/11/2022 6:30:00 PM 24.58 76.244 0.13 7.71 1.35 8.53
8/11/2022 6:45:00 PM 24.38 75.884 0.13 7.6 1.41 8.42
8/11/2022 7:00:00 PM 24.22 75.596 0.13 7.51 1.33 8.32
8/11/2022 7:15:00 PM 24.03 75.254 0.131 7.42 1.37 8.2
8/11/2022 7:30:00 PM 23.86 74.948 0.131 7.34 1.39 8.11
8/11/2022 7:45:00 PM 23.69 74.642 0.131 7.28 1.37 8.03
8/11/2022 8:00:00 PM 23.49 74.282 0.131 7.23 1.44 7.95
8/11/2022 8:15:00 PM 23.31 73.958 0.132 7.17 1.46 7.88
8/11/2022 8:30:00 PM 23.14 73.652 0.132 7.13 1.49 7.83
8/11/2022 8:45:00 PM 22.98 73.364 0.132 7.1 1.54 7.79
8/11/2022 9:00:00 PM 22.83 73.094 0.132 7.06 1.56 7.76
8/11/2022 9:15:00 PM 22.69 72.842 0.132 7.04 1.52 7.73
8/11/2022 9:30:00 PM 22.56 72.608 0.133 7 1.66 7.72
8/11/2022 9:45:00 PM 22.42 72.356 0.133 6.97 1.66 7.73
8/11/2022 10:00:00 PM 22.28 72.104 0.133 6.95 1.66 7.75
8/11/2022 10:15:00 PM 22.12 71.816 0.133 6.93 1.58 7.76
8/11/2022 10:30:00 PM 21.98 71.564 0.133 6.93 1.64 7.79
8/11/2022 10:45:00 PM 21.84 71.312 0.133 6.92 1.61 7.81
8/11/2022 11:00:00 PM 21.71 71.078 0.133 6.92 1.6 7.83
8/11/2022 11:15:00 PM 21.58 70.844 0.133 6.92 1.57 7.86
8/11/2022 11:30:00 PM 21.45 70.61 0.133 6.91 1.57 7.88
8/11/2022 11:45:00 PM 21.33 70.394 0.133 6.91 1.65 7.9
8/12/2022 12:00:00 AM 21.2 70.16 0.134 6.91 1.6 7.92
8/12/2022 12:15:00 AM 21.07 69.926 0.134 6.91 1.63 7.94
8/12/2022 12:30:00 AM 20.95 69.71 0.134 6.9 1.69 7.96
8/12/2022 12:45:00 AM 20.83 69.494 0.134 6.9 1.58 7.98
8/12/2022 1:00:00 AM 20.71 69.278 0.134 6.9 1.68 8.01
8/12/2022 1:15:00 AM 20.59 69.062 0.134 6.9 1.63 8.03
8/12/2022 1:30:00 AM 20.46 68.828 0.135 6.9 1.6 8.05
8/12/2022 1:45:00 AM 20.34 68.612 0.135 6.9 1.65 8.08
8/12/2022 2:00:00 AM 20.21 68.378 0.135 6.9 1.6 8.1
8/12/2022 2:15:00 AM 20.1 68.18 0.135 6.9 1.68 8.13
8/12/2022 2:30:00 AM 19.98 67.964 0.135 6.9 1.67 8.15
8/12/2022 2:45:00 AM 19.86 67.748 0.135 6.9 1.6 8.18
8/12/2022 3:00:00 AM 19.74 67.532 0.135 6.9 1.64 8.21
8/12/2022 3:15:00 AM 19.61 67.298 0.135 6.9 1.63 8.23
8/12/2022 3:30:00 AM 19.49 67.082 0.136 6.89 1.66 8.26
8/12/2022 3:45:00 AM 19.37 66.866 0.136 6.89 1.62 8.28
8/12/2022 4:00:00 AM 19.25 66.65 0.136 6.9 1.64 8.31
8/12/2022 4:15:00 AM 19.14 66.452 0.136 6.89 1.66 8.34
8/12/2022 4:30:00 AM 19.02 66.236 0.136 6.89 1.62 8.36
8/12/2022 4:45:00 AM 18.91 66.038 0.136 6.89 1.65 8.39
8/12/2022 5:00:00 AM 18.79 65.82201 0.136 6.89 1.61 8.41
8/12/2022 5:15:00 AM 18.68 65.624 0.136 6.89 1.62 8.44
8/12/2022 5:30:00 AM 18.58 65.444 0.136 6.89 1.68 8.47
8/12/2022 5:45:00 AM 18.47 65.246 0.136 6.89 1.6 8.5
8/12/2022 6:00:00 AM 18.37 65.066 0.136 6.89 1.65 8.51
8/12/2022 6:15:00 AM 18.26 64.868 0.136 6.89 1.59 8.55
8/12/2022 6:30:00 AM 18.16 64.688 0.136 6.89 1.62 8.58
8/12/2022 6:45:00 AM 18.06 64.508 0.136 6.89 1.5 8.63
8/12/2022 7:00:00 AM 17.96 64.328 0.136 6.9 1.5 8.69
8/12/2022 7:15:00 AM 17.88 64.184 0.135 6.91 1.56 8.76
8/12/2022 7:30:00 AM 17.81 64.058 0.135 6.92 1.52 8.83
8/12/2022 7:45:00 AM 17.74 63.932 0.135 6.94 1.48 8.92
8/12/2022 8:00:00 AM 17.71 63.878 0.135 6.95 1.46 9.01
8/12/2022 8:15:00 AM 17.72 63.896 0.135 6.98 1.42 9.13
8/12/2022 8:30:00 AM 17.75 63.95 0.134 7 1.43 9.24
8/12/2022 8:45:00 AM 17.82 64.076 0.134 7.04 1.4 9.33
8/12/2022 9:00:00 AM 17.93 64.274 0.134 7.06 1.4 9.41
8/12/2022 9:15:00 AM 18.06 64.508 0.134 7.1 1.4 9.48
8/12/2022 9:30:00 AM 18.25 64.85 0.134 7.14 1.37 9.55
8/12/2022 9:45:00 AM 18.45 65.21 0.134 7.18 1.41 9.6
8/12/2022 10:00:00 AM 18.62 65.516 0.133 7.24 1.41 9.64
8/12/2022 10:15:00 AM 18.77 65.786 0.133 7.28 1.38 9.67
8/12/2022 10:30:00 AM 18.96 66.128 0.133 7.3 1.35 9.69
8/12/2022 10:45:00 AM 19.12 66.416 0.133 7.32 1.4 9.71
8/12/2022 11:00:00 AM 19.3 66.74 0.133 7.34 1.37 9.73
8/12/2022 11:15:00 AM 19.49 67.082 0.133 7.36 1.38 9.73
8/12/2022 11:30:00 AM 19.69 67.442 0.133 7.4 1.41 9.75
8/12/2022 11:45:00 AM 19.89 67.802 0.133 7.4 1.38 9.75
8/12/2022 12:00:00 PM 20.05 68.09 0.133 7.43 1.42 9.75
8/12/2022 12:15:00 PM 20.28 68.504 0.133 7.45 1.38 9.76
8/12/2022 12:30:00 PM 20.49 68.882 0.133 7.47 1.36 9.75
8/12/2022 12:45:00 PM 20.75 69.35 0.133 7.49 1.37 9.73
8/12/2022 1:00:00 PM 21 69.8 0.133 7.51 1.35 9.72
8/12/2022 1:15:00 PM 21.27 70.286 0.133 7.54 1.35 9.69
8/12/2022 1:30:00 PM 21.54 70.772 0.133 7.58 1.33 9.66
8/12/2022 1:45:00 PM 21.8 71.24 0.132 7.61 1.41 9.65
8/12/2022 2:00:00 PM 22.06 71.708 0.132 7.63 1.41 9.63
8/12/2022 2:15:00 PM 22.35 72.23 0.132 7.66 1.36 9.61
8/12/2022 2:30:00 PM 22.58 72.644 0.132 7.69 1.43 9.59
8/12/2022 2:45:00 PM 22.84 73.112 0.132 7.71 1.32 9.57
8/12/2022 3:00:00 PM 23.1 73.58 0.132 7.72 1.32 9.54
8/12/2022 3:15:00 PM 23.19 73.742 0.132 7.74 1.33 9.49
8/12/2022 3:30:00 PM 23.46 74.228 0.132 7.77 1.37 9.46
8/12/2022 3:45:00 PM 23.59 74.462 0.132 7.8 1.38 9.4
8/12/2022 4:00:00 PM 23.76 74.768 0.132 7.81 1.38 9.38
8/12/2022 4:15:00 PM 23.94 75.092 0.131 7.83 1.38 9.34
8/12/2022 4:30:00 PM 24.03 75.254 0.131 7.83 1.41 9.3
8/12/2022 4:45:00 PM 24.1 75.38 0.131 7.83 1.42 9.23
8/12/2022 5:00:00 PM 24.12 75.416 0.131 7.82 1.34 9.18
8/12/2022 5:15:00 PM 24.11 75.398 0.131 7.78 1.46 9.1
8/12/2022 5:30:00 PM 23.98 75.164 0.131 7.75 1.4 9
8/12/2022 5:45:00 PM 23.85 74.93 0.131 7.68 1.4 8.91
8/12/2022 6:00:00 PM 23.68 74.624 0.132 7.62 1.47 8.84
8/12/2022 6:15:00 PM 23.53 74.354 0.132 7.57 1.45 8.77
8/12/2022 6:30:00 PM 23.31 73.958 0.132 7.5 1.46 8.68
8/12/2022 6:45:00 PM 23.14 73.652 0.132 7.43 1.47 8.6
8/12/2022 7:00:00 PM 22.94 73.292 0.133 7.37 1.46 8.5
8/12/2022 7:15:00 PM 22.73 72.914 0.133 7.33 1.46 8.39
8/12/2022 7:30:00 PM 22.53 72.554 0.133 7.27 1.49 8.3
8/12/2022 7:45:00 PM 22.35 72.23 0.134 7.22 1.45 8.22
8/12/2022 8:00:00 PM 22.18 71.924 0.134 7.18 1.55 8.16
8/12/2022 8:15:00 PM 21.98 71.564 0.134 7.14 1.56 8.1
8/12/2022 8:30:00 PM 21.8 71.24 0.134 7.11 1.49 8.05
8/12/2022 8:45:00 PM 21.63 70.934 0.135 7.08 1.63 8.01
8/12/2022 9:00:00 PM 21.48 70.664 0.135 7.05 1.61 7.98
8/12/2022 9:15:00 PM 21.34 70.412 0.135 7.03 1.65 7.96
8/12/2022 9:30:00 PM 21.21 70.17799 0.135 7 1.73 7.95
8/12/2022 9:45:00 PM 21.08 69.944 0.135 6.96 1.71 7.95
8/12/2022 10:00:00 PM 20.94 69.692 0.135 6.94 1.64 7.97
8/12/2022 10:15:00 PM 20.78 69.404 0.135 6.92 1.63 7.99
8/12/2022 10:30:00 PM 20.64 69.152 0.135 6.91 1.64 8
8/12/2022 10:45:00 PM 20.48 68.864 0.136 6.91 1.64 8.04
8/12/2022 11:00:00 PM 20.32 68.576 0.136 6.9 1.63 8.07
8/12/2022 11:15:00 PM 20.16 68.288 0.136 6.9 1.64 8.09
8/12/2022 11:30:00 PM 20.01 68.018 0.136 6.9 1.6 8.12
8/12/2022 11:45:00 PM 19.86 67.748 0.136 6.9 1.61 8.15
8/13/2022 12:00:00 AM 19.72 67.496 0.136 6.89 1.62 8.17
8/13/2022 12:15:00 AM 19.57 67.226 0.136 6.89 1.62 8.2
8/13/2022 12:30:00 AM 19.43 66.974 0.136 6.88 1.53 8.23
8/13/2022 12:45:00 AM 19.29 66.722 0.136 6.88 1.54 8.26
8/13/2022 1:00:00 AM 19.15 66.47 0.136 6.88 1.54 8.28
8/13/2022 1:15:00 AM 19.02 66.236 0.136 6.89 1.59 8.31
8/13/2022 1:30:00 AM 18.89 66.002 0.136 6.88 1.52 8.34
8/13/2022 1:45:00 AM 18.76 65.768 0.136 6.88 1.61 8.36
8/13/2022 2:00:00 AM 18.63 65.534 0.137 6.88 1.63 8.39
8/13/2022 2:15:00 AM 18.51 65.318 0.137 6.88 1.62 8.42
8/13/2022 2:30:00 AM 18.38 65.084 0.137 6.89 1.59 8.45
8/13/2022 2:45:00 AM 18.25 64.85 0.137 6.88 1.57 8.47
8/13/2022 3:00:00 AM 18.13 64.634 0.137 6.89 1.64 8.5
8/13/2022 3:15:00 AM 18.01 64.418 0.137 6.88 1.54 8.53
8/13/2022 3:30:00 AM 17.89 64.202 0.137 6.88 1.63 8.55
8/13/2022 3:45:00 AM 17.77 63.986 0.137 6.89 1.58 8.59
8/13/2022 4:00:00 AM 17.66 63.788 0.138 6.89 1.66 8.61
8/13/2022 4:15:00 AM 17.54 63.572 0.138 6.88 1.62 8.63
8/13/2022 4:30:00 AM 17.43 63.374 0.138 6.89 1.63 8.66
8/13/2022 4:45:00 AM 17.33 63.194 0.138 6.89 1.6 8.68
8/13/2022 5:00:00 AM 17.25 63.05 0.138 6.89 1.57 8.71
8/13/2022 5:15:00 AM 17.15 62.87 0.138 6.89 1.58 8.73
8/13/2022 5:30:00 AM 17.07 62.726 0.138 6.89 1.61 8.75
8/13/2022 5:45:00 AM 16.99 62.582 0.138 6.9 1.59 8.77
8/13/2022 6:00:00 AM 16.93 62.474 0.139 6.9 1.58 8.79
8/13/2022 6:15:00 AM 16.87 62.366 0.138 6.91 1.53 8.82
8/13/2022 6:30:00 AM 16.81 62.258 0.139 6.91 1.56 8.84
8/13/2022 6:45:00 AM 16.75 62.15 0.139 6.91 1.58 8.88
8/13/2022 7:00:00 AM 16.69 62.042 0.138 6.92 1.49 8.93
8/13/2022 7:15:00 AM 16.63 61.934 0.138 6.93 1.57 8.99
8/13/2022 7:30:00 AM 16.58 61.844 0.138 6.94 1.45 9.06
8/13/2022 7:45:00 AM 16.53 61.754 0.138 6.95 1.48 9.17
8/13/2022 8:00:00 AM 16.51 61.718 0.138 6.98 1.51 9.32
8/13/2022 8:15:00 AM 16.48 61.664 0.138 7 1.48 9.44
8/13/2022 8:30:00 AM 16.5 61.7 0.137 7.04 1.41 9.6
8/13/2022 8:45:00 AM 16.49 61.682 0.137 7.06 1.37 9.68
8/13/2022 9:00:00 AM 16.56 61.808 0.137 7.09 1.4 9.78
8/13/2022 9:15:00 AM 16.66 61.988 0.136 7.11 1.43 9.85
8/13/2022 9:30:00 AM 16.86 62.348 0.136 7.15 1.61 9.91
8/13/2022 9:45:00 AM 17.06 62.708 0.136 7.18 1.44 9.95
8/13/2022 10:00:00 AM 17.21 62.978 0.136 7.22 1.46 9.95
8/13/2022 10:15:00 AM 17.38 63.284 0.136 7.26 1.53 9.95
8/13/2022 10:30:00 AM 17.55 63.59 0.136 7.29 1.44 9.96
8/13/2022 10:45:00 AM 17.75 63.95 0.136 7.3 1.42 9.96
8/13/2022 11:00:00 AM 17.96 64.328 0.136 7.33 1.41 9.97
8/13/2022 11:15:00 AM 18.17 64.706 0.136 7.32 1.44 9.97
8/13/2022 11:30:00 AM 18.4 65.12 0.136 7.35 1.42 9.97
8/13/2022 11:45:00 AM 18.66 65.588 0.136 7.37 1.41 9.97
8/13/2022 12:00:00 PM 18.95 66.11 0.136 7.38 1.39 9.95
8/13/2022 12:15:00 PM 19.23 66.614 0.136 7.4 1.42 9.94
8/13/2022 12:30:00 PM 19.47 67.046 0.136 7.42 1.39 9.92
8/13/2022 12:45:00 PM 19.77 67.586 0.136 7.43 1.42 9.88
8/13/2022 1:00:00 PM 20.06 68.108 0.135 7.45 1.39 9.86
8/13/2022 1:15:00 PM 20.38 68.684 0.135 7.47 1.45 9.83
8/13/2022 1:30:00 PM 20.65 69.17 0.135 7.49 1.42 9.8
8/13/2022 1:45:00 PM 20.92 69.656 0.135 7.51 1.38 9.77
8/13/2022 2:00:00 PM 21.22 70.196 0.135 7.52 1.36 9.73
8/13/2022 2:15:00 PM 21.54 70.772 0.135 7.54 1.41 9.7
8/13/2022 2:30:00 PM 21.83 71.294 0.135 7.56 1.42 9.67
8/13/2022 2:45:00 PM 22.12 71.816 0.135 7.58 1.45 9.63
8/13/2022 3:00:00 PM 22.41 72.338 0.135 7.59 1.43 9.6
8/13/2022 3:15:00 PM 22.65 72.77 0.134 7.62 1.42 9.55
8/13/2022 3:30:00 PM 22.9 73.22 0.134 7.63 1.36 9.5
8/13/2022 3:45:00 PM 23.1 73.58 0.134 7.64 1.41 9.45
8/13/2022 4:00:00 PM 23.32 73.976 0.134 7.64 1.43 9.39
8/13/2022 4:15:00 PM 23.51 74.318 0.134 7.66 1.38 9.35
8/13/2022 4:30:00 PM 23.69 74.642 0.134 7.68 1.39 9.32
8/13/2022 4:45:00 PM 23.69 74.642 0.134 7.7 1.38 9.31
8/13/2022 5:00:00 PM 23.81 74.858 0.134 7.74 1.41 9.31
8/13/2022 5:15:00 PM 23.7 74.66 0.134 7.74 1.44 9.22
8/13/2022 5:30:00 PM 23.57 74.426 0.133 7.71 1.45 9.13
8/13/2022 5:45:00 PM 23.43 74.174 0.133 7.64 1.46 9.07
8/13/2022 6:00:00 PM 23.26 73.868 0.133 7.59 1.45 9.03
8/13/2022 6:15:00 PM 23.08 73.544 0.133 7.56 1.54 8.97
8/13/2022 6:30:00 PM 22.88 73.184 0.133 7.51 1.55 8.91
8/13/2022 6:45:00 PM 22.67 72.806 0.134 7.45 1.48 8.83
8/13/2022 7:00:00 PM 22.48 72.464 0.134 7.42 1.49 8.74
8/13/2022 7:15:00 PM 22.31 72.158 0.134 7.35 1.45 8.65
8/13/2022 7:30:00 PM 22.16 71.888 0.134 7.34 1.51 8.55
8/13/2022 7:45:00 PM 21.99 71.582 0.135 7.25 1.48 8.45
8/13/2022 8:00:00 PM 21.82 71.276 0.135 7.22 1.52 8.35
8/13/2022 8:15:00 PM 21.67 71.006 0.135 7.17 1.48 8.25
8/13/2022 8:30:00 PM 21.52 70.736 0.136 7.14 1.55 8.17
8/13/2022 8:45:00 PM 21.37 70.466 0.136 7.11 1.62 8.09
8/13/2022 9:00:00 PM 21.24 70.232 0.136 7.07 1.62 8.03
8/13/2022 9:15:00 PM 21.11 69.998 0.137 7.05 1.62 7.99
8/13/2022 9:30:00 PM 20.99 69.782 0.137 7.03 1.64 7.96
8/13/2022 9:45:00 PM 20.88 69.584 0.137 7.01 1.67 7.95
8/13/2022 10:00:00 PM 20.77 69.386 0.137 7 1.64 7.94
8/13/2022 10:15:00 PM 20.67 69.206 0.138 6.98 1.63 7.95
8/13/2022 10:30:00 PM 20.57 69.026 0.138 6.96 1.6 7.96
8/13/2022 10:45:00 PM 20.48 68.864 0.138 6.94 1.55 7.98
8/13/2022 11:00:00 PM 20.39 68.702 0.138 6.93 1.59 7.99
8/13/2022 11:15:00 PM 20.3 68.54 0.138 6.92 1.57 8.01
8/13/2022 11:30:00 PM 20.2 68.36 0.138 6.91 1.57 8.02
8/13/2022 11:45:00 PM 20.1 68.18 0.138 6.91 1.59 8.04
8/14/2022 12:00:00 AM 20.01 68.018 0.138 6.9 1.59 8.05
8/14/2022 12:15:00 AM 19.92 67.856 0.138 6.9 1.59 8.07
8/14/2022 12:30:00 AM 19.82 67.676 0.138 6.9 1.57 8.09
8/14/2022 12:45:00 AM 19.74 67.532 0.138 6.9 1.63 8.11
8/14/2022 1:00:00 AM 19.65 67.37 0.139 6.89 1.58 8.13
8/14/2022 1:15:00 AM 19.57 67.226 0.139 6.89 1.59 8.15
8/14/2022 1:30:00 AM 19.48 67.064 0.139 6.89 1.7 8.17
8/14/2022 1:45:00 AM 19.4 66.92 0.139 6.89 1.59 8.19
8/14/2022 2:00:00 AM 19.33 66.794 0.139 6.9 1.6 8.2
8/14/2022 2:15:00 AM 19.24 66.632 0.139 6.9 1.63 8.22
8/14/2022 2:30:00 AM 19.16 66.488 0.139 6.89 1.64 8.24
8/14/2022 2:45:00 AM 19.09 66.362 0.139 6.9 1.65 8.25
8/14/2022 3:00:00 AM 19.02 66.236 0.139 6.9 1.84 8.27
8/14/2022 3:15:00 AM 18.94 66.092 0.14 6.89 1.59 8.28
8/14/2022 3:30:00 AM 18.87 65.966 0.14 6.89 1.63 8.3
8/14/2022 3:45:00 AM 18.79 65.82201 0.14 6.89 1.61 8.31
8/14/2022 4:00:00 AM 18.72 65.696 0.14 6.89 1.6 8.33
8/14/2022 4:15:00 AM 18.66 65.588 0.14 6.9 1.71 8.35
8/14/2022 4:30:00 AM 18.59 65.462 0.14 6.9 1.74 8.36
8/14/2022 4:45:00 AM 18.53 65.354 0.14 6.9 2.02 8.37
8/14/2022 5:00:00 AM 18.46 65.228 0.14 6.89 1.71 8.39
8/14/2022 5:15:00 AM 18.39 65.102 0.14 6.9 1.63 8.4
8/14/2022 5:30:00 AM 18.33 64.994 0.14 6.9 1.66 8.42
8/14/2022 5:45:00 AM 18.26 64.868 0.14 6.9 1.65 8.43
8/14/2022 6:00:00 AM 18.2 64.76 0.14 6.9 1.7 8.45
8/14/2022 6:15:00 AM 18.14 64.652 0.141 6.9 1.69 8.46
8/14/2022 6:30:00 AM 18.08 64.544 0.141 6.9 1.6 8.49
8/14/2022 6:45:00 AM 18.02 64.436 0.141 6.9 1.62 8.51
8/14/2022 7:00:00 AM 17.97 64.346 0.14 6.91 1.64 8.58
8/14/2022 7:15:00 AM 17.93 64.274 0.141 6.92 1.65 8.65
8/14/2022 7:30:00 AM 17.9 64.22 0.141 6.94 1.58 8.76
8/14/2022 7:45:00 AM 17.89 64.202 0.141 6.96 1.57 8.86
8/14/2022 8:00:00 AM 17.89 64.202 0.14 6.98 1.53 9
8/14/2022 8:15:00 AM 17.88 64.184 0.14 7 1.5 9.1
8/14/2022 8:30:00 AM 17.88 64.184 0.14 7.02 1.49 9.2
8/14/2022 8:45:00 AM 17.94 64.292 0.14 7.04 1.5 9.31
8/14/2022 9:00:00 AM 17.99 64.382 0.139 7.07 1.45 9.4
8/14/2022 9:15:00 AM 18.05 64.49 0.139 7.1 1.46 9.47
8/14/2022 9:30:00 AM 18.15 64.67 0.139 7.12 1.48 9.54
8/14/2022 9:45:00 AM 18.25 64.85 0.139 7.15 1.51 9.58
8/14/2022 10:00:00 AM 18.44 65.192 0.139 7.19 1.48 9.64
8/14/2022 10:15:00 AM 18.64 65.552 0.138 7.23 1.52 9.67
8/14/2022 10:30:00 AM 18.86 65.948 0.138 7.28 1.48 9.68
8/14/2022 10:45:00 AM 19.17 66.506 0.138 7.32 1.48 9.68
8/14/2022 11:00:00 AM 19.5 67.1 0.139 7.35 1.46 9.69
8/14/2022 11:15:00 AM 19.72 67.496 0.138 7.35 1.52 9.68
8/14/2022 11:30:00 AM 20 68 0.138 7.36 1.48 9.66
8/14/2022 11:45:00 AM 20.26 68.468 0.139 7.37 1.49 9.65
8/14/2022 12:00:00 PM 20.53 68.954 0.138 7.39 1.5 9.64
8/14/2022 12:15:00 PM 20.7 69.26 0.138 7.4 1.48 9.62
8/14/2022 12:30:00 PM 20.7 69.26 0.138 7.4 1.52 9.62
8/14/2022 12:45:00 PM 20.85 69.53 0.138 7.43 1.49 9.68
8/14/2022 1:00:00 PM 20.89 69.602 0.137 7.45 1.53 9.68
8/14/2022 1:15:00 PM 20.95 69.71 0.137 7.48 1.53 9.73
8/14/2022 1:30:00 PM 21.02 69.836 0.137 7.5 1.52 9.75
8/14/2022 1:45:00 PM 21.19 70.142 0.137 7.55 1.53 9.81
8/14/2022 2:00:00 PM 21.31 70.358 0.136 7.59 1.56 9.83
8/14/2022 2:15:00 PM 21.47 70.646 0.136 7.64 1.53 9.84
8/14/2022 2:30:00 PM 21.66 70.988 0.135 7.68 1.52 9.84
8/14/2022 2:45:00 PM 21.86 71.348 0.135 7.72 1.51 9.82
8/14/2022 3:00:00 PM 22 71.6 0.135 7.75 1.53 9.77
8/14/2022 3:15:00 PM 22.12 71.816 0.135 7.78 1.53 9.74
8/14/2022 3:30:00 PM 22.33 72.194 0.134 7.83 1.59 9.73
8/14/2022 3:45:00 PM 22.5 72.5 0.134 7.85 1.54 9.69
8/14/2022 4:00:00 PM 22.61 72.698 0.134 7.89 1.55 9.65
8/14/2022 4:15:00 PM 22.67 72.806 0.134 7.9 1.51 9.62
8/14/2022 4:30:00 PM 22.9 73.22 0.134 7.91 1.45 9.57
8/14/2022 4:45:00 PM 23.01 73.418 0.134 7.94 1.49 9.52
8/14/2022 5:00:00 PM 23.12 73.616 0.134 7.93 1.49 9.44
8/14/2022 5:15:00 PM 23.15 73.67 0.133 7.88 1.47 9.31
8/14/2022 5:30:00 PM 23.22 73.796 0.133 7.86 1.51 9.21
8/14/2022 5:45:00 PM 23.18 73.724 0.134 7.8 1.57 9.05
8/14/2022 6:00:00 PM 23.18 73.724 0.133 7.74 1.52 8.98
8/14/2022 6:15:00 PM 23.09 73.562 0.134 7.65 1.53 8.84
8/14/2022 6:30:00 PM 22.95 73.31 0.134 7.57 1.54 8.74
8/14/2022 6:45:00 PM 22.74 72.932 0.134 7.49 1.57 8.58
8/14/2022 7:00:00 PM 22.55 72.59 0.135 7.4 1.64 8.42
8/14/2022 7:15:00 PM 22.4 72.32 0.135 7.33 1.57 8.31
8/14/2022 7:30:00 PM 22.23 72.014 0.135 7.26 1.59 8.18
8/14/2022 7:45:00 PM 22.06 71.708 0.136 7.21 1.54 8.07
8/14/2022 8:00:00 PM 21.91 71.438 0.137 7.17 1.59 7.98
8/14/2022 8:15:00 PM 21.77 71.186 0.137 7.12 1.53 7.9
8/14/2022 8:30:00 PM 21.64 70.952 0.137 7.1 1.59 7.85
8/14/2022 8:45:00 PM 21.55 70.79 0.138 7.07 1.76 7.82
8/14/2022 9:00:00 PM 21.46 70.628 0.138 7.05 1.71 7.79
8/14/2022 9:15:00 PM 21.38 70.484 0.138 7.03 1.71 7.77
8/14/2022 9:30:00 PM 21.32 70.376 0.138 7.02 1.67 7.77
8/14/2022 9:45:00 PM 21.24 70.232 0.138 7 1.78 7.76
8/14/2022 10:00:00 PM 21.19 70.142 0.138 6.99 1.93 7.77
8/14/2022 10:15:00 PM 21.11 69.998 0.138 6.98 2.24 7.77
8/14/2022 10:30:00 PM 21.05 69.89 0.138 6.97 1.77 7.78
8/14/2022 10:45:00 PM 20.98 69.764 0.138 6.96 1.78 7.79
8/14/2022 11:00:00 PM 20.92 69.656 0.138 6.96 1.7 7.8
8/14/2022 11:15:00 PM 20.86 69.548 0.138 6.95 1.69 7.81
8/14/2022 11:30:00 PM 20.79 69.422 0.139 6.95 1.68 7.82
8/14/2022 11:45:00 PM 20.73 69.314 0.139 6.94 1.7 7.83
8/15/2022 12:00:00 AM 20.67 69.206 0.139 6.93 1.62 7.85
8/15/2022 12:15:00 AM 20.62 69.116 0.139 6.92 2.49 7.86
8/15/2022 12:30:00 AM 20.55 68.99 0.139 6.92 1.64 7.88
8/15/2022 12:45:00 AM 20.5 68.9 0.139 6.91 1.68 7.88
8/15/2022 1:00:00 AM 20.44 68.792 0.14 6.91 1.56 7.9
8/15/2022 1:15:00 AM 20.39 68.702 0.14 6.91 1.67 7.91
8/15/2022 1:30:00 AM 20.33 68.594 0.14 6.9 1.6 7.92
8/15/2022 1:45:00 AM 20.28 68.504 0.14 6.9 1.6 7.94
8/15/2022 2:00:00 AM 20.22 68.396 0.14 6.9 1.63 7.95
8/15/2022 2:15:00 AM 20.17 68.306 0.14 6.91 1.63 7.96
8/15/2022 2:30:00 AM 20.11 68.198 0.14 6.91 1.63 7.98
8/15/2022 2:45:00 AM 20.05 68.09 0.141 6.91 1.64 7.98
8/15/2022 3:00:00 AM 20 68 0.141 6.91 1.65 7.99
8/15/2022 3:15:00 AM 19.94 67.892 0.141 6.91 1.63 8.01
8/15/2022 3:30:00 AM 19.89 67.802 0.141 6.92 1.64 8.02
8/15/2022 3:45:00 AM 19.83 67.694 0.141 6.91 1.63 8.04
8/15/2022 4:00:00 AM 19.78 67.604 0.142 6.91 1.66 8.05
8/15/2022 4:15:00 AM 19.72 67.496 0.141 6.91 1.66 8.06
8/15/2022 4:30:00 AM 19.67 67.406 0.142 6.91 1.66 8.08
8/15/2022 4:45:00 AM 19.61 67.298 0.142 6.91 1.59 8.08
8/15/2022 5:00:00 AM 19.56 67.208 0.142 6.91 1.66 8.1
8/15/2022 5:15:00 AM 19.49 67.082 0.142 6.91 1.68 8.12
8/15/2022 5:30:00 AM 19.41 66.938 0.142 6.91 1.66 8.13
8/15/2022 5:45:00 AM 19.34 66.812 0.142 6.9 1.67 8.14
8/15/2022 6:00:00 AM 19.26 66.668 0.143 6.9 1.72 8.15
8/15/2022 6:15:00 AM 19.18 66.524 0.142 6.9 1.72 8.18
8/15/2022 6:30:00 AM 19.1 66.38 0.142 6.9 1.62 8.21
8/15/2022 6:45:00 AM 19.03 66.254 0.143 6.9 1.64 8.24
8/15/2022 7:00:00 AM 18.97 66.146 0.143 6.91 1.68 8.3
8/15/2022 7:15:00 AM 18.91 66.038 0.143 6.91 1.6 8.36
8/15/2022 7:30:00 AM 18.86 65.948 0.143 6.92 1.63 8.41
8/15/2022 7:45:00 AM 18.84 65.912 0.143 6.94 1.57 8.55
8/15/2022 8:00:00 AM 18.8 65.84 0.142 6.95 1.56 8.6
8/15/2022 8:15:00 AM 18.8 65.84 0.142 6.97 1.58 8.71
8/15/2022 8:30:00 AM 18.86 65.948 0.142 7.02 1.59 8.89
8/15/2022 8:45:00 AM 18.95 66.11 0.141 7.05 1.6 9.02
8/15/2022 9:00:00 AM 19.05 66.29 0.142 7.08 1.67 9.13
8/15/2022 9:15:00 AM 19.12 66.416 0.141 7.11 1.63 9.22
8/15/2022 9:30:00 AM 19.2 66.56 0.141 7.14 1.6 9.32
8/15/2022 9:45:00 AM 19.3 66.74 0.14 7.17 1.64 9.41
8/15/2022 10:00:00 AM 19.43 66.974 0.14 7.21 1.63 9.5
8/15/2022 10:15:00 AM 19.47 67.046 0.14 7.23 1.61 9.44
8/15/2022 10:30:00 AM 19.54 67.172 0.14 7.24 1.67 9.4
8/15/2022 10:45:00 AM 19.62 67.316 0.14 7.24 1.62 9.39
8/15/2022 11:00:00 AM 19.62 67.316 0.14 7.23 1.63 9.29
8/15/2022 11:15:00 AM 19.62 67.316 0.14 7.22 1.58 9.23
8/15/2022 11:30:00 AM 19.62 67.316 0.14 7.21 1.64 9.17
8/15/2022 11:45:00 AM 19.6 67.28 0.14 7.21 1.58 9.11
8/15/2022 12:00:00 PM 19.57 67.226 0.141 7.19 1.63 9.06
8/15/2022 12:15:00 PM 19.55 67.19 0.141 7.18 1.62 9.08
8/15/2022 12:30:00 PM 19.54 67.172 0.141 7.19 1.58 9.15
8/15/2022 12:45:00 PM 19.54 67.172 0.14 7.21 1.72 9.24
8/15/2022 1:00:00 PM 19.59 67.262 0.14 7.24 1.91 9.37
8/15/2022 1:15:00 PM 19.61 67.298 0.14 7.25 1.88 9.42
8/15/2022 1:30:00 PM 19.69 67.442 0.139 7.26 2.05 9.54
8/15/2022 1:45:00 PM 19.77 67.586 0.138 7.31 1.83 9.6
8/15/2022 2:00:00 PM 19.86 67.748 0.137 7.35 1.74 9.7
8/15/2022 2:15:00 PM 19.92 67.856 0.136 7.37 1.72 9.72
8/15/2022 2:30:00 PM 19.97 67.946 0.136 7.38 1.69 9.65
8/15/2022 2:45:00 PM 20 68 0.136 7.39 1.66 9.6
8/15/2022 3:00:00 PM 20.09 68.162 0.135 7.41 1.68 9.67
8/15/2022 3:15:00 PM 20.18 68.324 0.135 7.43 1.69 9.64
8/15/2022 3:30:00 PM 20.32 68.576 0.136 7.46 1.62 9.68
8/15/2022 3:45:00 PM 20.4 68.72 0.135 7.48 1.67 9.67
8/15/2022 4:00:00 PM 20.39 68.702 0.136 7.48 1.73 9.6
8/15/2022 4:15:00 PM 20.46 68.828 0.136 7.49 1.73 9.62
8/15/2022 4:30:00 PM 20.47 68.846 0.136 7.48 1.65 9.52
8/15/2022 4:45:00 PM 20.49 68.882 0.135 7.48 1.71 9.51
8/15/2022 5:00:00 PM 20.51 68.918 0.136 7.47 1.82 9.43
8/15/2022 5:15:00 PM 20.48 68.864 0.136 7.45 1.73 9.37
8/15/2022 5:30:00 PM 20.42 68.756 0.136 7.41 1.67 9.21
8/15/2022 5:45:00 PM 20.36 68.648 0.136 7.37 1.68 9.16
8/15/2022 6:00:00 PM 20.28 68.504 0.136 7.33 1.7 9.06
8/15/2022 6:15:00 PM 20.21 68.378 0.136 7.29 1.75 8.97
8/15/2022 6:30:00 PM 20.14 68.252 0.136 7.25 1.74 8.87
8/15/2022 6:45:00 PM 20.06 68.108 0.136 7.23 1.75 8.79
8/15/2022 7:00:00 PM 19.98 67.964 0.137 7.19 1.7 8.7
8/15/2022 7:15:00 PM 19.91 67.838 0.137 7.16 1.68 8.65
8/15/2022 7:30:00 PM 19.84 67.712 0.137 7.14 1.64 8.58
8/15/2022 7:45:00 PM 19.74 67.532 0.137 7.12 1.61 8.53
8/15/2022 8:00:00 PM 19.68 67.424 0.137 7.08 1.65 8.47
8/15/2022 8:15:00 PM 19.6 67.28 0.137 7.06 1.7 8.42
8/15/2022 8:30:00 PM 19.53 67.154 0.138 7.04 1.74 8.37
8/15/2022 8:45:00 PM 19.45 67.01 0.138 7.02 1.86 8.34
8/15/2022 9:00:00 PM 19.38 66.884 0.138 6.99 1.82 8.32
8/15/2022 9:15:00 PM 19.3 66.74 0.138 6.98 1.92 8.29
8/15/2022 9:30:00 PM 19.24 66.632 0.138 6.96 1.89 8.29
8/15/2022 9:45:00 PM 19.18 66.524 0.138 6.94 1.92 8.28
8/15/2022 10:00:00 PM 19.12 66.416 0.138 6.93 1.87 8.28
8/15/2022 10:15:00 PM 19.06 66.308 0.138 6.93 1.85 8.29
8/15/2022 10:30:00 PM 19.01 66.218 0.138 6.93 1.88 8.29
8/15/2022 10:45:00 PM 18.95 66.11 0.139 6.93 1.88 8.31
8/15/2022 11:00:00 PM 18.9 66.02 0.138 6.93 1.87 8.32
8/15/2022 11:15:00 PM 18.84 65.912 0.139 6.93 1.78 8.32
8/15/2022 11:30:00 PM 18.79 65.82201 0.138 6.93 1.78 8.34
8/15/2022 11:45:00 PM 18.74 65.732 0.139 6.93 1.79 8.35
8/16/2022 12:00:00 AM 18.69 65.642 0.139 6.92 1.77 8.36
8/16/2022 12:15:00 AM 18.65 65.57 0.138 6.92 1.83 8.37
8/16/2022 12:30:00 AM 18.6 65.48 0.139 6.93 1.78 8.37
8/16/2022 12:45:00 AM 18.56 65.408 0.139 6.93 1.88 8.38
8/16/2022 1:00:00 AM 18.52 65.336 0.139 6.93 1.71 8.39
8/16/2022 1:15:00 AM 18.48 65.264 0.139 6.93 1.78 8.4
8/16/2022 1:30:00 AM 18.45 65.21 0.139 6.94 1.74 8.41
8/16/2022 1:45:00 AM 18.42 65.156 0.139 6.93 4.4 8.41
8/16/2022 2:00:00 AM 18.38 65.084 0.139 6.93 1.72 8.41
8/16/2022 2:15:00 AM 18.35 65.03 0.14 6.94 1.78 8.42
8/16/2022 2:30:00 AM 18.32 64.976 0.14 6.94 1.83 8.43
8/16/2022 2:45:00 AM 18.29 64.922 0.14 6.94 1.82 8.44
8/16/2022 3:00:00 AM 18.27 64.886 0.14 6.94 1.88 8.44
8/16/2022 3:15:00 AM 18.24 64.832 0.14 6.94 1.92 8.46
8/16/2022 3:30:00 AM 18.21 64.778 0.14 6.94 1.92 8.47
8/16/2022 3:45:00 AM 18.18 64.724 0.141 6.93 1.99 8.46
8/16/2022 4:00:00 AM 18.15 64.67 0.14 6.94 2.01 8.46
8/16/2022 4:15:00 AM 18.13 64.634 0.14 6.93 1.99 8.47
8/16/2022 4:30:00 AM 18.1 64.58 0.141 6.93 1.93 8.46
8/16/2022 4:45:00 AM 18.07 64.526 0.141 6.93 1.87 8.46
8/16/2022 5:00:00 AM 18.05 64.49 0.141 6.93 1.95 8.48
8/16/2022 5:15:00 AM 18.02 64.436 0.141 6.92 1.9 8.46
8/16/2022 5:30:00 AM 17.99 64.382 0.141 6.93 1.93 8.48
8/16/2022 5:45:00 AM 17.97 64.346 0.141 6.93 1.92 8.48
8/16/2022 6:00:00 AM 17.94 64.292 0.141 6.93 1.88 8.5
8/16/2022 6:15:00 AM 17.92 64.256 0.142 6.93 1.91 8.51
8/16/2022 6:30:00 AM 17.89 64.202 0.142 6.93 1.93 8.52
8/16/2022 6:45:00 AM 17.87 64.166 0.142 6.94 1.86 8.54
8/16/2022 7:00:00 AM 17.85 64.13 0.142 6.94 1.84 8.58
8/16/2022 7:15:00 AM 17.83 64.094 0.142 6.95 1.84 8.62
8/16/2022 7:30:00 AM 17.82 64.076 0.142 6.96 1.74 8.67
8/16/2022 7:45:00 AM 17.81 64.058 0.142 6.97 1.76 8.73
8/16/2022 8:00:00 AM 17.82 64.076 0.142 6.98 1.78 8.83
8/16/2022 8:15:00 AM 17.83 64.094 0.142 7 1.73 8.93
8/16/2022 8:30:00 AM 17.86 64.148 0.142 7.02 1.73 9.03
8/16/2022 8:45:00 AM 17.89 64.202 0.142 7.05 1.75 9.12
8/16/2022 9:00:00 AM 17.93 64.274 0.142 7.06 1.75 9.2
8/16/2022 9:15:00 AM 17.97 64.346 0.142 7.07 1.81 9.27
8/16/2022 9:30:00 AM 18.01 64.418 0.141 7.1 1.78 9.34
8/16/2022 9:45:00 AM 18.06 64.508 0.141 7.12 1.84 9.38
8/16/2022 10:00:00 AM 18.11 64.598 0.141 7.14 1.75 9.43
8/16/2022 10:15:00 AM 18.16 64.688 0.14 7.15 1.75 9.47
8/16/2022 10:30:00 AM 18.22 64.796 0.14 7.17 1.75 9.52
8/16/2022 10:45:00 AM 18.32 64.976 0.14 7.2 1.72 9.62
8/16/2022 11:00:00 AM 18.42 65.156 0.14 7.23 1.75 9.69
8/16/2022 11:15:00 AM 18.51 65.318 0.14 7.26 1.67 9.74
8/16/2022 11:30:00 AM 18.61 65.498 0.139 7.29 1.7 9.8
8/16/2022 11:45:00 AM 18.71 65.67799 0.139 7.32 1.72 9.83
8/16/2022 12:00:00 PM 18.8 65.84 0.138 7.34 1.77 9.86
8/16/2022 12:15:00 PM 18.92 66.056 0.139 7.36 1.71 9.88
8/16/2022 12:30:00 PM 18.99 66.182 0.139 7.38 1.72 9.84
8/16/2022 12:45:00 PM 19.05 66.29 0.138 7.38 1.73 9.81
8/16/2022 1:00:00 PM 19.21 66.578 0.138 7.41 1.78 9.89
8/16/2022 1:15:00 PM 19.39 66.902 0.138 7.44 1.79 9.9
8/16/2022 1:30:00 PM 19.77 67.586 0.138 7.47 1.77 9.92
8/16/2022 1:45:00 PM 20.03 68.054 0.138 7.51 1.73 9.89
8/16/2022 2:00:00 PM 20.36 68.648 0.138 7.54 1.75 9.87
8/16/2022 2:15:00 PM 20.73 69.314 0.137 7.57 1.81 9.86
8/16/2022 2:30:00 PM 21.07 69.926 0.137 7.59 1.79 9.82
8/16/2022 2:45:00 PM 21.43 70.574 0.137 7.6 1.77 9.77
8/16/2022 3:00:00 PM 21.73 71.114 0.137 7.64 1.78 9.72
8/16/2022 3:15:00 PM 22.04 71.672 0.136 7.67 1.74 9.68
8/16/2022 3:30:00 PM 21.98 71.564 0.136 7.63 2.01 9.39
8/16/2022 3:45:00 PM 21.97 71.546 0.136 7.58 2.14 9.26
8/16/2022 4:00:00 PM 21.91 71.438 0.136 7.51 2 9.09
8/16/2022 4:15:00 PM 21.82 71.276 0.136 7.45 1.97 8.97
8/16/2022 4:30:00 PM 21.72 71.096 0.135 7.4 1.93 8.92
8/16/2022 4:45:00 PM 21.57 70.826 0.135 7.37 1.92 8.92
8/16/2022 5:00:00 PM 21.42 70.556 0.136 7.36 1.89 8.95
8/16/2022 5:15:00 PM 21.27 70.286 0.136 7.34 1.85 9.01
8/16/2022 5:30:00 PM 21.1 69.98 0.135 7.35 1.94 9.07
8/16/2022 5:45:00 PM 21 69.8 0.135 7.37 1.81 9.12
8/16/2022 6:00:00 PM 20.91 69.638 0.135 7.35 1.81 9.03
8/16/2022 6:15:00 PM 20.77 69.386 0.136 7.3 1.9 8.91
8/16/2022 6:30:00 PM 20.71 69.278 0.135 7.26 1.9 8.81
8/16/2022 6:45:00 PM 20.59 69.062 0.136 7.21 1.92 8.68
8/16/2022 7:00:00 PM 20.43 68.774 0.136 7.17 1.91 8.57
8/16/2022 7:15:00 PM 20.29 68.522 0.136 7.14 1.93 8.47
8/16/2022 7:30:00 PM 20.13 68.234 0.137 7.1 1.86 8.4
8/16/2022 7:45:00 PM 19.99 67.982 0.136 7.08 1.95 8.35
8/16/2022 8:00:00 PM 19.85 67.73 0.137 7.05 1.95 8.32
8/16/2022 8:15:00 PM 19.74 67.532 0.137 7.02 2.01 8.29
8/16/2022 8:30:00 PM 19.65 67.37 0.137 6.98 2.11 8.28
8/16/2022 8:45:00 PM 19.57 67.226 0.136 6.95 2.21 8.26
8/16/2022 9:00:00 PM 19.5 67.1 0.136 6.93 2.25 8.25
8/16/2022 9:15:00 PM 19.45 67.01 0.136 6.93 2.32 8.25
8/16/2022 9:30:00 PM 19.4 66.92 0.136 6.92 2.28 8.24
8/16/2022 9:45:00 PM 19.35 66.83 0.136 6.93 2.3 8.23
8/16/2022 10:00:00 PM 19.32 66.776 0.136 6.93 2.33 8.23
8/16/2022 10:15:00 PM 19.28 66.704 0.136 6.94 2.19 8.23
8/16/2022 10:30:00 PM 19.25 66.65 0.136 6.94 2.27 8.24
8/16/2022 10:45:00 PM 19.22 66.596 0.136 6.94 2.2 8.23
8/16/2022 11:00:00 PM 19.19 66.542 0.136 6.94 2.24 8.24
8/16/2022 11:15:00 PM 19.16 66.488 0.136 6.95 2.15 8.24
8/16/2022 11:30:00 PM 19.12 66.416 0.137 6.95 2.22 8.24
8/16/2022 11:45:00 PM 19.09 66.362 0.137 6.95 2.12 8.25
8/17/2022 12:00:00 AM 19.07 66.326 0.137 6.95 2.13 8.25
8/17/2022 12:15:00 AM 19.03 66.254 0.137 6.96 2.18 8.27
8/17/2022 12:30:00 AM 19 66.2 0.137 6.95 2.26 8.28
8/17/2022 12:45:00 AM 18.96 66.128 0.138 6.95 2.23 8.3
8/17/2022 1:00:00 AM 18.93 66.074 0.138 6.95 2.16 8.3
8/17/2022 1:15:00 AM 19 66.2 0.136 6.95 79.38 8.46
8/17/2022 1:30:00 AM 19.05 66.29 0.137 6.92 46.86 8.56
8/17/2022 1:45:00 AM 19.08 66.344 0.135 6.95 37.34 8.62
8/17/2022 2:00:00 AM 19.09 66.362 0.134 7.01 30.72 8.69
8/17/2022 2:15:00 AM 19.1 66.38 0.133 7.05 26.19 8.74
8/17/2022 2:30:00 AM 19.11 66.398 0.13 7.1 23.15 8.76
8/17/2022 2:45:00 AM 19.11 66.398 0.127 7.11 21.71 8.76
8/17/2022 3:00:00 AM 19.09 66.362 0.123 7.11 21.14 8.78
8/17/2022 3:15:00 AM 19.05 66.29 0.12 7.1 20.06 8.79
8/17/2022 3:30:00 AM 18.99 66.182 0.117 7.11 20.97 8.8
8/17/2022 3:45:00 AM 18.93 66.074 0.114 7.11 21.87 8.81
8/17/2022 4:00:00 AM 18.86 65.948 0.111 7.1 21.95 8.82
8/17/2022 4:15:00 AM 18.79 65.82201 0.109 7.11 24.18 8.84
8/17/2022 4:30:00 AM 18.71 65.67799 0.106 7.1 24.82 8.85
8/17/2022 4:45:00 AM 18.62 65.516 0.103 7.09 27.1 8.87
8/17/2022 5:00:00 AM 18.53 65.354 0.1 7.07 30.68 8.88
8/17/2022 5:15:00 AM 18.44 65.192 0.098 7.02 34.35 8.89
8/17/2022 5:30:00 AM 18.33 64.994 0.095 6.98 38.23 8.91
8/17/2022 5:45:00 AM 18.24 64.832 0.092 6.95 41.26 8.92
8/17/2022 6:00:00 AM 18.13 64.634 0.089 6.91 44.4 8.93
8/17/2022 6:15:00 AM 18.03 64.454 0.087 6.88 46.8 8.95
8/17/2022 6:30:00 AM 17.92 64.256 0.084 6.85 47.84 8.97
8/17/2022 6:45:00 AM 17.82 64.076 0.082 6.83 49.41 8.99
8/17/2022 7:00:00 AM 17.72 63.896 0.08 6.81 51.29 9.01
8/17/2022 7:15:00 AM 17.62 63.716 0.078 6.79 51.57 9.04
8/17/2022 7:30:00 AM 17.54 63.572 0.077 6.78 49.57 9.07
8/17/2022 7:45:00 AM 17.46 63.428 0.076 6.79 47.45 9.09
8/17/2022 8:00:00 AM 17.39 63.302 0.075 6.79 46.49 9.13
8/17/2022 8:15:00 AM 17.33 63.194 0.074 6.8 44.21 9.17
8/17/2022 8:30:00 AM 17.29 63.122 0.074 6.8 43.62 9.21
8/17/2022 8:45:00 AM 17.25 63.05 0.073 6.8 41.41 9.26
8/17/2022 9:00:00 AM 17.23 63.014 0.073 6.79 39.4 9.29
8/17/2022 9:15:00 AM 17.21 62.978 0.073 6.81 36.7 9.32
8/17/2022 9:30:00 AM 17.21 62.978 0.073 6.83 35.2 9.36
8/17/2022 9:45:00 AM 17.21 62.978 0.073 6.85 34.39 9.4
8/17/2022 10:00:00 AM 17.23 63.014 0.073 6.87 33.38 9.44
8/17/2022 10:15:00 AM 17.29 63.122 0.073 6.9 31.57 9.49
8/17/2022 10:30:00 AM 17.38 63.284 0.073 6.93 31.07 9.52
8/17/2022 10:45:00 AM 17.43 63.374 0.073 6.97 29.7 9.56
8/17/2022 11:00:00 AM 17.52 63.536 0.073 6.99 29.28 9.59
8/17/2022 11:15:00 AM 17.58 63.644 0.073 7.02 28.49 9.62
8/17/2022 11:30:00 AM 17.67 63.806 0.074 7.05 27.62 9.64
8/17/2022 11:45:00 AM 17.76 63.968 0.074 7.08 26.43 9.65
8/17/2022 12:00:00 PM 17.87 64.166 0.074 7.1 24.62 9.66
8/17/2022 12:15:00 PM 18.05 64.49 0.075 7.13 24.29 9.68
8/17/2022 12:30:00 PM 18.16 64.688 0.075 7.16 23.03 9.69
8/17/2022 12:45:00 PM 18.29 64.922 0.075 7.18 22.04 9.7
8/17/2022 1:00:00 PM 18.59 65.462 0.076 7.22 21.11 9.72
8/17/2022 1:15:00 PM 18.71 65.67799 0.076 7.24 21.08 9.71
8/17/2022 1:30:00 PM 18.78 65.804 0.076 7.25 20.2 9.7
8/17/2022 1:45:00 PM 18.99 66.182 0.077 7.26 19.52 9.69
8/17/2022 2:00:00 PM 19.2 66.56 0.077 7.3 18.48 9.67
8/17/2022 2:15:00 PM 19.4 66.92 0.077 7.31 18.49 9.63
8/17/2022 2:30:00 PM 19.49 67.082 0.078 7.32 17.91 9.56
8/17/2022 2:45:00 PM 19.5 67.1 0.078 7.31 16.99 9.52
8/17/2022 3:00:00 PM 19.54 67.172 0.078 7.29 16.84 9.42
8/17/2022 3:15:00 PM 19.49 67.082 0.079 7.26 16.5 9.31
8/17/2022 3:30:00 PM 19.49 67.082 0.079 7.2 15.71 9.18
8/17/2022 3:45:00 PM 19.47 67.046 0.079 7.17 17.31 9.08
8/17/2022 4:00:00 PM 19.45 67.01 0.079 7.13 15.24 9.02
8/17/2022 4:15:00 PM 19.4 66.92 0.079 7.11 15.07 8.97
8/17/2022 4:30:00 PM 19.34 66.812 0.079 7.1 14.77 8.94
8/17/2022 4:45:00 PM 19.27 66.686 0.079 7.07 14.36 8.92
8/17/2022 5:00:00 PM 19.19 66.542 0.079 7.06 12.93 8.92
8/17/2022 5:15:00 PM 19.11 66.398 0.079 7.05 14.04 8.92
8/17/2022 5:30:00 PM 19.06 66.308 0.079 7.03 14.53 8.91
8/17/2022 5:45:00 PM 19.02 66.236 0.079 7.02 16.19 8.92
8/17/2022 6:00:00 PM 18.99 66.182 0.079 7 19.58 8.93
8/17/2022 6:15:00 PM 18.97 66.146 0.08 7 19.83 8.95
8/17/2022 6:30:00 PM 18.94 66.092 0.08 7.01 19.29 8.96
8/17/2022 6:45:00 PM 18.88 65.984 0.08 6.99 18.18 8.96
8/17/2022 7:00:00 PM 18.83 65.894 0.079 6.98 17.43 8.97
8/17/2022 7:15:00 PM 18.78 65.804 0.08 6.97 17.49 8.96
8/17/2022 7:30:00 PM 18.73 65.714 0.08 6.95 17.99 8.95
8/17/2022 7:45:00 PM 18.67 65.606 0.08 6.94 19.92 8.94
8/17/2022 8:00:00 PM 18.6 65.48 0.08 6.92 24.05 8.93
8/17/2022 8:15:00 PM 18.54 65.372 0.079 6.9 26.93 8.91
8/17/2022 8:30:00 PM 18.47 65.246 0.079 6.88 28.57 8.91
8/17/2022 8:45:00 PM 18.41 65.138 0.078 6.88 28.92 8.91
8/17/2022 9:00:00 PM 18.35 65.03 0.078 6.87 27.93 8.91
8/17/2022 9:15:00 PM 18.29 64.922 0.078 6.86 26.18 8.92
8/17/2022 9:30:00 PM 18.23 64.814 0.078 6.86 23.35 8.93
8/17/2022 9:45:00 PM 18.18 64.724 0.078 6.86 24.16 8.93
8/17/2022 10:00:00 PM 18.13 64.634 0.078 6.86 23.96 8.95
8/17/2022 10:15:00 PM 18.07 64.526 0.079 6.86 24.03 8.95
8/17/2022 10:30:00 PM 18.03 64.454 0.079 6.86 24.75 8.95
8/17/2022 10:45:00 PM 17.99 64.382 0.08 6.87 24.91 8.96
8/17/2022 11:00:00 PM 17.96 64.328 0.08 6.88 25.24 8.97
8/17/2022 11:15:00 PM 17.93 64.274 0.081 6.89 24.49 8.98
8/17/2022 11:30:00 PM 17.89 64.202 0.081 6.89 23.11 8.97
8/17/2022 11:45:00 PM 17.86 64.148 0.081 6.9 21.9 8.98
8/18/2022 12:00:00 AM 17.83 64.094 0.081 6.91 21.72 8.98
8/18/2022 12:15:00 AM 17.8 64.04 0.082 6.91 21.01 8.99
8/18/2022 12:30:00 AM 17.77 63.986 0.082 6.93 20.48 9
8/18/2022 12:45:00 AM 17.74 63.932 0.082 6.93 19.7 9.01
8/18/2022 1:00:00 AM 17.71 63.878 0.083 6.94 19.29 9.02
8/18/2022 1:15:00 AM 17.68 63.824 0.083 6.93 18.99 9.03
8/18/2022 1:30:00 AM 17.65 63.77 0.084 6.93 18.72 9.04
8/18/2022 1:45:00 AM 17.61 63.698 0.086 6.93 18.36 9.05
8/18/2022 2:00:00 AM 17.58 63.644 0.087 6.95 19.15 9.06
8/18/2022 2:15:00 AM 17.56 63.608 0.089 6.96 16.3 9.07
8/18/2022 2:30:00 AM 17.53 63.554 0.09 6.97 15.27 9.07
8/18/2022 2:45:00 AM 17.51 63.518 0.091 6.97 14.83 9.08
8/18/2022 3:00:00 AM 17.49 63.482 0.093 6.98 14.1 9.09
8/18/2022 3:15:00 AM 17.46 63.428 0.094 6.99 12.58 9.1
8/18/2022 3:30:00 AM 17.44 63.392 0.095 6.99 12.82 9.1
8/18/2022 3:45:00 AM 17.41 63.338 0.095 7 12.24 9.11
8/18/2022 4:00:00 AM 17.39 63.302 0.096 7 12.15 9.11
8/18/2022 4:15:00 AM 17.36 63.248 0.097 7 11.43 9.12
8/18/2022 4:30:00 AM 17.33 63.194 0.097 7 11.09 9.13
8/18/2022 4:45:00 AM 17.3 63.14 0.098 7.01 11 9.13
8/18/2022 5:00:00 AM 17.27 63.086 0.098 7.01 10.7 9.14
8/18/2022 5:15:00 AM 17.24 63.032 0.099 7.01 10.27 9.15
8/18/2022 5:30:00 AM 17.21 62.978 0.099 7 9.95 9.15
8/18/2022 5:45:00 AM 17.17 62.906 0.099 7.01 28 9.16
8/18/2022 6:00:00 AM 17.14 62.852 0.1 7.01 9.56 9.17
8/18/2022 6:15:00 AM 17.1 62.78 0.1 7.01 9.41 9.17
8/18/2022 6:30:00 AM 17.06 62.708 0.101 7.02 9.11 9.18
8/18/2022 6:45:00 AM 17.02 62.636 0.101 7.01 8.82 9.2
8/18/2022 7:00:00 AM 16.99 62.582 0.102 7.01 8.52 9.21
8/18/2022 7:15:00 AM 16.96 62.528 0.102 7.02 8.29 9.24
8/18/2022 7:30:00 AM 16.93 62.474 0.103 7.02 8.05 9.29
8/18/2022 7:45:00 AM 16.91 62.438 0.104 7.04 7.84 9.33
8/18/2022 8:00:00 AM 16.9 62.42 0.104 7.06 7.52 9.39
8/18/2022 8:15:00 AM 16.9 62.42 0.104 7.09 7.25 9.44
8/18/2022 8:30:00 AM 16.9 62.42 0.105 7.1 7.1 9.51
8/18/2022 8:45:00 AM 16.92 62.456 0.106 7.13 6.85 9.58
8/18/2022 9:00:00 AM 16.98 62.564 0.106 7.18 6.85 9.66
8/18/2022 9:15:00 AM 17.03 62.654 0.107 7.21 6.56 9.68
8/18/2022 9:30:00 AM 17.06 62.708 0.107 7.24 6.39 9.72
8/18/2022 9:45:00 AM 17.04 62.672 0.108 7.26 6.34 9.75
8/18/2022 10:00:00 AM 17.12 62.816 0.109 7.27 6.23 9.76
8/18/2022 10:15:00 AM 17.18 62.924 0.109 7.28 6 9.74
8/18/2022 10:30:00 AM 17.25 63.05 0.11 7.3 5.94 9.73
8/18/2022 10:45:00 AM 17.34 63.212 0.111 7.3 5.68 9.73
8/18/2022 11:00:00 AM 17.46 63.428 0.111 7.34 5.57 9.73
8/18/2022 11:15:00 AM 17.62 63.716 0.112 7.36 5.44 9.74
8/18/2022 11:30:00 AM 17.8 64.04 0.113 7.39 5.36 9.74
8/18/2022 11:45:00 AM 18.01 64.418 0.113 7.41 5.2 9.74
8/18/2022 12:00:00 PM 18.23 64.814 0.114 7.43 5.22 9.73
8/18/2022 12:15:00 PM 18.5 65.3 0.115 7.45 5.17 9.73
8/18/2022 12:30:00 PM 18.78 65.804 0.115 7.48 4.93 9.75
8/18/2022 12:45:00 PM 18.89 66.002 0.115 7.51 5.05 9.73
8/18/2022 1:00:00 PM 18.92 66.056 0.116 7.51 5.13 9.67
8/18/2022 1:15:00 PM 18.98 66.164 0.116 7.5 4.93 9.63
8/18/2022 1:30:00 PM 19.38 66.884 0.116 7.52 4.83 9.67
8/18/2022 1:45:00 PM 19.72 67.496 0.117 7.57 4.7 9.69
8/18/2022 2:00:00 PM 19.77 67.586 0.117 7.59 4.72 9.65
8/18/2022 2:15:00 PM 19.96 67.92799 0.117 7.61 4.56 9.64
8/18/2022 2:30:00 PM 20.21 68.378 0.117 7.63 4.7 9.62
8/18/2022 2:45:00 PM 20.28 68.504 0.118 7.64 4.68 9.56
8/18/2022 3:00:00 PM 20.34 68.612 0.118 7.65 4.67 9.58
8/18/2022 3:15:00 PM 20.67 69.206 0.118 7.67 4.55 9.58
8/18/2022 3:30:00 PM 21.01 69.818 0.118 7.68 4.51 9.52
8/18/2022 3:45:00 PM 21.15 70.07 0.118 7.7 4.36 9.48
8/18/2022 4:00:00 PM 21.33 70.394 0.119 7.71 4.41 9.45
8/18/2022 4:15:00 PM 21.46 70.628 0.119 7.71 4.32 9.4
8/18/2022 4:30:00 PM 21.53 70.754 0.119 7.69 4.06 9.33
8/18/2022 4:45:00 PM 21.53 70.754 0.12 7.66 4.13 9.26
8/18/2022 5:00:00 PM 21.6 70.88 0.12 7.65 4.15 9.21
8/18/2022 5:15:00 PM 21.68 71.024 0.12 7.64 4.08 9.18
8/18/2022 5:30:00 PM 21.69 71.042 0.121 7.61 4.01 9.08
8/18/2022 5:45:00 PM 21.64 70.952 0.121 7.55 4.01 8.95
8/18/2022 6:00:00 PM 21.61 70.898 0.122 7.5 3.99 8.87
8/18/2022 6:15:00 PM 21.62 70.916 0.122 7.48 4.04 8.86
8/18/2022 6:30:00 PM 21.65 70.97 0.122 7.47 3.96 8.85
8/18/2022 6:45:00 PM 21.65 70.97 0.122 7.45 3.98 8.79
8/18/2022 7:00:00 PM 21.58 70.844 0.123 7.41 3.92 8.7
8/18/2022 7:15:00 PM 21.49 70.682 0.123 7.39 3.95 8.62
8/18/2022 7:30:00 PM 21.39 70.502 0.124 7.35 3.99 8.56
8/18/2022 7:45:00 PM 21.3 70.34 0.124 7.32 3.78 8.52
8/18/2022 8:00:00 PM 21.2 70.16 0.124 7.29 3.91 8.49
8/18/2022 8:15:00 PM 21.08 69.944 0.125 7.26 3.99 8.46
8/18/2022 8:30:00 PM 20.97 69.746 0.125 7.24 4.09 8.44
8/18/2022 8:45:00 PM 20.85 69.53 0.125 7.22 4.32 8.43
8/18/2022 9:00:00 PM 20.73 69.314 0.125 7.18 4.54 8.42
8/18/2022 9:15:00 PM 20.61 69.098 0.125 7.16 4.63 8.42
8/18/2022 9:30:00 PM 20.51 68.918 0.125 7.14 4.59 8.43
8/18/2022 9:45:00 PM 20.41 68.738 0.125 7.13 4.5 8.44
8/18/2022 10:00:00 PM 20.3 68.54 0.125 7.11 4.69 8.45
8/18/2022 10:15:00 PM 20.18 68.324 0.125 7.1 4.65 8.47
8/18/2022 10:30:00 PM 20.07 68.126 0.125 7.1 4.56 8.48
8/18/2022 10:45:00 PM 19.97 67.946 0.125 7.09 4.45 8.5
8/18/2022 11:00:00 PM 19.86 67.748 0.125 7.08 4.31 8.52
8/18/2022 11:15:00 PM 19.76 67.568 0.125 7.07 4.39 8.53
8/18/2022 11:30:00 PM 19.67 67.406 0.125 7.06 4.38 8.55
8/18/2022 11:45:00 PM 19.58 67.244 0.125 7.05 4.41 8.57
8/19/2022 12:00:00 AM 19.51 67.118 0.125 7.04 4.33 8.58
8/19/2022 12:15:00 AM 19.44 66.992 0.125 7.02 4.26 8.59
8/19/2022 12:30:00 AM 19.39 66.902 0.125 7.01 4.32 8.61
8/19/2022 12:45:00 AM 19.33 66.794 0.124 7 4.17 8.62
8/19/2022 1:00:00 AM 19.28 66.704 0.124 6.98 4.1 8.64
8/19/2022 1:15:00 AM 19.22 66.596 0.124 6.98 4.16 8.65
8/19/2022 1:30:00 AM 19.17 66.506 0.123 6.98 4.15 8.66
8/19/2022 1:45:00 AM 19.12 66.416 0.123 6.99 4.09 8.67
8/19/2022 2:00:00 AM 19.07 66.326 0.123 7.01 4.06 8.68
8/19/2022 2:15:00 AM 19.02 66.236 0.123 7.01 4.05 8.7
8/19/2022 2:30:00 AM 18.96 66.128 0.122 7.02 4.04 8.71
8/19/2022 2:45:00 AM 18.91 66.038 0.122 7.02 4.1 8.72
8/19/2022 3:00:00 AM 18.86 65.948 0.122 7.03 4.04 8.73
8/19/2022 3:15:00 AM 18.81 65.858 0.121 7.02 4.08 8.74
8/19/2022 3:30:00 AM 18.76 65.768 0.121 7.03 3.99 8.75
8/19/2022 3:45:00 AM 18.72 65.696 0.121 7.03 4.18 8.76
8/19/2022 4:00:00 AM 18.67 65.606 0.12 7.04 4.21 8.77
8/19/2022 4:15:00 AM 18.63 65.534 0.12 7.04 4 8.78
8/19/2022 4:30:00 AM 18.58 65.444 0.12 7.04 4.08 8.79
8/19/2022 4:45:00 AM 18.53 65.354 0.12 7.04 4.13 8.8
8/19/2022 5:00:00 AM 18.48 65.264 0.119 7.04 4.05 8.81
8/19/2022 5:15:00 AM 18.44 65.192 0.119 7.05 4.11 8.82
8/19/2022 5:30:00 AM 18.39 65.102 0.119 7.05 4.07 8.83
8/19/2022 5:45:00 AM 18.35 65.03 0.119 7.05 3.98 8.84
8/19/2022 6:00:00 AM 18.3 64.94 0.118 7.05 4.09 8.86
8/19/2022 6:15:00 AM 18.26 64.868 0.118 7.05 4.03 8.86
8/19/2022 6:30:00 AM 18.21 64.778 0.118 7.04 4.05 8.87
8/19/2022 6:45:00 AM 18.17 64.706 0.118 7.04 4.44 8.89
8/19/2022 7:00:00 AM 18.13 64.634 0.118 7.05 3.95 8.92
8/19/2022 7:15:00 AM 18.1 64.58 0.117 7.06 3.72 8.96
8/19/2022 7:30:00 AM 18.07 64.526 0.117 7.07 3.64 9.01
8/19/2022 7:45:00 AM 18.04 64.472 0.117 7.08 3.63 9.06
8/19/2022 8:00:00 AM 18.03 64.454 0.117 7.1 3.58 9.13
8/19/2022 8:15:00 AM 18.02 64.436 0.117 7.12 3.43 9.2
8/19/2022 8:30:00 AM 18.02 64.436 0.116 7.14 3.38 9.26
8/19/2022 8:45:00 AM 18.03 64.454 0.116 7.17 3.42 9.34
8/19/2022 9:00:00 AM 18.06 64.508 0.116 7.2 3.35 9.44
8/19/2022 9:15:00 AM 18.1 64.58 0.116 7.24 3.24 9.53
8/19/2022 9:30:00 AM 18.13 64.634 0.115 7.28 3.24 9.6
8/19/2022 9:45:00 AM 18.2 64.76 0.115 7.32 3.21 9.69
8/19/2022 10:00:00 AM 18.32 64.976 0.115 7.36 3.14 9.76
8/19/2022 10:15:00 AM 18.48 65.264 0.115 7.39 3.16 9.78
8/19/2022 10:30:00 AM 18.58 65.444 0.115 7.41 3.12 9.75
8/19/2022 10:45:00 AM 18.65 65.57 0.115 7.42 3.06 9.7
8/19/2022 11:00:00 AM 18.76 65.768 0.114 7.42 3.07 9.69
8/19/2022 11:15:00 AM 18.91 66.038 0.114 7.44 2.98 9.68
8/19/2022 11:30:00 AM 19.11 66.398 0.114 7.46 3.03 9.68
8/19/2022 11:45:00 AM 19.3 66.74 0.114 7.48 3.18 9.67
8/19/2022 12:00:00 PM 19.5 67.1 0.114 7.49 3.02 9.66
8/19/2022 12:15:00 PM 19.72 67.496 0.114 7.51 3.01 9.64
8/19/2022 12:30:00 PM 19.93 67.874 0.114 7.53 2.89 9.63
8/19/2022 12:45:00 PM 20.17 68.306 0.114 7.55 2.92 9.62
8/19/2022 1:00:00 PM 20.4 68.72 0.114 7.57 2.89 9.61
8/19/2022 1:15:00 PM 20.64 69.152 0.113 7.59 2.82 9.59
8/19/2022 1:30:00 PM 20.83 69.494 0.113 7.62 2.81 9.57
8/19/2022 1:45:00 PM 20.99 69.782 0.113 7.63 2.89 9.53
8/19/2022 2:00:00 PM 21.25 70.25 0.113 7.66 2.76 9.53
8/19/2022 2:15:00 PM 21.53 70.754 0.113 7.68 2.79 9.49
8/19/2022 2:30:00 PM 21.79 71.222 0.113 7.72 2.83 9.47
8/19/2022 2:45:00 PM 21.99 71.582 0.113 7.73 2.83 9.42
8/19/2022 3:00:00 PM 22.35 72.23 0.113 7.74 2.79 9.42
8/19/2022 3:15:00 PM 22.39 72.302 0.113 7.71 2.82 9.29
8/19/2022 3:30:00 PM 22.4 72.32 0.113 7.69 2.73 9.19
8/19/2022 3:45:00 PM 22.36 72.248 0.113 7.67 2.71 9.18
8/19/2022 4:00:00 PM 22.4 72.32 0.113 7.68 2.74 9.19
8/19/2022 4:15:00 PM 22.73 72.914 0.113 7.71 2.71 9.23
8/19/2022 4:30:00 PM 22.96 73.328 0.113 7.74 2.77 9.21
8/19/2022 4:45:00 PM 23.02 73.436 0.113 7.75 2.62 9.17
8/19/2022 5:00:00 PM 23.13 73.634 0.113 7.75 2.68 9.12
8/19/2022 5:15:00 PM 23.24 73.832 0.113 7.75 2.65 9.04
8/19/2022 5:30:00 PM 23.32 73.976 0.113 7.72 2.67 8.97
8/19/2022 5:45:00 PM 23.36 74.048 0.113 7.69 2.69 8.91
8/19/2022 6:00:00 PM 23.31 73.958 0.113 7.64 2.71 8.81
8/19/2022 6:15:00 PM 23.2 73.76 0.114 7.59 2.63 8.71
8/19/2022 6:30:00 PM 23.15 73.67 0.114 7.54 2.61 8.66
8/19/2022 6:45:00 PM 23.07 73.526 0.114 7.49 2.72 8.58
8/19/2022 7:00:00 PM 22.98 73.364 0.114 7.44 2.69 8.49
8/19/2022 7:15:00 PM 22.88 73.184 0.114 7.38 2.58 8.4
8/19/2022 7:30:00 PM 22.78 73.004 0.115 7.34 2.64 8.32
8/19/2022 7:45:00 PM 22.68 72.824 0.115 7.3 2.63 8.26
8/19/2022 8:00:00 PM 22.58 72.644 0.115 7.26 2.61 8.2
8/19/2022 8:15:00 PM 22.49 72.482 0.116 7.23 2.67 8.15
8/19/2022 8:30:00 PM 22.4 72.32 0.116 7.2 2.68 8.11
8/19/2022 8:45:00 PM 22.31 72.158 0.116 7.18 2.86 8.08
8/19/2022 9:00:00 PM 22.22 71.996 0.116 7.16 2.92 8.07
8/19/2022 9:15:00 PM 22.13 71.834 0.117 7.14 2.91 8.06
8/19/2022 9:30:00 PM 22.03 71.654 0.117 7.13 2.87 8.07
8/19/2022 9:45:00 PM 21.93 71.474 0.117 7.12 2.92 8.08
8/19/2022 10:00:00 PM 21.82 71.276 0.117 7.11 2.98 8.09
8/19/2022 10:15:00 PM 21.69 71.042 0.118 7.1 2.89 8.11
8/19/2022 10:30:00 PM 21.57 70.826 0.118 7.09 2.9 8.13
8/19/2022 10:45:00 PM 21.44 70.592 0.118 7.08 2.98 8.15
8/19/2022 11:00:00 PM 21.31 70.358 0.118 7.06 2.98 8.17
8/19/2022 11:15:00 PM 21.19 70.142 0.119 7.06 2.93 8.19
8/19/2022 11:30:00 PM 21.06 69.908 0.119 7.05 2.9 8.22
8/19/2022 11:45:00 PM 20.94 69.692 0.119 7.04 2.95 8.24
8/20/2022 12:00:00 AM 20.82 69.476 0.119 7.03 2.91 8.26
8/20/2022 12:15:00 AM 20.7 69.26 0.119 7.02 3.04 8.29
8/20/2022 12:30:00 AM 20.6 69.08 0.12 7 3.01 8.31
8/20/2022 12:45:00 AM 20.5 68.9 0.12 6.98 2.84 8.33
8/20/2022 1:00:00 AM 20.41 68.738 0.12 6.95 2.98 8.35
8/20/2022 1:15:00 AM 20.33 68.594 0.12 6.94 2.91 8.37
8/20/2022 1:30:00 AM 20.25 68.45 0.12 6.95 2.95 8.39
8/20/2022 1:45:00 AM 20.18 68.324 0.12 6.96 2.87 8.4
8/20/2022 2:00:00 AM 20.12 68.216 0.12 6.97 2.86 8.42
8/20/2022 2:15:00 AM 20.06 68.108 0.121 6.98 2.84 8.43
8/20/2022 2:30:00 AM 20 68 0.121 6.99 2.85 8.44
8/20/2022 2:45:00 AM 19.93 67.874 0.121 7 2.84 8.46
8/20/2022 3:00:00 AM 19.88 67.784 0.121 6.99 2.86 8.47
8/20/2022 3:15:00 AM 19.82 67.676 0.121 7 2.79 8.48
8/20/2022 3:30:00 AM 19.78 67.604 0.121 7 2.88 8.49
8/20/2022 3:45:00 AM 19.73 67.514 0.121 7.01 2.88 8.5
8/20/2022 4:00:00 AM 19.68 67.424 0.122 7.02 2.86 8.52
8/20/2022 4:15:00 AM 19.64 67.352 0.122 7.02 2.89 8.52
8/20/2022 4:30:00 AM 19.59 67.262 0.122 7.02 2.86 8.54
8/20/2022 4:45:00 AM 19.53 67.154 0.122 7.03 2.84 8.55
8/20/2022 5:00:00 AM 19.48 67.064 0.122 7.03 2.88 8.56
8/20/2022 5:15:00 AM 19.44 66.992 0.123 7.03 2.79 8.57
8/20/2022 5:30:00 AM 19.39 66.902 0.123 7.03 2.85 8.58
8/20/2022 5:45:00 AM 19.35 66.83 0.123 7.03 2.85 8.59
8/20/2022 6:00:00 AM 19.3 66.74 0.123 7.03 2.96 8.6
8/20/2022 6:15:00 AM 19.25 66.65 0.123 7.03 2.84 8.61
8/20/2022 6:30:00 AM 19.2 66.56 0.123 7.03 2.82 8.62
8/20/2022 6:45:00 AM 19.15 66.47 0.123 7.03 2.81 8.64
8/20/2022 7:00:00 AM 19.11 66.398 0.123 7.03 2.97 8.67
8/20/2022 7:15:00 AM 19.07 66.326 0.124 7.03 2.81 8.7
8/20/2022 7:30:00 AM 19.04 66.272 0.124 7.04 2.67 8.75
8/20/2022 7:45:00 AM 19.01 66.218 0.124 7.06 2.65 8.81
8/20/2022 8:00:00 AM 19.01 66.218 0.124 7.08 2.58 8.9
8/20/2022 8:15:00 AM 19.01 66.218 0.124 7.1 2.66 9
8/20/2022 8:30:00 AM 19.02 66.236 0.124 7.12 2.56 9.11
8/20/2022 8:45:00 AM 19.06 66.308 0.123 7.16 2.52 9.24
8/20/2022 9:00:00 AM 19.12 66.416 0.123 7.21 2.47 9.38
8/20/2022 9:15:00 AM 19.21 66.578 0.123 7.26 2.49 9.47
8/20/2022 9:30:00 AM 19.36 66.848 0.123 7.3 2.47 9.52
8/20/2022 9:45:00 AM 19.47 67.046 0.123 7.35 2.47 9.53
8/20/2022 10:00:00 AM 19.55 67.19 0.123 7.38 2.42 9.53
8/20/2022 10:15:00 AM 19.62 67.316 0.123 7.41 2.45 9.58
8/20/2022 10:30:00 AM 19.68 67.424 0.123 7.44 2.37 9.66
8/20/2022 10:45:00 AM 19.75 67.55 0.123 7.48 2.36 9.74
8/20/2022 11:00:00 AM 19.89 67.802 0.123 7.53 2.32 9.81
8/20/2022 11:15:00 AM 20.04 68.07201 0.123 7.57 2.36 9.84
8/20/2022 11:30:00 AM 20.17 68.306 0.123 7.62 2.33 9.84
8/20/2022 11:45:00 AM 20.45 68.81 0.123 7.65 2.3 9.82
8/20/2022 12:00:00 PM 20.78 69.404 0.123 7.68 2.27 9.8
8/20/2022 12:15:00 PM 21.08 69.944 0.123 7.72 2.28 9.79
8/20/2022 12:30:00 PM 21.31 70.358 0.123 7.74 2.23 9.74
8/20/2022 12:45:00 PM 21.51 70.718 0.123 7.75 2.22 9.71
8/20/2022 1:00:00 PM 21.72 71.096 0.123 7.77 2.16 9.68
8/20/2022 1:15:00 PM 21.96 71.528 0.123 7.79 2.18 9.66
8/20/2022 1:30:00 PM 22.04 71.672 0.123 7.8 2.18 9.59
8/20/2022 1:45:00 PM 21.97 71.546 0.122 7.8 2.18 9.53
8/20/2022 2:00:00 PM 21.96 71.528 0.122 7.8 2.16 9.52
8/20/2022 2:15:00 PM 22.02 71.636 0.122 7.81 2.13 9.52
8/20/2022 2:30:00 PM 22.03 71.654 0.122 7.81 2.22 9.46
8/20/2022 2:45:00 PM 22.05 71.69 0.122 7.81 2.14 9.42
8/20/2022 3:00:00 PM 22.21 71.978 0.122 7.83 2.24 9.46
8/20/2022 3:15:00 PM 22.36 72.248 0.122 7.87 2.1 9.5
8/20/2022 3:30:00 PM 22.61 72.698 0.121 7.94 2.14 9.53
8/20/2022 3:45:00 PM 22.84 73.112 0.121 7.99 2.13 9.51
8/20/2022 4:00:00 PM 23.18 73.724 0.121 8.03 2.14 9.48
8/20/2022 4:15:00 PM 23.44 74.192 0.121 8.07 2.18 9.43
8/20/2022 4:30:00 PM 23.51 74.318 0.121 8.03 2.12 9.28
8/20/2022 4:45:00 PM 23.56 74.408 0.122 7.93 2.2 9.03
8/20/2022 5:00:00 PM 23.63 74.534 0.122 7.89 2.19 9.01
8/20/2022 5:15:00 PM 23.55 74.39 0.122 7.84 2.25 8.98
8/20/2022 5:30:00 PM 23.55 74.39 0.122 7.82 2.13 8.99
8/20/2022 5:45:00 PM 23.68 74.624 0.122 7.82 2.21 8.97
8/20/2022 6:00:00 PM 23.76 74.768 0.122 7.8 2.25 8.88
8/20/2022 6:15:00 PM 23.74 74.732 0.122 7.75 2.2 8.77
8/20/2022 6:30:00 PM 23.66 74.588 0.122 7.68 2.23 8.67
8/20/2022 6:45:00 PM 23.56 74.408 0.122 7.6 2.22 8.55
8/20/2022 7:00:00 PM 23.47 74.246 0.123 7.52 2.22 8.45
8/20/2022 7:15:00 PM 23.37 74.066 0.123 7.46 2.25 8.36
8/20/2022 7:30:00 PM 23.28 73.904 0.123 7.41 2.29 8.28
8/20/2022 7:45:00 PM 23.2 73.76 0.124 7.35 2.26 8.19
8/20/2022 8:00:00 PM 23.12 73.616 0.124 7.3 2.26 8.1
8/20/2022 8:15:00 PM 23.03 73.454 0.124 7.27 2.29 8.02
8/20/2022 8:30:00 PM 22.95 73.31 0.124 7.23 2.33 7.97
8/20/2022 8:45:00 PM 22.85 73.13 0.125 7.2 2.44 7.93
8/20/2022 9:00:00 PM 22.75 72.95 0.125 7.18 2.42 7.91
8/20/2022 9:15:00 PM 22.65 72.77 0.125 7.16 2.51 7.9
8/20/2022 9:30:00 PM 22.57 72.626 0.125 7.14 2.51 7.89
8/20/2022 9:45:00 PM 22.48 72.464 0.125 7.13 2.58 7.9
8/20/2022 10:00:00 PM 22.41 72.338 0.125 7.11 2.55 7.9
8/20/2022 10:15:00 PM 22.34 72.212 0.126 7.1 2.5 7.91
8/20/2022 10:30:00 PM 22.27 72.086 0.126 7.09 2.44 7.92
8/20/2022 10:45:00 PM 22.2 71.96 0.126 7.08 2.4 7.93
8/20/2022 11:00:00 PM 22.13 71.834 0.126 7.07 2.49 7.93
8/20/2022 11:15:00 PM 22.05 71.69 0.126 7.07 2.58 7.95
8/20/2022 11:30:00 PM 21.98 71.564 0.126 7.06 2.49 7.96
8/20/2022 11:45:00 PM 21.89 71.402 0.127 7.05 2.45 7.97
8/21/2022 12:00:00 AM 21.81 71.258 0.127 7.05 2.5 7.98
8/21/2022 12:15:00 AM 21.72 71.096 0.127 7.04 2.49 8
8/21/2022 12:30:00 AM 21.62 70.916 0.127 7.04 2.47 8.02
8/21/2022 12:45:00 AM 21.53 70.754 0.127 7.03 2.47 8.04
8/21/2022 1:00:00 AM 21.44 70.592 0.128 7.03 2.57 8.05
8/21/2022 1:15:00 AM 21.36 70.448 0.128 7.03 2.52 8.07
8/21/2022 1:30:00 AM 21.28 70.304 0.128 7.02 2.53 8.09
8/21/2022 1:45:00 AM 21.2 70.16 0.128 7.01 2.52 8.1
8/21/2022 2:00:00 AM 21.12 70.016 0.128 7.01 2.7 8.11
8/21/2022 2:15:00 AM 21.05 69.89 0.128 6.99 2.63 8.13
8/21/2022 2:30:00 AM 20.98 69.764 0.128 6.98 2.56 8.15
8/21/2022 2:45:00 AM 20.92 69.656 0.128 6.98 2.61 8.16
8/21/2022 3:00:00 AM 20.87 69.566 0.128 6.98 2.56 8.17
8/21/2022 3:15:00 AM 20.75 69.35 0.126 6.99 3.87 8.26
8/21/2022 3:30:00 AM 20.71 69.278 0.126 6.96 3.86 8.24
8/21/2022 3:45:00 AM 20.67 69.206 0.126 6.95 3.23 8.23
8/21/2022 4:00:00 AM 20.62 69.116 0.125 6.96 3.06 8.23
8/21/2022 4:15:00 AM 20.58 69.044 0.126 6.97 2.87 8.22
8/21/2022 4:30:00 AM 20.54 68.972 0.126 6.99 2.91 8.22
8/21/2022 4:45:00 AM 20.51 68.918 0.127 7 2.86 8.24
8/21/2022 5:00:00 AM 20.47 68.846 0.127 7.01 2.9 8.25
8/21/2022 5:15:00 AM 20.43 68.774 0.127 7.01 2.79 8.26
8/21/2022 5:30:00 AM 20.39 68.702 0.127 7.01 2.61 8.27
8/21/2022 5:45:00 AM 20.35 68.63 0.127 7.02 2.6 8.27
8/21/2022 6:00:00 AM 20.31 68.558 0.127 7.02 2.62 8.28
8/21/2022 6:15:00 AM 20.27 68.486 0.127 7.02 2.69 8.29
8/21/2022 6:30:00 AM 20.24 68.432 0.127 7.03 2.7 8.3
8/21/2022 6:45:00 AM 20.2 68.36 0.127 7.03 2.66 8.32
8/21/2022 7:00:00 AM 20.17 68.306 0.127 7.03 2.64 8.35
8/21/2022 7:15:00 AM 20.13 68.234 0.127 7.04 2.49 8.4
8/21/2022 7:30:00 AM 20.11 68.198 0.127 7.05 2.45 8.46
8/21/2022 7:45:00 AM 20.08 68.144 0.127 7.06 2.54 8.52
8/21/2022 8:00:00 AM 20.07 68.126 0.127 7.08 2.44 8.59
8/21/2022 8:15:00 AM 20.08 68.144 0.127 7.11 2.44 8.71
8/21/2022 8:30:00 AM 20.1 68.18 0.126 7.13 2.36 8.82
8/21/2022 8:45:00 AM 20.14 68.252 0.126 7.17 2.46 8.93
8/21/2022 9:00:00 AM 20.24 68.432 0.126 7.2 2.41 9.05
8/21/2022 9:15:00 AM 20.41 68.738 0.126 7.25 2.43 9.16
8/21/2022 9:30:00 AM 20.54 68.972 0.126 7.3 2.36 9.26
8/21/2022 9:45:00 AM 20.65 69.17 0.126 7.36 2.29 9.36
8/21/2022 10:00:00 AM 20.79 69.422 0.126 7.41 2.33 9.46
8/21/2022 10:30:00 AM 21.03 69.854 0.125 7.51 2.27 9.6
8/21/2022 10:45:00 AM 21.18 70.124 0.125 7.56 2.32 9.65
8/21/2022 11:00:00 AM 21.24 70.232 0.125 7.61 2.3 9.67
8/21/2022 11:15:00 AM 21.26 70.268 0.125 7.64 2.28 9.64
8/21/2022 11:30:00 AM 21.27 70.286 0.125 7.64 2.21 9.6
8/21/2022 11:45:00 AM 21.25 70.25 0.125 7.63 2.22 9.53
8/21/2022 12:00:00 PM 21.25 70.25 0.125 7.63 2.14 9.5
8/21/2022 12:15:00 PM 21.21 70.17799 0.125 7.59 2.24 9.39
8/21/2022 12:30:00 PM 21.14 70.052 0.125 7.54 2.22 9.21
8/21/2022 12:45:00 PM 21.07 69.926 0.125 7.46 2.27 9.06
8/21/2022 1:00:00 PM 20.99 69.782 0.124 7.39 2.32 8.94
8/21/2022 1:15:00 PM 20.93 69.674 0.124 7.34 2.34 8.94
8/21/2022 1:30:00 PM 20.94 69.692 0.123 7.35 2.28 9.07
8/21/2022 1:45:00 PM 21.04 69.872 0.123 7.4 2.13 9.26
8/21/2022 2:00:00 PM 21.13 70.034 0.122 7.46 2.31 9.42
8/21/2022 2:15:00 PM 21.36 70.448 0.122 7.55 2.31 9.57
8/21/2022 2:30:00 PM 21.61 70.898 0.122 7.65 2.32 9.62
8/21/2022 2:45:00 PM 21.87 71.366 0.122 7.74 2.31 9.65
8/21/2022 3:00:00 PM 22.22 71.996 0.122 7.82 2.27 9.64
8/21/2022 3:15:00 PM 22.49 72.482 0.122 7.87 2.34 9.58
8/21/2022 3:30:00 PM 22.71 72.878 0.122 7.9 2.49 9.52
8/21/2022 3:45:00 PM 22.87 73.166 0.122 7.91 2.38 9.47
8/21/2022 4:00:00 PM 23.06 73.508 0.122 7.94 2.56 9.43
8/21/2022 4:15:00 PM 23.19 73.742 0.122 7.97 2.36 9.43
8/21/2022 4:30:00 PM 23.12 73.616 0.122 7.98 2.3 9.4
8/21/2022 4:45:00 PM 23.18 73.724 0.122 7.96 2.09 9.34
8/21/2022 5:00:00 PM 23.21 73.778 0.122 7.9 2.12 9.21
8/21/2022 5:15:00 PM 23.13 73.634 0.122 7.82 2.13 8.97
8/21/2022 5:30:00 PM 23.02 73.436 0.122 7.75 2.16 8.86
8/21/2022 5:45:00 PM 22.81 73.058 0.123 7.65 2.09 8.71
8/21/2022 6:00:00 PM 22.62 72.716 0.122 7.58 2.11 8.59
8/21/2022 6:15:00 PM 22.47 72.446 0.122 7.48 2.28 8.45
8/21/2022 6:30:00 PM 22.35 72.23 0.121 7.39 2.39 8.34
8/21/2022 6:45:00 PM 22.24 72.032 0.119 7.3 2.49 8.27
8/21/2022 7:00:00 PM 22.16 71.888 0.118 7.23 2.72 8.21
8/21/2022 7:15:00 PM 22.1 71.78 0.118 7.18 2.8 8.16
8/21/2022 7:30:00 PM 22.07 71.726 0.118 7.15 3.03 8.13
8/21/2022 7:45:00 PM 22.02 71.636 0.118 7.13 3.16 8.1
8/21/2022 8:00:00 PM 21.98 71.564 0.119 7.11 3.42 8.07
8/21/2022 8:15:00 PM 21.94 71.492 0.118 7.09 4.04 8.07
8/21/2022 8:30:00 PM 21.9 71.42 0.118 7.08 4.49 8.04
8/21/2022 8:45:00 PM 21.88 71.384 0.118 7.06 4.6 8.03
8/21/2022 9:00:00 PM 21.86 71.348 0.118 7.04 4.64 8.01
8/21/2022 9:15:00 PM 21.84 71.312 0.118 7.04 4.4 8.01
8/21/2022 9:30:00 PM 21.81 71.258 0.118 7.05 4 8.02
8/21/2022 9:45:00 PM 21.77 71.186 0.118 7.04 3.85 8.03
8/21/2022 10:00:00 PM 21.72 71.096 0.118 7.05 4.15 8.05
8/21/2022 10:15:00 PM 21.68 71.024 0.118 7.05 4.57 8.07
8/21/2022 10:30:00 PM 21.64 70.952 0.118 7.06 4.45 8.1
8/21/2022 10:45:00 PM 21.64 70.952 0.119 7.12 23.48 8.16
8/21/2022 11:00:00 PM 21.49 70.682 0.118 6.97 23.49 8.17
8/21/2022 11:15:00 PM 21.43 70.574 0.116 7.08 20.13 8.24
8/21/2022 11:30:00 PM 21.39 70.502 0.116 7.08 18.95 8.26
8/21/2022 11:45:00 PM 21.34 70.412 0.115 7.1 38.37 8.28
8/22/2022 12:00:00 AM 21.18 70.124 0.111 6.9 79.99 8.29
8/22/2022 12:15:00 AM 20.95 69.71 0.105 6.73 95.25 8.3
8/22/2022 12:30:00 AM 20.68 69.224 0.101 6.68 103.04 8.34
8/22/2022 12:45:00 AM 20.41 68.738 0.098 6.66 102.45 8.39
8/22/2022 1:00:00 AM 20.2 68.36 0.098 6.65 96.54 8.44
8/22/2022 1:15:00 AM 20.11 68.198 0.099 6.63 88.46 8.47
8/22/2022 1:30:00 AM 20.07 68.126 0.097 6.63 83.14 8.49
8/22/2022 1:45:00 AM 20.02 68.036 0.094 6.64 79.12 8.51
8/22/2022 2:00:00 AM 19.94 67.892 0.089 6.68 76.16 8.53
8/22/2022 2:15:00 AM 19.83 67.694 0.085 6.67 72.07 8.56
8/22/2022 2:30:00 AM 19.73 67.514 0.083 6.65 72.14 8.59
8/22/2022 2:45:00 AM 19.62 67.316 0.081 6.64 65.13 8.62
8/22/2022 3:00:00 AM 19.53 67.154 0.079 6.61 61.41 8.65
8/22/2022 3:15:00 AM 19.44 66.992 0.078 6.64 59.21 8.67
8/22/2022 3:30:00 AM 19.35 66.83 0.077 6.62 56.11 8.69
8/22/2022 3:45:00 AM 19.27 66.686 0.076 6.57 54.32 8.72
8/22/2022 4:00:00 AM 19.2 66.56 0.076 6.61 52.45 8.73
8/22/2022 4:15:00 AM 19.13 66.434 0.077 6.63 49.64 8.75
8/22/2022 4:30:00 AM 19.07 66.326 0.078 6.64 48.55 8.76
8/22/2022 4:45:00 AM 19.02 66.236 0.079 6.65 46.34 8.78
8/22/2022 5:00:00 AM 18.98 66.164 0.081 6.82 46.22 8.79
8/22/2022 5:15:00 AM 18.94 66.092 0.082 6.86 45.37 8.8
8/22/2022 5:30:00 AM 18.9 66.02 0.084 6.88 46.73 8.81
8/22/2022 5:45:00 AM 18.86 65.948 0.086 6.89 47.29 8.82
8/22/2022 6:00:00 AM 18.83 65.894 0.087 6.91 49.4 8.82
8/22/2022 6:15:00 AM 18.8 65.84 0.089 6.83 50.09 8.83
8/22/2022 6:30:00 AM 18.77 65.786 0.09 6.87 52.33 8.84
8/22/2022 6:45:00 AM 18.75 65.75 0.09 6.92 52.66 8.85
8/22/2022 7:00:00 AM 18.72 65.696 0.09 6.95 60.3 8.85
8/22/2022 7:15:00 AM 18.71 65.67799 0.09 6.96 53.72 8.86
8/22/2022 7:30:00 AM 18.69 65.642 0.09 6.96 54.65 8.87
8/22/2022 7:45:00 AM 18.69 65.642 0.09 6.97 52.62 8.88
8/22/2022 8:00:00 AM 18.69 65.642 0.09 6.97 53.84 8.89
8/22/2022 8:15:00 AM 18.69 65.642 0.09 6.98 50.32 8.9
8/22/2022 8:30:00 AM 18.7 65.66 0.09 7 47.61 8.92
8/22/2022 8:45:00 AM 18.71 65.67799 0.09 7.01 46.64 8.93
8/22/2022 9:00:00 AM 18.72 65.696 0.09 7.03 45.19 8.95
8/22/2022 9:15:00 AM 18.75 65.75 0.09 7.04 42.95 8.98
8/22/2022 9:30:00 AM 18.78 65.804 0.09 7.05 39.98 8.99
8/22/2022 9:45:00 AM 18.81 65.858 0.091 7.07 38.84 9.01
8/22/2022 10:00:00 AM 18.82 65.876 0.091 7.08 36.18 9.03
8/22/2022 10:15:00 AM 18.84 65.912 0.091 7.09 35.18 9.04
8/22/2022 10:30:00 AM 18.86 65.948 0.092 7.1 34.65 9.05
8/22/2022 10:45:00 AM 18.89 66.002 0.092 7.12 32.03 9.07
8/22/2022 11:00:00 AM 18.91 66.038 0.093 7.13 31.5 9.09
8/22/2022 11:15:00 AM 18.94 66.092 0.093 7.14 29.88 9.11
8/22/2022 11:30:00 AM 18.96 66.128 0.094 7.14 28.18 9.12
8/22/2022 11:45:00 AM 19.07 66.326 0.095 7.16 27.71 9.18
8/22/2022 12:00:00 PM 19.11 66.398 0.095 7.19 26.31 9.21
8/22/2022 12:15:00 PM 19.18 66.524 0.096 7.21 25.69 9.24
8/22/2022 12:30:00 PM 19.26 66.668 0.096 7.23 23.98 9.28
8/22/2022 12:45:00 PM 19.36 66.848 0.097 7.25 24.07 9.31
8/22/2022 1:00:00 PM 19.39 66.902 0.097 7.27 22.69 9.28
8/22/2022 1:15:00 PM 19.56 67.208 0.098 7.29 23.25 9.32
8/22/2022 1:30:00 PM 19.68 67.424 0.098 7.32 21.74 9.34
8/22/2022 1:45:00 PM 19.83 67.694 0.099 7.34 20.68 9.35
8/22/2022 2:00:00 PM 19.92 67.856 0.099 7.37 19.59 9.37
8/22/2022 2:15:00 PM 20.11 68.198 0.099 7.39 18.75 9.38
8/22/2022 2:30:00 PM 20.24 68.432 0.099 7.42 18.91 9.38
8/22/2022 2:45:00 PM 20.43 68.774 0.1 7.45 18.24 9.36
8/22/2022 3:00:00 PM 20.72 69.296 0.1 7.47 18.23 9.36
8/22/2022 3:15:00 PM 20.88 69.584 0.1 7.48 17.63 9.33
8/22/2022 3:30:00 PM 20.92 69.656 0.1 7.48 16.48 9.3
8/22/2022 3:45:00 PM 20.95 69.71 0.1 7.45 16.83 9.26
8/22/2022 4:00:00 PM 20.99 69.782 0.1 7.43 16.27 9.2
8/22/2022 4:15:00 PM 20.99 69.782 0.1 7.38 15.66 9.09
8/22/2022 4:30:00 PM 21.08 69.944 0.1 7.36 15.67 9.13
8/22/2022 4:45:00 PM 21.22 70.196 0.1 7.38 14.95 9.16
8/22/2022 5:00:00 PM 21.24 70.232 0.1 7.36 14.94 9.1
8/22/2022 5:15:00 PM 21.27 70.286 0.1 7.35 14.86 9.07
8/22/2022 5:30:00 PM 21.3 70.34 0.1 7.34 14.07 9.05
8/22/2022 5:45:00 PM 21.26 70.268 0.1 7.31 13.94 8.95
8/22/2022 6:00:00 PM 21.2 70.16 0.1 7.25 13.67 8.82
8/22/2022 6:15:00 PM 21.16 70.088 0.1 7.21 13.34 8.76
8/22/2022 6:30:00 PM 21.14 70.052 0.1 7.18 12.91 8.71
8/22/2022 6:45:00 PM 21.11 69.998 0.1 7.17 12.52 8.66
8/22/2022 7:00:00 PM 21.04 69.872 0.099 7.14 12.76 8.62
8/22/2022 7:15:00 PM 20.96 69.728 0.099 7.11 12.38 8.59
8/22/2022 7:30:00 PM 20.91 69.638 0.1 7.09 12.44 8.56
8/22/2022 7:45:00 PM 20.86 69.548 0.1 7.1 12.23 8.54
8/22/2022 8:00:00 PM 20.81 69.458 0.1 7.1 12.19 8.53
8/22/2022 8:15:00 PM 20.75 69.35 0.1 7.1 11.81 8.53
8/22/2022 8:30:00 PM 20.69 69.242 0.1 7.08 11.92 8.52
8/22/2022 8:45:00 PM 20.64 69.152 0.1 7.07 11.99 8.52
8/22/2022 9:00:00 PM 20.58 69.044 0.1 7.06 11.77 8.52
8/22/2022 9:15:00 PM 20.52 68.936 0.1 7.06 11.52 8.52
8/22/2022 9:30:00 PM 20.46 68.828 0.1 7.06 11.61 8.53
8/22/2022 9:45:00 PM 20.4 68.72 0.1 7.06 11.52 8.53
8/22/2022 10:00:00 PM 20.34 68.612 0.1 7.04 11.59 8.54
8/22/2022 10:15:00 PM 20.28 68.504 0.101 7.04 11.15 8.55
8/22/2022 10:30:00 PM 20.22 68.396 0.101 7.03 11.09 8.57
8/22/2022 10:45:00 PM 20.16 68.288 0.101 7.02 11.15 8.57
8/22/2022 11:00:00 PM 20.1 68.18 0.101 7.02 10.76 8.59
8/22/2022 11:15:00 PM 20.04 68.07201 0.101 7 10.84 8.6
8/22/2022 11:30:00 PM 19.98 67.964 0.101 7.01 10.56 8.61
8/22/2022 11:45:00 PM 19.93 67.874 0.101 7.01 10.39 8.62
8/23/2022 12:00:00 AM 19.88 67.784 0.101 7.01 10.45 8.64
8/23/2022 12:15:00 AM 19.83 67.694 0.102 7 10.05 8.64
8/23/2022 12:30:00 AM 19.78 67.604 0.102 7.01 9.86 8.65
8/23/2022 12:45:00 AM 19.74 67.532 0.102 7.01 9.99 8.66
8/23/2022 1:00:00 AM 19.7 67.46 0.102 7.02 10.01 8.67
8/23/2022 1:15:00 AM 19.66 67.388 0.102 7.02 9.65 8.68
8/23/2022 1:30:00 AM 19.62 67.316 0.102 7.03 9.92 8.69
8/23/2022 1:45:00 AM 19.57 67.226 0.102 7.01 10.03 8.7
8/23/2022 2:00:00 AM 19.53 67.154 0.102 7 10.03 8.71
8/23/2022 2:15:00 AM 19.48 67.064 0.102 6.98 10.43 8.72
8/23/2022 2:30:00 AM 19.41 66.938 0.103 6.99 22.68 8.72
8/23/2022 2:45:00 AM 19.33 66.794 0.103 6.95 29.08 8.73
8/23/2022 3:00:00 AM 19.23 66.614 0.103 6.91 30.04 8.76
8/23/2022 3:15:00 AM 19.13 66.434 0.103 6.89 27.88 8.78
8/23/2022 3:30:00 AM 19.04 66.272 0.103 6.89 26.16 8.81
8/23/2022 3:45:00 AM 18.97 66.146 0.103 6.91 24.22 8.82
8/23/2022 4:00:00 AM 18.92 66.056 0.103 6.92 23.67 8.84
8/23/2022 4:15:00 AM 18.88 65.984 0.103 6.93 22.34 8.85
8/23/2022 4:30:00 AM 18.86 65.948 0.103 6.95 21.35 8.85
8/23/2022 4:45:00 AM 18.84 65.912 0.103 6.96 20.24 8.85
8/23/2022 5:00:00 AM 18.83 65.894 0.103 6.98 19.42 8.86
8/23/2022 5:15:00 AM 18.82 65.876 0.104 6.98 18.59 8.86
8/23/2022 5:30:00 AM 18.8 65.84 0.104 7 18.05 8.87
8/23/2022 5:45:00 AM 18.78 65.804 0.105 7 17.51 8.88
8/23/2022 6:00:00 AM 18.75 65.75 0.106 7.01 16.54 8.88
8/23/2022 6:15:00 AM 18.72 65.696 0.108 7.01 16.48 8.89
8/23/2022 6:30:00 AM 18.69 65.642 0.109 7.02 16.36 8.89
8/23/2022 6:45:00 AM 18.66 65.588 0.111 7.02 15.57 8.9
8/23/2022 7:00:00 AM 18.63 65.534 0.113 7.03 15.67 8.91
8/23/2022 7:15:00 AM 18.61 65.498 0.115 7.04 15.69 8.92
8/23/2022 7:30:00 AM 18.59 65.462 0.117 7.05 16.96 8.94
8/23/2022 7:45:00 AM 18.57 65.426 0.119 7.06 15.01 8.95
8/23/2022 8:00:00 AM 18.56 65.408 0.122 7.09 15.23 8.98
8/23/2022 8:15:00 AM 18.56 65.408 0.124 7.1 15.05 9.01
8/23/2022 8:30:00 AM 18.56 65.408 0.126 7.13 14.89 9.04
8/23/2022 8:45:00 AM 18.58 65.444 0.128 7.15 15.56 9.08
8/23/2022 9:00:00 AM 18.61 65.498 0.129 7.17 16.06 9.13
8/23/2022 9:15:00 AM 18.63 65.534 0.13 7.19 16.12 9.14
8/23/2022 9:30:00 AM 18.65 65.57 0.13 7.21 16.61 9.15
8/23/2022 9:45:00 AM 18.72 65.696 0.13 7.23 16.84 9.2
8/23/2022 10:00:00 AM 18.8 65.84 0.13 7.27 17.57 9.26
8/23/2022 10:15:00 AM 18.8 65.84 0.128 7.27 17.55 9.22
8/23/2022 10:30:00 AM 18.8 65.84 0.128 7.26 18.43 9.18
8/23/2022 10:45:00 AM 18.87 65.966 0.127 7.27 18.8 9.25
8/23/2022 11:00:00 AM 19.01 66.218 0.127 7.31 18.34 9.33
8/23/2022 11:15:00 AM 19 66.2 0.126 7.33 17.55 9.28
8/23/2022 11:30:00 AM 18.99 66.182 0.125 7.31 16.89 9.26
8/23/2022 11:45:00 AM 19.1 66.38 0.125 7.35 16.7 9.36
8/23/2022 12:00:00 PM 19.29 66.722 0.125 7.38 16.55 9.39
8/23/2022 12:15:00 PM 19.31 66.758 0.125 7.42 15.12 9.35
8/23/2022 12:30:00 PM 19.4 66.92 0.125 7.43 15.38 9.38
8/23/2022 12:45:00 PM 19.51 67.118 0.124 7.45 16.06 9.43
8/23/2022 1:00:00 PM 19.69 67.442 0.124 7.47 14.87 9.41
8/23/2022 1:15:00 PM 19.85 67.73 0.124 7.48 14.8 9.43
8/23/2022 1:30:00 PM 19.86 67.748 0.124 7.46 13.84 9.35
8/23/2022 1:45:00 PM 20.14 68.252 0.124 7.5 13.95 9.48
8/23/2022 2:00:00 PM 20.47 68.846 0.124 7.56 12.89 9.51
8/23/2022 2:15:00 PM 20.58 69.044 0.124 7.6 13.1 9.49
8/23/2022 2:30:00 PM 20.6 69.08 0.124 7.6 12.96 9.46
8/23/2022 2:45:00 PM 20.66 69.188 0.124 7.59 12.73 9.4
8/23/2022 3:00:00 PM 20.77 69.386 0.124 7.57 12.63 9.38
8/23/2022 3:15:00 PM 20.9 69.62 0.124 7.59 11.96 9.36
8/23/2022 3:30:00 PM 21.06 69.908 0.124 7.58 12.07 9.36
8/23/2022 3:45:00 PM 21.19 70.142 0.124 7.61 11.95 9.34
8/23/2022 4:00:00 PM 21.26 70.268 0.124 7.59 11.33 9.31
8/23/2022 4:15:00 PM 21.26 70.268 0.124 7.6 11.12 9.29
8/23/2022 4:30:00 PM 21.34 70.412 0.124 7.63 10.63 9.29
8/23/2022 4:45:00 PM 21.35 70.43 0.123 7.6 10.72 9.18
8/23/2022 5:00:00 PM 21.52 70.736 0.123 7.62 10.75 9.24
8/23/2022 5:15:00 PM 21.59 70.862 0.123 7.62 10.45 9.18
8/23/2022 5:30:00 PM 21.56 70.808 0.123 7.59 10.25 9.1
8/23/2022 5:45:00 PM 21.51 70.718 0.123 7.57 9.87 9.07
8/23/2022 6:00:00 PM 21.48 70.664 0.123 7.54 10.18 9.02
8/23/2022 6:15:00 PM 21.46 70.628 0.123 7.51 9.77 9
8/23/2022 6:30:00 PM 21.42 70.556 0.122 7.49 9.72 8.95
8/23/2022 6:45:00 PM 21.35 70.43 0.122 7.44 9.62 8.88
8/23/2022 7:00:00 PM 21.27 70.286 0.122 7.4 9.45 8.8
8/23/2022 7:15:00 PM 21.19 70.142 0.122 7.35 9.3 8.75
8/23/2022 7:30:00 PM 21.12 70.016 0.122 7.33 9.12 8.7
8/23/2022 7:45:00 PM 21.04 69.872 0.122 7.29 9.1 8.66
8/23/2022 8:00:00 PM 20.96 69.728 0.122 7.26 8.94 8.62
8/23/2022 8:15:00 PM 20.88 69.584 0.122 7.23 9.12 8.59
8/23/2022 8:30:00 PM 20.8 69.44 0.122 7.21 8.98 8.56
8/23/2022 8:45:00 PM 20.72 69.296 0.122 7.18 9.05 8.55
8/23/2022 9:00:00 PM 20.63 69.134 0.122 7.17 9.14 8.55
8/23/2022 9:15:00 PM 20.54 68.972 0.122 7.14 9.63 8.55
8/23/2022 9:30:00 PM 20.46 68.828 0.122 7.13 9.06 8.55
8/23/2022 9:45:00 PM 20.38 68.684 0.121 7.12 8.9 8.55
8/23/2022 10:00:00 PM 20.3 68.54 0.121 7.1 8.8 8.56
8/23/2022 10:15:00 PM 20.23 68.414 0.121 7.09 8.6 8.57
8/23/2022 10:30:00 PM 20.16 68.288 0.121 7.07 8.56 8.58
8/23/2022 10:45:00 PM 20.08 68.144 0.121 7.06 8.71 8.59
8/23/2022 11:00:00 PM 20.01 68.018 0.121 7.05 8.47 8.6
8/23/2022 11:15:00 PM 19.95 67.91 0.121 7.04 8.29 8.61
8/23/2022 11:30:00 PM 19.88 67.784 0.121 7.03 8.1 8.62
8/23/2022 11:45:00 PM 19.81 67.658 0.121 7.02 7.89 8.63
8/24/2022 12:00:00 AM 19.74 67.532 0.121 7.01 7.97 8.64
8/24/2022 12:15:00 AM 19.68 67.424 0.121 7 7.63 8.66
8/24/2022 12:30:00 AM 19.62 67.316 0.121 7 7.55 8.67
8/24/2022 12:45:00 AM 19.57 67.226 0.121 7.01 7.62 8.68
8/24/2022 1:00:00 AM 19.52 67.136 0.121 7 7.44 8.69
8/24/2022 1:15:00 AM 19.47 67.046 0.121 7 7.45 8.7
8/24/2022 1:30:00 AM 19.43 66.974 0.121 7.01 7.54 8.71
8/24/2022 1:45:00 AM 19.38 66.884 0.12 7.01 6.95 8.72
8/24/2022 2:00:00 AM 19.34 66.812 0.12 7.02 7.27 8.73
8/24/2022 2:15:00 AM 19.29 66.722 0.12 7.01 6.85 8.74
8/24/2022 2:30:00 AM 19.25 66.65 0.12 7.02 7.04 8.75
8/24/2022 2:45:00 AM 19.2 66.56 0.12 7.02 6.84 8.76
8/24/2022 3:00:00 AM 19.16 66.488 0.12 7.02 6.7 8.77
8/24/2022 3:15:00 AM 19.11 66.398 0.12 7.02 6.69 8.78
8/24/2022 3:30:00 AM 19.06 66.308 0.119 7.02 6.64 8.79
8/24/2022 3:45:00 AM 19.01 66.218 0.119 7.02 6.73 8.8
8/24/2022 4:00:00 AM 18.96 66.128 0.119 7.02 6.42 8.81
8/24/2022 4:15:00 AM 18.91 66.038 0.119 7.02 6.56 8.82
8/24/2022 4:30:00 AM 18.86 65.948 0.119 7.01 6.44 8.83
8/24/2022 4:45:00 AM 18.81 65.858 0.119 7.02 6.39 8.84
8/24/2022 5:00:00 AM 18.76 65.768 0.118 7.02 6.4 8.85
8/24/2022 5:15:00 AM 18.71 65.67799 0.118 7.02 6.23 8.86
8/24/2022 5:30:00 AM 18.66 65.588 0.118 7.02 6.08 8.87
8/24/2022 5:45:00 AM 18.61 65.498 0.118 7.02 6.06 8.88
8/24/2022 6:00:00 AM 18.56 65.408 0.118 7.02 6.3 8.9
8/24/2022 6:15:00 AM 18.5 65.3 0.118 7.01 6.04 8.91
8/24/2022 6:30:00 AM 18.45 65.21 0.118 7.02 6.13 8.92
8/24/2022 6:45:00 AM 18.4 65.12 0.117 7.02 6.02 8.94
8/24/2022 7:00:00 AM 18.35 65.03 0.117 7.01 5.83 8.96
8/24/2022 7:15:00 AM 18.31 64.958 0.117 7.02 5.73 9
8/24/2022 7:30:00 AM 18.27 64.886 0.117 7.03 5.57 9.03
8/24/2022 7:45:00 AM 18.24 64.832 0.117 7.04 5.41 9.07
8/24/2022 8:00:00 AM 18.21 64.778 0.117 7.05 5.27 9.11
8/24/2022 8:15:00 AM 18.2 64.76 0.116 7.06 5.23 9.18
8/24/2022 8:30:00 AM 18.19 64.742 0.116 7.09 5.14 9.24
8/24/2022 8:45:00 AM 18.18 64.724 0.116 7.11 4.84 9.3
8/24/2022 9:00:00 AM 18.18 64.724 0.116 7.13 4.87 9.38
8/24/2022 9:15:00 AM 18.19 64.742 0.115 7.16 4.84 9.45
8/24/2022 9:30:00 AM 18.22 64.796 0.115 7.19 4.79 9.52
8/24/2022 9:45:00 AM 18.26 64.868 0.115 7.24 4.75 9.59
8/24/2022 10:00:00 AM 18.33 64.994 0.114 7.28 4.67 9.69
8/24/2022 10:15:00 AM 18.42 65.156 0.114 7.35 4.53 9.8
8/24/2022 10:30:00 AM 18.52 65.336 0.114 7.4 4.56 9.85
8/24/2022 10:45:00 AM 18.69 65.642 0.114 7.49 4.32 9.91
8/24/2022 11:00:00 AM 18.84 65.912 0.113 7.54 4.31 9.9
8/24/2022 11:15:00 AM 18.96 66.128 0.113 7.56 4.35 9.87
8/24/2022 11:30:00 AM 19 66.2 0.113 7.57 4.23 9.84
8/24/2022 11:45:00 AM 19.13 66.434 0.113 7.6 4.22 9.84
8/24/2022 12:00:00 PM 19.34 66.812 0.113 7.64 4.01 9.86
8/24/2022 12:15:00 PM 19.49 67.082 0.113 7.66 3.99 9.85
8/24/2022 12:30:00 PM 19.67 67.406 0.112 7.68 3.96 9.83
8/24/2022 12:45:00 PM 19.87 67.766 0.112 7.68 3.97 9.79
8/24/2022 1:00:00 PM 20.08 68.144 0.112 7.71 3.91 9.77
8/24/2022 1:15:00 PM 20.24 68.432 0.112 7.72 3.86 9.74
8/24/2022 1:30:00 PM 20.36 68.648 0.112 7.72 3.77 9.7
8/24/2022 1:45:00 PM 20.39 68.702 0.111 7.72 3.82 9.65
8/24/2022 2:00:00 PM 20.46 68.828 0.111 7.72 3.79 9.63
8/24/2022 2:15:00 PM 20.7 69.26 0.111 7.75 3.79 9.64
8/24/2022 2:30:00 PM 20.85 69.53 0.111 7.78 3.72 9.64
8/24/2022 2:45:00 PM 20.89 69.602 0.111 7.79 3.69 9.6
8/24/2022 3:00:00 PM 21.03 69.854 0.11 7.82 3.64 9.58
8/24/2022 3:15:00 PM 21.14 70.052 0.11 7.79 3.56 9.48
8/24/2022 3:30:00 PM 21.4 70.52 0.11 7.82 3.68 9.53
8/24/2022 3:45:00 PM 21.74 71.132 0.11 7.9 3.54 9.51
8/24/2022 4:00:00 PM 21.9 71.42 0.11 7.92 3.55 9.48
8/24/2022 4:15:00 PM 22.02 71.636 0.11 7.93 3.52 9.44
8/24/2022 4:30:00 PM 22.13 71.834 0.11 7.93 3.56 9.41
8/24/2022 4:45:00 PM 22.19 71.942 0.109 7.94 3.47 9.38
8/24/2022 5:00:00 PM 22.23 72.014 0.109 7.94 3.46 9.36
8/24/2022 5:15:00 PM 22.26 72.068 0.109 7.92 3.49 9.32
8/24/2022 5:30:00 PM 22.25 72.05 0.109 7.89 3.57 9.25
8/24/2022 5:45:00 PM 22.22 71.996 0.109 7.84 3.41 9.17
8/24/2022 6:00:00 PM 22.23 72.014 0.109 7.78 3.39 9.08
8/24/2022 6:15:00 PM 22.23 72.014 0.109 7.71 3.53 8.98
8/24/2022 6:30:00 PM 22.18 71.924 0.109 7.65 3.42 8.89
8/24/2022 6:45:00 PM 22.12 71.816 0.109 7.57 3.36 8.78
8/24/2022 7:00:00 PM 22.08 71.744 0.109 7.5 3.58 8.7
8/24/2022 7:15:00 PM 22.03 71.654 0.109 7.43 3.45 8.62
8/24/2022 7:30:00 PM 21.97 71.546 0.109 7.38 3.43 8.55
8/24/2022 7:45:00 PM 21.92 71.456 0.109 7.34 3.51 8.5
8/24/2022 8:00:00 PM 21.83 71.294 0.11 7.3 3.47 8.44
8/24/2022 8:15:00 PM 21.74 71.132 0.11 7.26 3.44 8.4
8/24/2022 8:30:00 PM 21.64 70.952 0.11 7.22 3.66 8.37
8/24/2022 8:45:00 PM 21.53 70.754 0.11 7.2 3.69 8.36
8/24/2022 9:00:00 PM 21.41 70.538 0.11 7.16 3.7 8.36
8/24/2022 9:15:00 PM 21.3 70.34 0.11 7.12 3.75 8.36
8/24/2022 9:30:00 PM 21.19 70.142 0.11 7.09 3.68 8.37
8/24/2022 9:45:00 PM 21.09 69.962 0.111 7.08 3.75 8.37
8/24/2022 10:00:00 PM 20.98 69.764 0.111 7.07 3.59 8.38
8/24/2022 10:15:00 PM 20.89 69.602 0.111 7.06 3.66 8.4
8/24/2022 10:30:00 PM 20.79 69.422 0.111 7.05 3.59 8.41
8/24/2022 10:45:00 PM 20.69 69.242 0.111 7.03 3.61 8.43
8/24/2022 11:00:00 PM 20.59 69.062 0.111 7.01 3.62 8.44
8/24/2022 11:15:00 PM 20.5 68.9 0.111 7.01 3.59 8.46
8/24/2022 11:30:00 PM 20.4 68.72 0.111 7 3.59 8.48
8/24/2022 11:45:00 PM 20.31 68.558 0.111 6.99 3.7 8.5
8/25/2022 12:00:00 AM 20.21 68.378 0.111 6.98 3.67 8.51
8/25/2022 12:15:00 AM 20.12 68.216 0.111 6.98 3.61 8.54
8/25/2022 12:30:00 AM 20.04 68.07201 0.111 6.96 3.5 8.55
8/25/2022 12:45:00 AM 19.97 67.946 0.111 6.97 3.51 8.57
8/25/2022 1:00:00 AM 19.91 67.838 0.111 6.95 3.65 8.59
8/25/2022 1:15:00 AM 19.85 67.73 0.112 6.96 8 8.6
8/25/2022 1:30:00 AM 19.79 67.622 0.112 6.96 3.41 8.61
8/25/2022 1:45:00 AM 19.73 67.514 0.112 6.96 3.41 8.63
8/25/2022 2:00:00 AM 19.68 67.424 0.112 6.96 3.45 8.64
8/25/2022 2:15:00 AM 19.62 67.316 0.112 6.97 3.43 8.65
8/25/2022 2:30:00 AM 19.56 67.208 0.112 6.97 3.44 8.66
8/25/2022 2:45:00 AM 19.5 67.1 0.112 7 3.42 8.68
8/25/2022 3:00:00 AM 19.44 66.992 0.112 7 3.42 8.69
8/25/2022 3:15:00 AM 19.39 66.902 0.112 7.01 3.39 8.7
8/25/2022 3:30:00 AM 19.33 66.794 0.112 7.02 3.31 8.71
8/25/2022 3:45:00 AM 19.27 66.686 0.112 7.03 3.31 8.73
8/25/2022 4:00:00 AM 19.22 66.596 0.112 7.02 3.38 8.74
8/25/2022 4:15:00 AM 19.17 66.506 0.112 6.99 3.38 8.75
8/25/2022 4:30:00 AM 19.11 66.398 0.112 7.01 3.23 8.76
8/25/2022 4:45:00 AM 19.06 66.308 0.112 7.01 4.39 8.77
8/25/2022 5:00:00 AM 19.01 66.218 0.112 7.02 3.23 8.78
8/25/2022 5:15:00 AM 18.97 66.146 0.112 7.02 3.29 8.79
8/25/2022 5:30:00 AM 18.91 66.038 0.112 7.03 3.27 8.8
8/25/2022 5:45:00 AM 18.86 65.948 0.112 7.03 3.13 8.81
8/25/2022 6:00:00 AM 18.81 65.858 0.112 7.01 3.3 8.82
8/25/2022 6:15:00 AM 18.77 65.786 0.112 7.01 3.22 8.83
8/25/2022 6:30:00 AM 18.72 65.696 0.112 7.01 3.28 8.84
8/25/2022 6:45:00 AM 18.67 65.606 0.112 7.01 3.21 8.86
8/25/2022 7:00:00 AM 18.63 65.534 0.112 7.01 3.15 8.88
8/25/2022 7:15:00 AM 18.59 65.462 0.112 7.02 3.01 8.91
8/25/2022 7:30:00 AM 18.55 65.39 0.111 7.02 2.91 8.97
8/25/2022 7:45:00 AM 18.52 65.336 0.111 7.04 2.91 9.02
8/25/2022 8:00:00 AM 18.49 65.282 0.111 7.05 2.89 9.07
8/25/2022 8:15:00 AM 18.47 65.246 0.111 7.07 2.83 9.15
8/25/2022 8:30:00 AM 18.46 65.228 0.111 7.1 2.83 9.26
8/25/2022 8:45:00 AM 18.46 65.228 0.111 7.14 2.81 9.37
8/25/2022 9:00:00 AM 18.47 65.246 0.111 7.18 2.69 9.49
8/25/2022 9:15:00 AM 18.48 65.264 0.111 7.2 2.73 9.58
8/25/2022 9:30:00 AM 18.51 65.318 0.11 7.26 2.69 9.69
8/25/2022 9:45:00 AM 18.58 65.444 0.11 7.32 2.61 9.81
8/25/2022 10:00:00 AM 18.69 65.642 0.11 7.38 2.64 9.86
8/25/2022 10:15:00 AM 18.76 65.768 0.11 7.4 2.65 9.82
8/25/2022 10:30:00 AM 18.79 65.82201 0.11 7.4 2.65 9.75
8/25/2022 10:45:00 AM 18.88 65.984 0.11 7.4 2.6 9.75
8/25/2022 11:00:00 AM 19 66.2 0.109 7.44 2.54 9.76
8/25/2022 11:15:00 AM 19.13 66.434 0.109 7.48 2.46 9.77
8/25/2022 11:30:00 AM 19.28 66.704 0.109 7.5 2.52 9.78
8/25/2022 11:45:00 AM 19.44 66.992 0.109 7.53 2.5 9.77
8/25/2022 12:00:00 PM 19.62 67.316 0.109 7.56 2.52 9.77
8/25/2022 12:15:00 PM 19.83 67.694 0.109 7.59 2.54 9.76
8/25/2022 12:30:00 PM 20.04 68.07201 0.109 7.63 2.62 9.76